<?xml version="1.0" encoding="UTF-8" standalone="no" ?>
<gpx xmlns="http://www.topografix.com/GPX/1/1" xmlns:xsi="http://www.w3.org/2001/XMLSchema-instance" xsi:schemaLocation="http://www.topografix.com/GPX/1/1 http://www.topografix.com/GPX/1/1/gpx.xsd" version="1.1" creator="VisuGPX - https://www.visugpx.com">
  <metadata>
    <name>Le Môle (depuis chez Béroud)</name>
    <desc><![CDATA[En ski de randonnée                                          ]]></desc>
  </metadata>
  <trk>
    <name><![CDATA[20180321201302-S4Kbf]]></name>
    <trkseg>
      <trkpt lat="46.09908" lon="6.43888">
        <ele>1164</ele>
        <time>2018-03-14T13:24:31Z</time>
      </trkpt>
      <trkpt lat="46.09908" lon="6.43888">
        <ele>1164</ele>
        <time>2018-03-14T13:24:32Z</time>
      </trkpt>
      <trkpt lat="46.09908" lon="6.43887">
        <ele>1164</ele>
        <time>2018-03-14T13:24:33Z</time>
      </trkpt>
      <trkpt lat="46.09909" lon="6.43885">
        <ele>1164</ele>
        <time>2018-03-14T13:24:35Z</time>
      </trkpt>
      <trkpt lat="46.09909" lon="6.43884">
        <ele>1164</ele>
        <time>2018-03-14T13:24:36Z</time>
      </trkpt>
      <trkpt lat="46.0991" lon="6.43884">
        <ele>1164</ele>
        <time>2018-03-14T13:24:37Z</time>
      </trkpt>
      <trkpt lat="46.09912" lon="6.43885">
        <ele>1164</ele>
        <time>2018-03-14T13:24:40Z</time>
      </trkpt>
      <trkpt lat="46.09913" lon="6.43886">
        <ele>1164</ele>
        <time>2018-03-14T13:24:43Z</time>
      </trkpt>
      <trkpt lat="46.09914" lon="6.43887">
        <ele>1165</ele>
        <time>2018-03-14T13:24:46Z</time>
      </trkpt>
      <trkpt lat="46.09915" lon="6.43889">
        <ele>1165</ele>
        <time>2018-03-14T13:24:48Z</time>
      </trkpt>
      <trkpt lat="46.09916" lon="6.43892">
        <ele>1166</ele>
        <time>2018-03-14T13:24:51Z</time>
      </trkpt>
      <trkpt lat="46.09915" lon="6.43895">
        <ele>1167</ele>
        <time>2018-03-14T13:24:52Z</time>
      </trkpt>
      <trkpt lat="46.09916" lon="6.43898">
        <ele>1168</ele>
        <time>2018-03-14T13:24:55Z</time>
      </trkpt>
      <trkpt lat="46.09916" lon="6.43905">
        <ele>1171</ele>
        <time>2018-03-14T13:25:00Z</time>
      </trkpt>
      <trkpt lat="46.09915" lon="6.43913">
        <ele>1175</ele>
        <time>2018-03-14T13:25:05Z</time>
      </trkpt>
      <trkpt lat="46.09915" lon="6.43921">
        <ele>1177</ele>
        <time>2018-03-14T13:25:11Z</time>
      </trkpt>
      <trkpt lat="46.09918" lon="6.43926">
        <ele>1187</ele>
        <time>2018-03-14T13:25:17Z</time>
      </trkpt>
      <trkpt lat="46.09919" lon="6.43926">
        <ele>1187</ele>
        <time>2018-03-14T13:25:18Z</time>
      </trkpt>
      <trkpt lat="46.0992" lon="6.43924">
        <ele>1186</ele>
        <time>2018-03-14T13:25:19Z</time>
      </trkpt>
      <trkpt lat="46.09924" lon="6.43921">
        <ele>1186</ele>
        <time>2018-03-14T13:25:24Z</time>
      </trkpt>
      <trkpt lat="46.09925" lon="6.43919">
        <ele>1187</ele>
        <time>2018-03-14T13:25:28Z</time>
      </trkpt>
      <trkpt lat="46.09929" lon="6.43914">
        <ele>1180</ele>
        <time>2018-03-14T13:25:34Z</time>
      </trkpt>
      <trkpt lat="46.09936" lon="6.43915">
        <ele>1182</ele>
        <time>2018-03-14T13:25:45Z</time>
      </trkpt>
      <trkpt lat="46.09942" lon="6.43915">
        <ele>1183</ele>
        <time>2018-03-14T13:25:57Z</time>
      </trkpt>
      <trkpt lat="46.0995" lon="6.43918">
        <ele>1199</ele>
        <time>2018-03-14T13:26:09Z</time>
      </trkpt>
      <trkpt lat="46.0996" lon="6.43914">
        <ele>1187</ele>
        <time>2018-03-14T13:26:20Z</time>
      </trkpt>
      <trkpt lat="46.09971" lon="6.4391">
        <ele>1189</ele>
        <time>2018-03-14T13:26:35Z</time>
      </trkpt>
      <trkpt lat="46.09979" lon="6.43911">
        <ele>1193</ele>
        <time>2018-03-14T13:26:48Z</time>
      </trkpt>
      <trkpt lat="46.09982" lon="6.43911">
        <ele>1194</ele>
        <time>2018-03-14T13:26:50Z</time>
      </trkpt>
      <trkpt lat="46.09988" lon="6.43912">
        <ele>1197</ele>
        <time>2018-03-14T13:26:59Z</time>
      </trkpt>
      <trkpt lat="46.09994" lon="6.43914">
        <ele>1201</ele>
        <time>2018-03-14T13:27:08Z</time>
      </trkpt>
      <trkpt lat="46.10003" lon="6.43915">
        <ele>1207</ele>
        <time>2018-03-14T13:27:19Z</time>
      </trkpt>
      <trkpt lat="46.10023" lon="6.43909">
        <ele>1206</ele>
        <time>2018-03-14T13:27:37Z</time>
      </trkpt>
      <trkpt lat="46.10024" lon="6.43909">
        <ele>1206</ele>
        <time>2018-03-14T13:27:38Z</time>
      </trkpt>
      <trkpt lat="46.10025" lon="6.43909">
        <ele>1206</ele>
        <time>2018-03-14T13:27:39Z</time>
      </trkpt>
      <trkpt lat="46.10046" lon="6.43905">
        <ele>1208</ele>
        <time>2018-03-14T13:27:59Z</time>
      </trkpt>
      <trkpt lat="46.10067" lon="6.439">
        <ele>1212</ele>
        <time>2018-03-14T13:28:19Z</time>
      </trkpt>
      <trkpt lat="46.10086" lon="6.439">
        <ele>1220</ele>
        <time>2018-03-14T13:28:35Z</time>
      </trkpt>
      <trkpt lat="46.10103" lon="6.43902">
        <ele>1219</ele>
        <time>2018-03-14T13:28:49Z</time>
      </trkpt>
      <trkpt lat="46.10104" lon="6.43903">
        <ele>1219</ele>
        <time>2018-03-14T13:28:50Z</time>
      </trkpt>
      <trkpt lat="46.10105" lon="6.43903">
        <ele>1219</ele>
        <time>2018-03-14T13:28:51Z</time>
      </trkpt>
      <trkpt lat="46.10115" lon="6.43901">
        <ele>1218</ele>
        <time>2018-03-14T13:28:59Z</time>
      </trkpt>
      <trkpt lat="46.10116" lon="6.43901">
        <ele>1218</ele>
        <time>2018-03-14T13:29:00Z</time>
      </trkpt>
      <trkpt lat="46.10117" lon="6.43902">
        <ele>1218</ele>
        <time>2018-03-14T13:29:01Z</time>
      </trkpt>
      <trkpt lat="46.10118" lon="6.43903">
        <ele>1218</ele>
        <time>2018-03-14T13:29:02Z</time>
      </trkpt>
      <trkpt lat="46.1012" lon="6.43902">
        <ele>1218</ele>
        <time>2018-03-14T13:29:03Z</time>
      </trkpt>
      <trkpt lat="46.10121" lon="6.43902">
        <ele>1218</ele>
        <time>2018-03-14T13:29:04Z</time>
      </trkpt>
      <trkpt lat="46.10122" lon="6.43903">
        <ele>1218</ele>
        <time>2018-03-14T13:29:05Z</time>
      </trkpt>
      <trkpt lat="46.10122" lon="6.43903">
        <ele>1218</ele>
        <time>2018-03-14T13:29:06Z</time>
      </trkpt>
      <trkpt lat="46.10123" lon="6.43903">
        <ele>1218</ele>
        <time>2018-03-14T13:29:07Z</time>
      </trkpt>
      <trkpt lat="46.10128" lon="6.43905">
        <ele>1218</ele>
        <time>2018-03-14T13:29:11Z</time>
      </trkpt>
      <trkpt lat="46.10129" lon="6.43906">
        <ele>1219</ele>
        <time>2018-03-14T13:29:12Z</time>
      </trkpt>
      <trkpt lat="46.1013" lon="6.43908">
        <ele>1219</ele>
        <time>2018-03-14T13:29:13Z</time>
      </trkpt>
      <trkpt lat="46.1013" lon="6.43909">
        <ele>1219</ele>
        <time>2018-03-14T13:29:14Z</time>
      </trkpt>
      <trkpt lat="46.10134" lon="6.43909">
        <ele>1219</ele>
        <time>2018-03-14T13:29:19Z</time>
      </trkpt>
      <trkpt lat="46.10136" lon="6.4391">
        <ele>1220</ele>
        <time>2018-03-14T13:29:20Z</time>
      </trkpt>
      <trkpt lat="46.10137" lon="6.43911">
        <ele>1220</ele>
        <time>2018-03-14T13:29:21Z</time>
      </trkpt>
      <trkpt lat="46.10148" lon="6.43916">
        <ele>1223</ele>
        <time>2018-03-14T13:29:33Z</time>
      </trkpt>
      <trkpt lat="46.10164" lon="6.43929">
        <ele>1237</ele>
        <time>2018-03-14T13:29:49Z</time>
      </trkpt>
      <trkpt lat="46.10177" lon="6.43934">
        <ele>1239</ele>
        <time>2018-03-14T13:30:03Z</time>
      </trkpt>
      <trkpt lat="46.10179" lon="6.43935">
        <ele>1239</ele>
        <time>2018-03-14T13:30:11Z</time>
      </trkpt>
      <trkpt lat="46.10179" lon="6.43935">
        <ele>1239</ele>
        <time>2018-03-14T13:30:18Z</time>
      </trkpt>
      <trkpt lat="46.10179" lon="6.43935">
        <ele>1239</ele>
        <time>2018-03-14T13:30:23Z</time>
      </trkpt>
      <trkpt lat="46.10181" lon="6.43935">
        <ele>1239</ele>
        <time>2018-03-14T13:30:29Z</time>
      </trkpt>
      <trkpt lat="46.10181" lon="6.43935">
        <ele>1239</ele>
        <time>2018-03-14T13:30:32Z</time>
      </trkpt>
      <trkpt lat="46.10182" lon="6.43935">
        <ele>1239</ele>
        <time>2018-03-14T13:30:35Z</time>
      </trkpt>
      <trkpt lat="46.10183" lon="6.43935">
        <ele>1239</ele>
        <time>2018-03-14T13:30:37Z</time>
      </trkpt>
      <trkpt lat="46.10184" lon="6.43934">
        <ele>1239</ele>
        <time>2018-03-14T13:30:40Z</time>
      </trkpt>
      <trkpt lat="46.10185" lon="6.43935">
        <ele>1240</ele>
        <time>2018-03-14T13:30:44Z</time>
      </trkpt>
      <trkpt lat="46.10185" lon="6.43937">
        <ele>1240</ele>
        <time>2018-03-14T13:30:50Z</time>
      </trkpt>
      <trkpt lat="46.10188" lon="6.43942">
        <ele>1241</ele>
        <time>2018-03-14T13:30:59Z</time>
      </trkpt>
      <trkpt lat="46.10189" lon="6.43943">
        <ele>1241</ele>
        <time>2018-03-14T13:31:02Z</time>
      </trkpt>
      <trkpt lat="46.10193" lon="6.43947">
        <ele>1242</ele>
        <time>2018-03-14T13:31:06Z</time>
      </trkpt>
      <trkpt lat="46.10194" lon="6.43948">
        <ele>1242</ele>
        <time>2018-03-14T13:31:07Z</time>
      </trkpt>
      <trkpt lat="46.10195" lon="6.43948">
        <ele>1242</ele>
        <time>2018-03-14T13:31:08Z</time>
      </trkpt>
      <trkpt lat="46.10204" lon="6.43953">
        <ele>1243</ele>
        <time>2018-03-14T13:31:16Z</time>
      </trkpt>
      <trkpt lat="46.10209" lon="6.43956">
        <ele>1244</ele>
        <time>2018-03-14T13:31:21Z</time>
      </trkpt>
      <trkpt lat="46.10213" lon="6.43959">
        <ele>1244</ele>
        <time>2018-03-14T13:31:25Z</time>
      </trkpt>
      <trkpt lat="46.10217" lon="6.43963">
        <ele>1245</ele>
        <time>2018-03-14T13:31:30Z</time>
      </trkpt>
      <trkpt lat="46.10219" lon="6.43965">
        <ele>1245</ele>
        <time>2018-03-14T13:31:33Z</time>
      </trkpt>
      <trkpt lat="46.10221" lon="6.43968">
        <ele>1245</ele>
        <time>2018-03-14T13:31:36Z</time>
      </trkpt>
      <trkpt lat="46.10224" lon="6.4397">
        <ele>1246</ele>
        <time>2018-03-14T13:31:40Z</time>
      </trkpt>
      <trkpt lat="46.10229" lon="6.43973">
        <ele>1247</ele>
        <time>2018-03-14T13:31:45Z</time>
      </trkpt>
      <trkpt lat="46.10231" lon="6.43974">
        <ele>1247</ele>
        <time>2018-03-14T13:31:46Z</time>
      </trkpt>
      <trkpt lat="46.10232" lon="6.43975">
        <ele>1247</ele>
        <time>2018-03-14T13:31:47Z</time>
      </trkpt>
      <trkpt lat="46.10233" lon="6.43976">
        <ele>1247</ele>
        <time>2018-03-14T13:31:48Z</time>
      </trkpt>
      <trkpt lat="46.10234" lon="6.43977">
        <ele>1248</ele>
        <time>2018-03-14T13:31:49Z</time>
      </trkpt>
      <trkpt lat="46.10247" lon="6.43988">
        <ele>1251</ele>
        <time>2018-03-14T13:32:02Z</time>
      </trkpt>
      <trkpt lat="46.1025" lon="6.43989">
        <ele>1251</ele>
        <time>2018-03-14T13:32:03Z</time>
      </trkpt>
      <trkpt lat="46.10251" lon="6.43989">
        <ele>1252</ele>
        <time>2018-03-14T13:32:04Z</time>
      </trkpt>
      <trkpt lat="46.10252" lon="6.4399">
        <ele>1252</ele>
        <time>2018-03-14T13:32:05Z</time>
      </trkpt>
      <trkpt lat="46.10253" lon="6.4399">
        <ele>1252</ele>
        <time>2018-03-14T13:32:06Z</time>
      </trkpt>
      <trkpt lat="46.10254" lon="6.43991">
        <ele>1252</ele>
        <time>2018-03-14T13:32:07Z</time>
      </trkpt>
      <trkpt lat="46.10256" lon="6.43991">
        <ele>1252</ele>
        <time>2018-03-14T13:32:08Z</time>
      </trkpt>
      <trkpt lat="46.10257" lon="6.43991">
        <ele>1252</ele>
        <time>2018-03-14T13:32:09Z</time>
      </trkpt>
      <trkpt lat="46.10258" lon="6.43992">
        <ele>1252</ele>
        <time>2018-03-14T13:32:10Z</time>
      </trkpt>
      <trkpt lat="46.10286" lon="6.44005">
        <ele>1266</ele>
        <time>2018-03-14T13:32:35Z</time>
      </trkpt>
      <trkpt lat="46.10295" lon="6.44007">
        <ele>1267</ele>
        <time>2018-03-14T13:32:44Z</time>
      </trkpt>
      <trkpt lat="46.10298" lon="6.44007">
        <ele>1267</ele>
        <time>2018-03-14T13:32:47Z</time>
      </trkpt>
      <trkpt lat="46.10299" lon="6.44007">
        <ele>1267</ele>
        <time>2018-03-14T13:32:48Z</time>
      </trkpt>
      <trkpt lat="46.10301" lon="6.44006">
        <ele>1267</ele>
        <time>2018-03-14T13:32:49Z</time>
      </trkpt>
      <trkpt lat="46.10302" lon="6.44006">
        <ele>1267</ele>
        <time>2018-03-14T13:32:50Z</time>
      </trkpt>
      <trkpt lat="46.10303" lon="6.44005">
        <ele>1267</ele>
        <time>2018-03-14T13:32:51Z</time>
      </trkpt>
      <trkpt lat="46.10317" lon="6.44007">
        <ele>1265</ele>
        <time>2018-03-14T13:33:02Z</time>
      </trkpt>
      <trkpt lat="46.10338" lon="6.43999">
        <ele>1258</ele>
        <time>2018-03-14T13:33:22Z</time>
      </trkpt>
      <trkpt lat="46.1035" lon="6.44001">
        <ele>1267</ele>
        <time>2018-03-14T13:33:32Z</time>
      </trkpt>
      <trkpt lat="46.10351" lon="6.44001">
        <ele>1267</ele>
        <time>2018-03-14T13:33:33Z</time>
      </trkpt>
      <trkpt lat="46.10352" lon="6.44001">
        <ele>1268</ele>
        <time>2018-03-14T13:33:34Z</time>
      </trkpt>
      <trkpt lat="46.10368" lon="6.44007">
        <ele>1271</ele>
        <time>2018-03-14T13:33:53Z</time>
      </trkpt>
      <trkpt lat="46.10367" lon="6.44019">
        <ele>1272</ele>
        <time>2018-03-14T13:34:07Z</time>
      </trkpt>
      <trkpt lat="46.10366" lon="6.4402">
        <ele>1272</ele>
        <time>2018-03-14T13:34:08Z</time>
      </trkpt>
      <trkpt lat="46.10365" lon="6.4402">
        <ele>1272</ele>
        <time>2018-03-14T13:34:09Z</time>
      </trkpt>
      <trkpt lat="46.10363" lon="6.4402">
        <ele>1272</ele>
        <time>2018-03-14T13:34:10Z</time>
      </trkpt>
      <trkpt lat="46.10362" lon="6.4402">
        <ele>1272</ele>
        <time>2018-03-14T13:34:11Z</time>
      </trkpt>
      <trkpt lat="46.1036" lon="6.44022">
        <ele>1272</ele>
        <time>2018-03-14T13:34:13Z</time>
      </trkpt>
      <trkpt lat="46.10358" lon="6.44024">
        <ele>1272</ele>
        <time>2018-03-14T13:34:14Z</time>
      </trkpt>
      <trkpt lat="46.10357" lon="6.44026">
        <ele>1273</ele>
        <time>2018-03-14T13:34:16Z</time>
      </trkpt>
      <trkpt lat="46.10356" lon="6.44026">
        <ele>1273</ele>
        <time>2018-03-14T13:34:17Z</time>
      </trkpt>
      <trkpt lat="46.10352" lon="6.44031">
        <ele>1273</ele>
        <time>2018-03-14T13:34:24Z</time>
      </trkpt>
      <trkpt lat="46.10343" lon="6.44052">
        <ele>1277</ele>
        <time>2018-03-14T13:34:45Z</time>
      </trkpt>
      <trkpt lat="46.10342" lon="6.44055">
        <ele>1278</ele>
        <time>2018-03-14T13:34:48Z</time>
      </trkpt>
      <trkpt lat="46.10332" lon="6.44062">
        <ele>1277</ele>
        <time>2018-03-14T13:34:57Z</time>
      </trkpt>
      <trkpt lat="46.10331" lon="6.44064">
        <ele>1277</ele>
        <time>2018-03-14T13:34:58Z</time>
      </trkpt>
      <trkpt lat="46.10329" lon="6.44067">
        <ele>1278</ele>
        <time>2018-03-14T13:35:00Z</time>
      </trkpt>
      <trkpt lat="46.10327" lon="6.44069">
        <ele>1278</ele>
        <time>2018-03-14T13:35:01Z</time>
      </trkpt>
      <trkpt lat="46.10325" lon="6.44069">
        <ele>1278</ele>
        <time>2018-03-14T13:35:02Z</time>
      </trkpt>
      <trkpt lat="46.10324" lon="6.44071">
        <ele>1279</ele>
        <time>2018-03-14T13:35:03Z</time>
      </trkpt>
      <trkpt lat="46.10323" lon="6.44072">
        <ele>1279</ele>
        <time>2018-03-14T13:35:04Z</time>
      </trkpt>
      <trkpt lat="46.10322" lon="6.44074">
        <ele>1279</ele>
        <time>2018-03-14T13:35:05Z</time>
      </trkpt>
      <trkpt lat="46.10321" lon="6.44074">
        <ele>1279</ele>
        <time>2018-03-14T13:35:06Z</time>
      </trkpt>
      <trkpt lat="46.10315" lon="6.44077">
        <ele>1278</ele>
        <time>2018-03-14T13:35:11Z</time>
      </trkpt>
      <trkpt lat="46.10311" lon="6.4408">
        <ele>1278</ele>
        <time>2018-03-14T13:35:14Z</time>
      </trkpt>
      <trkpt lat="46.1031" lon="6.44081">
        <ele>1278</ele>
        <time>2018-03-14T13:35:15Z</time>
      </trkpt>
      <trkpt lat="46.10309" lon="6.44081">
        <ele>1278</ele>
        <time>2018-03-14T13:35:16Z</time>
      </trkpt>
      <trkpt lat="46.10307" lon="6.44081">
        <ele>1277</ele>
        <time>2018-03-14T13:35:17Z</time>
      </trkpt>
      <trkpt lat="46.10306" lon="6.44081">
        <ele>1277</ele>
        <time>2018-03-14T13:35:18Z</time>
      </trkpt>
      <trkpt lat="46.10305" lon="6.44081">
        <ele>1277</ele>
        <time>2018-03-14T13:35:19Z</time>
      </trkpt>
      <trkpt lat="46.10304" lon="6.44081">
        <ele>1277</ele>
        <time>2018-03-14T13:35:20Z</time>
      </trkpt>
      <trkpt lat="46.10302" lon="6.44082">
        <ele>1277</ele>
        <time>2018-03-14T13:35:21Z</time>
      </trkpt>
      <trkpt lat="46.103" lon="6.44082">
        <ele>1277</ele>
        <time>2018-03-14T13:35:22Z</time>
      </trkpt>
      <trkpt lat="46.10298" lon="6.44083">
        <ele>1277</ele>
        <time>2018-03-14T13:35:24Z</time>
      </trkpt>
      <trkpt lat="46.10297" lon="6.44083">
        <ele>1277</ele>
        <time>2018-03-14T13:35:25Z</time>
      </trkpt>
      <trkpt lat="46.10292" lon="6.44086">
        <ele>1295</ele>
        <time>2018-03-14T13:35:29Z</time>
      </trkpt>
      <trkpt lat="46.10291" lon="6.44087">
        <ele>1295</ele>
        <time>2018-03-14T13:35:31Z</time>
      </trkpt>
      <trkpt lat="46.10289" lon="6.44087">
        <ele>1295</ele>
        <time>2018-03-14T13:35:32Z</time>
      </trkpt>
      <trkpt lat="46.10287" lon="6.44088">
        <ele>1295</ele>
        <time>2018-03-14T13:35:33Z</time>
      </trkpt>
      <trkpt lat="46.10286" lon="6.44089">
        <ele>1295</ele>
        <time>2018-03-14T13:35:34Z</time>
      </trkpt>
      <trkpt lat="46.10285" lon="6.44089">
        <ele>1295</ele>
        <time>2018-03-14T13:35:35Z</time>
      </trkpt>
      <trkpt lat="46.10284" lon="6.44089">
        <ele>1295</ele>
        <time>2018-03-14T13:35:36Z</time>
      </trkpt>
      <trkpt lat="46.10278" lon="6.44092">
        <ele>1295</ele>
        <time>2018-03-14T13:35:41Z</time>
      </trkpt>
      <trkpt lat="46.10277" lon="6.44092">
        <ele>1295</ele>
        <time>2018-03-14T13:35:42Z</time>
      </trkpt>
      <trkpt lat="46.10267" lon="6.44097">
        <ele>1294</ele>
        <time>2018-03-14T13:35:50Z</time>
      </trkpt>
      <trkpt lat="46.10266" lon="6.44098">
        <ele>1294</ele>
        <time>2018-03-14T13:35:51Z</time>
      </trkpt>
      <trkpt lat="46.10264" lon="6.44098">
        <ele>1294</ele>
        <time>2018-03-14T13:35:52Z</time>
      </trkpt>
      <trkpt lat="46.10263" lon="6.44098">
        <ele>1294</ele>
        <time>2018-03-14T13:35:53Z</time>
      </trkpt>
      <trkpt lat="46.10262" lon="6.44098">
        <ele>1294</ele>
        <time>2018-03-14T13:35:54Z</time>
      </trkpt>
      <trkpt lat="46.1026" lon="6.44099">
        <ele>1294</ele>
        <time>2018-03-14T13:35:55Z</time>
      </trkpt>
      <trkpt lat="46.10257" lon="6.44099">
        <ele>1293</ele>
        <time>2018-03-14T13:35:58Z</time>
      </trkpt>
      <trkpt lat="46.10256" lon="6.44098">
        <ele>1293</ele>
        <time>2018-03-14T13:35:59Z</time>
      </trkpt>
      <trkpt lat="46.10252" lon="6.44098">
        <ele>1292</ele>
        <time>2018-03-14T13:36:03Z</time>
      </trkpt>
      <trkpt lat="46.10251" lon="6.44098">
        <ele>1292</ele>
        <time>2018-03-14T13:36:04Z</time>
      </trkpt>
      <trkpt lat="46.10249" lon="6.44098">
        <ele>1294</ele>
        <time>2018-03-14T13:36:05Z</time>
      </trkpt>
      <trkpt lat="46.10248" lon="6.44098">
        <ele>1295</ele>
        <time>2018-03-14T13:36:06Z</time>
      </trkpt>
      <trkpt lat="46.10245" lon="6.441">
        <ele>1295</ele>
        <time>2018-03-14T13:36:09Z</time>
      </trkpt>
      <trkpt lat="46.10244" lon="6.441">
        <ele>1296</ele>
        <time>2018-03-14T13:36:10Z</time>
      </trkpt>
      <trkpt lat="46.10242" lon="6.44101">
        <ele>1296</ele>
        <time>2018-03-14T13:36:11Z</time>
      </trkpt>
      <trkpt lat="46.10241" lon="6.44101">
        <ele>1297</ele>
        <time>2018-03-14T13:36:12Z</time>
      </trkpt>
      <trkpt lat="46.10233" lon="6.44103">
        <ele>1299</ele>
        <time>2018-03-14T13:36:19Z</time>
      </trkpt>
      <trkpt lat="46.10232" lon="6.44103">
        <ele>1299</ele>
        <time>2018-03-14T13:36:20Z</time>
      </trkpt>
      <trkpt lat="46.10231" lon="6.44104">
        <ele>1299</ele>
        <time>2018-03-14T13:36:21Z</time>
      </trkpt>
      <trkpt lat="46.10228" lon="6.44102">
        <ele>1299</ele>
        <time>2018-03-14T13:36:24Z</time>
      </trkpt>
      <trkpt lat="46.10225" lon="6.44102">
        <ele>1300</ele>
        <time>2018-03-14T13:36:27Z</time>
      </trkpt>
      <trkpt lat="46.10222" lon="6.44099">
        <ele>1300</ele>
        <time>2018-03-14T13:36:31Z</time>
      </trkpt>
      <trkpt lat="46.10221" lon="6.44096">
        <ele>1300</ele>
        <time>2018-03-14T13:36:34Z</time>
      </trkpt>
      <trkpt lat="46.10205" lon="6.4409">
        <ele>1301</ele>
        <time>2018-03-14T13:36:53Z</time>
      </trkpt>
      <trkpt lat="46.10201" lon="6.44088">
        <ele>1301</ele>
        <time>2018-03-14T13:36:57Z</time>
      </trkpt>
      <trkpt lat="46.10188" lon="6.44082">
        <ele>1284</ele>
        <time>2018-03-14T13:37:07Z</time>
      </trkpt>
      <trkpt lat="46.10185" lon="6.44081">
        <ele>1285</ele>
        <time>2018-03-14T13:37:10Z</time>
      </trkpt>
      <trkpt lat="46.1018" lon="6.44078">
        <ele>1286</ele>
        <time>2018-03-14T13:37:16Z</time>
      </trkpt>
      <trkpt lat="46.10178" lon="6.44078">
        <ele>1287</ele>
        <time>2018-03-14T13:37:17Z</time>
      </trkpt>
      <trkpt lat="46.10176" lon="6.44078">
        <ele>1288</ele>
        <time>2018-03-14T13:37:18Z</time>
      </trkpt>
      <trkpt lat="46.10175" lon="6.44077">
        <ele>1288</ele>
        <time>2018-03-14T13:37:19Z</time>
      </trkpt>
      <trkpt lat="46.10173" lon="6.44077">
        <ele>1289</ele>
        <time>2018-03-14T13:37:20Z</time>
      </trkpt>
      <trkpt lat="46.10172" lon="6.44077">
        <ele>1289</ele>
        <time>2018-03-14T13:37:21Z</time>
      </trkpt>
      <trkpt lat="46.10171" lon="6.44077">
        <ele>1289</ele>
        <time>2018-03-14T13:37:22Z</time>
      </trkpt>
      <trkpt lat="46.10167" lon="6.44076">
        <ele>1290</ele>
        <time>2018-03-14T13:37:25Z</time>
      </trkpt>
      <trkpt lat="46.10166" lon="6.44076">
        <ele>1291</ele>
        <time>2018-03-14T13:37:26Z</time>
      </trkpt>
      <trkpt lat="46.10146" lon="6.44082">
        <ele>1287</ele>
        <time>2018-03-14T13:37:43Z</time>
      </trkpt>
      <trkpt lat="46.10126" lon="6.44084">
        <ele>1305</ele>
        <time>2018-03-14T13:38:00Z</time>
      </trkpt>
      <trkpt lat="46.10109" lon="6.4409">
        <ele>1304</ele>
        <time>2018-03-14T13:38:14Z</time>
      </trkpt>
      <trkpt lat="46.10093" lon="6.44107">
        <ele>1306</ele>
        <time>2018-03-14T13:38:32Z</time>
      </trkpt>
      <trkpt lat="46.10082" lon="6.44123">
        <ele>1298</ele>
        <time>2018-03-14T13:38:45Z</time>
      </trkpt>
      <trkpt lat="46.10081" lon="6.44124">
        <ele>1298</ele>
        <time>2018-03-14T13:38:46Z</time>
      </trkpt>
      <trkpt lat="46.1008" lon="6.44126">
        <ele>1298</ele>
        <time>2018-03-14T13:38:47Z</time>
      </trkpt>
      <trkpt lat="46.10072" lon="6.44138">
        <ele>1301</ele>
        <time>2018-03-14T13:39:01Z</time>
      </trkpt>
      <trkpt lat="46.10067" lon="6.44145">
        <ele>1302</ele>
        <time>2018-03-14T13:39:10Z</time>
      </trkpt>
      <trkpt lat="46.10067" lon="6.44147">
        <ele>1303</ele>
        <time>2018-03-14T13:39:11Z</time>
      </trkpt>
      <trkpt lat="46.10066" lon="6.44147">
        <ele>1303</ele>
        <time>2018-03-14T13:39:12Z</time>
      </trkpt>
      <trkpt lat="46.10066" lon="6.44149">
        <ele>1303</ele>
        <time>2018-03-14T13:39:13Z</time>
      </trkpt>
      <trkpt lat="46.10065" lon="6.44151">
        <ele>1303</ele>
        <time>2018-03-14T13:39:15Z</time>
      </trkpt>
      <trkpt lat="46.10065" lon="6.44152">
        <ele>1304</ele>
        <time>2018-03-14T13:39:16Z</time>
      </trkpt>
      <trkpt lat="46.10065" lon="6.44153">
        <ele>1304</ele>
        <time>2018-03-14T13:39:17Z</time>
      </trkpt>
      <trkpt lat="46.10063" lon="6.44157">
        <ele>1304</ele>
        <time>2018-03-14T13:39:20Z</time>
      </trkpt>
      <trkpt lat="46.10062" lon="6.44159">
        <ele>1304</ele>
        <time>2018-03-14T13:39:21Z</time>
      </trkpt>
      <trkpt lat="46.10062" lon="6.4416">
        <ele>1304</ele>
        <time>2018-03-14T13:39:22Z</time>
      </trkpt>
      <trkpt lat="46.10062" lon="6.44163">
        <ele>1305</ele>
        <time>2018-03-14T13:39:24Z</time>
      </trkpt>
      <trkpt lat="46.10062" lon="6.44165">
        <ele>1305</ele>
        <time>2018-03-14T13:39:25Z</time>
      </trkpt>
      <trkpt lat="46.10062" lon="6.44167">
        <ele>1315</ele>
        <time>2018-03-14T13:39:26Z</time>
      </trkpt>
      <trkpt lat="46.10062" lon="6.44169">
        <ele>1315</ele>
        <time>2018-03-14T13:39:27Z</time>
      </trkpt>
      <trkpt lat="46.10061" lon="6.4417">
        <ele>1315</ele>
        <time>2018-03-14T13:39:28Z</time>
      </trkpt>
      <trkpt lat="46.10061" lon="6.44173">
        <ele>1315</ele>
        <time>2018-03-14T13:39:29Z</time>
      </trkpt>
      <trkpt lat="46.10061" lon="6.44175">
        <ele>1315</ele>
        <time>2018-03-14T13:39:30Z</time>
      </trkpt>
      <trkpt lat="46.10059" lon="6.44187">
        <ele>1314</ele>
        <time>2018-03-14T13:39:38Z</time>
      </trkpt>
      <trkpt lat="46.1006" lon="6.44197">
        <ele>1314</ele>
        <time>2018-03-14T13:39:44Z</time>
      </trkpt>
      <trkpt lat="46.1006" lon="6.442">
        <ele>1314</ele>
        <time>2018-03-14T13:39:46Z</time>
      </trkpt>
      <trkpt lat="46.1006" lon="6.44201">
        <ele>1314</ele>
        <time>2018-03-14T13:39:47Z</time>
      </trkpt>
      <trkpt lat="46.10061" lon="6.44236">
        <ele>1320</ele>
        <time>2018-03-14T13:40:10Z</time>
      </trkpt>
      <trkpt lat="46.10065" lon="6.4426">
        <ele>1329</ele>
        <time>2018-03-14T13:40:29Z</time>
      </trkpt>
      <trkpt lat="46.10066" lon="6.44265">
        <ele>1328</ele>
        <time>2018-03-14T13:40:32Z</time>
      </trkpt>
      <trkpt lat="46.10066" lon="6.44268">
        <ele>1328</ele>
        <time>2018-03-14T13:40:35Z</time>
      </trkpt>
      <trkpt lat="46.10065" lon="6.4427">
        <ele>1327</ele>
        <time>2018-03-14T13:40:36Z</time>
      </trkpt>
      <trkpt lat="46.10061" lon="6.44306">
        <ele>1327</ele>
        <time>2018-03-14T13:40:55Z</time>
      </trkpt>
      <trkpt lat="46.1006" lon="6.44317">
        <ele>1329</ele>
        <time>2018-03-14T13:41:03Z</time>
      </trkpt>
      <trkpt lat="46.1006" lon="6.44319">
        <ele>1329</ele>
        <time>2018-03-14T13:41:04Z</time>
      </trkpt>
      <trkpt lat="46.10059" lon="6.44323">
        <ele>1330</ele>
        <time>2018-03-14T13:41:07Z</time>
      </trkpt>
      <trkpt lat="46.10059" lon="6.44325">
        <ele>1330</ele>
        <time>2018-03-14T13:41:08Z</time>
      </trkpt>
      <trkpt lat="46.10059" lon="6.44326">
        <ele>1330</ele>
        <time>2018-03-14T13:41:09Z</time>
      </trkpt>
      <trkpt lat="46.10059" lon="6.44327">
        <ele>1330</ele>
        <time>2018-03-14T13:41:11Z</time>
      </trkpt>
      <trkpt lat="46.10059" lon="6.44329">
        <ele>1330</ele>
        <time>2018-03-14T13:41:12Z</time>
      </trkpt>
      <trkpt lat="46.10059" lon="6.44331">
        <ele>1330</ele>
        <time>2018-03-14T13:41:13Z</time>
      </trkpt>
      <trkpt lat="46.10059" lon="6.44332">
        <ele>1330</ele>
        <time>2018-03-14T13:41:14Z</time>
      </trkpt>
      <trkpt lat="46.10059" lon="6.44334">
        <ele>1333</ele>
        <time>2018-03-14T13:41:15Z</time>
      </trkpt>
      <trkpt lat="46.10059" lon="6.44347">
        <ele>1332</ele>
        <time>2018-03-14T13:41:22Z</time>
      </trkpt>
      <trkpt lat="46.10059" lon="6.44349">
        <ele>1332</ele>
        <time>2018-03-14T13:41:23Z</time>
      </trkpt>
      <trkpt lat="46.1006" lon="6.44351">
        <ele>1332</ele>
        <time>2018-03-14T13:41:24Z</time>
      </trkpt>
      <trkpt lat="46.1006" lon="6.44352">
        <ele>1332</ele>
        <time>2018-03-14T13:41:25Z</time>
      </trkpt>
      <trkpt lat="46.1006" lon="6.44354">
        <ele>1331</ele>
        <time>2018-03-14T13:41:26Z</time>
      </trkpt>
      <trkpt lat="46.10061" lon="6.44356">
        <ele>1331</ele>
        <time>2018-03-14T13:41:27Z</time>
      </trkpt>
      <trkpt lat="46.10061" lon="6.44381">
        <ele>1331</ele>
        <time>2018-03-14T13:41:45Z</time>
      </trkpt>
      <trkpt lat="46.10059" lon="6.44402">
        <ele>1334</ele>
        <time>2018-03-14T13:42:01Z</time>
      </trkpt>
      <trkpt lat="46.10059" lon="6.44443">
        <ele>1336</ele>
        <time>2018-03-14T13:42:26Z</time>
      </trkpt>
      <trkpt lat="46.1006" lon="6.44473">
        <ele>1338</ele>
        <time>2018-03-14T13:42:46Z</time>
      </trkpt>
      <trkpt lat="46.10065" lon="6.44501">
        <ele>1350</ele>
        <time>2018-03-14T13:43:07Z</time>
      </trkpt>
      <trkpt lat="46.10068" lon="6.44523">
        <ele>1348</ele>
        <time>2018-03-14T13:43:24Z</time>
      </trkpt>
      <trkpt lat="46.10073" lon="6.44551">
        <ele>1349</ele>
        <time>2018-03-14T13:43:43Z</time>
      </trkpt>
      <trkpt lat="46.10077" lon="6.44582">
        <ele>1364</ele>
        <time>2018-03-14T13:44:02Z</time>
      </trkpt>
      <trkpt lat="46.1008" lon="6.44612">
        <ele>1360</ele>
        <time>2018-03-14T13:44:23Z</time>
      </trkpt>
      <trkpt lat="46.10084" lon="6.44635">
        <ele>1395</ele>
        <time>2018-03-14T13:44:43Z</time>
      </trkpt>
      <trkpt lat="46.10083" lon="6.44665">
        <ele>1377</ele>
        <time>2018-03-14T13:45:01Z</time>
      </trkpt>
      <trkpt lat="46.10083" lon="6.4468">
        <ele>1374</ele>
        <time>2018-03-14T13:45:12Z</time>
      </trkpt>
      <trkpt lat="46.10083" lon="6.44681">
        <ele>1374</ele>
        <time>2018-03-14T13:45:13Z</time>
      </trkpt>
      <trkpt lat="46.10083" lon="6.44683">
        <ele>1374</ele>
        <time>2018-03-14T13:45:14Z</time>
      </trkpt>
      <trkpt lat="46.10082" lon="6.44686">
        <ele>1373</ele>
        <time>2018-03-14T13:45:16Z</time>
      </trkpt>
      <trkpt lat="46.10083" lon="6.44688">
        <ele>1373</ele>
        <time>2018-03-14T13:45:17Z</time>
      </trkpt>
      <trkpt lat="46.10084" lon="6.44692">
        <ele>1399</ele>
        <time>2018-03-14T13:45:19Z</time>
      </trkpt>
      <trkpt lat="46.10084" lon="6.44694">
        <ele>1400</ele>
        <time>2018-03-14T13:45:20Z</time>
      </trkpt>
      <trkpt lat="46.10085" lon="6.44696">
        <ele>1400</ele>
        <time>2018-03-14T13:45:21Z</time>
      </trkpt>
      <trkpt lat="46.10085" lon="6.44698">
        <ele>1401</ele>
        <time>2018-03-14T13:45:22Z</time>
      </trkpt>
      <trkpt lat="46.10086" lon="6.44699">
        <ele>1402</ele>
        <time>2018-03-14T13:45:23Z</time>
      </trkpt>
      <trkpt lat="46.10086" lon="6.44702">
        <ele>1402</ele>
        <time>2018-03-14T13:45:25Z</time>
      </trkpt>
      <trkpt lat="46.10087" lon="6.44703">
        <ele>1402</ele>
        <time>2018-03-14T13:45:26Z</time>
      </trkpt>
      <trkpt lat="46.10087" lon="6.44705">
        <ele>1403</ele>
        <time>2018-03-14T13:45:27Z</time>
      </trkpt>
      <trkpt lat="46.10088" lon="6.44706">
        <ele>1403</ele>
        <time>2018-03-14T13:45:28Z</time>
      </trkpt>
      <trkpt lat="46.10088" lon="6.44708">
        <ele>1403</ele>
        <time>2018-03-14T13:45:29Z</time>
      </trkpt>
      <trkpt lat="46.10088" lon="6.44709">
        <ele>1403</ele>
        <time>2018-03-14T13:45:30Z</time>
      </trkpt>
      <trkpt lat="46.10089" lon="6.4471">
        <ele>1404</ele>
        <time>2018-03-14T13:45:31Z</time>
      </trkpt>
      <trkpt lat="46.10088" lon="6.44716">
        <ele>1404</ele>
        <time>2018-03-14T13:45:36Z</time>
      </trkpt>
      <trkpt lat="46.10089" lon="6.44717">
        <ele>1404</ele>
        <time>2018-03-14T13:45:37Z</time>
      </trkpt>
      <trkpt lat="46.10089" lon="6.44719">
        <ele>1403</ele>
        <time>2018-03-14T13:45:38Z</time>
      </trkpt>
      <trkpt lat="46.10089" lon="6.44721">
        <ele>1403</ele>
        <time>2018-03-14T13:45:39Z</time>
      </trkpt>
      <trkpt lat="46.10089" lon="6.44721">
        <ele>1403</ele>
        <time>2018-03-14T13:45:40Z</time>
      </trkpt>
      <trkpt lat="46.10087" lon="6.44728">
        <ele>1402</ele>
        <time>2018-03-14T13:45:49Z</time>
      </trkpt>
      <trkpt lat="46.10086" lon="6.44737">
        <ele>1398</ele>
        <time>2018-03-14T13:45:58Z</time>
      </trkpt>
      <trkpt lat="46.10085" lon="6.44739">
        <ele>1397</ele>
        <time>2018-03-14T13:45:59Z</time>
      </trkpt>
      <trkpt lat="46.10084" lon="6.4474">
        <ele>1396</ele>
        <time>2018-03-14T13:46:00Z</time>
      </trkpt>
      <trkpt lat="46.10083" lon="6.44743">
        <ele>1383</ele>
        <time>2018-03-14T13:46:03Z</time>
      </trkpt>
      <trkpt lat="46.1008" lon="6.44755">
        <ele>1388</ele>
        <time>2018-03-14T13:46:11Z</time>
      </trkpt>
      <trkpt lat="46.10081" lon="6.44758">
        <ele>1388</ele>
        <time>2018-03-14T13:46:13Z</time>
      </trkpt>
      <trkpt lat="46.10081" lon="6.44761">
        <ele>1388</ele>
        <time>2018-03-14T13:46:16Z</time>
      </trkpt>
      <trkpt lat="46.10081" lon="6.44762">
        <ele>1388</ele>
        <time>2018-03-14T13:46:17Z</time>
      </trkpt>
      <trkpt lat="46.10081" lon="6.44764">
        <ele>1388</ele>
        <time>2018-03-14T13:46:18Z</time>
      </trkpt>
      <trkpt lat="46.10081" lon="6.44766">
        <ele>1389</ele>
        <time>2018-03-14T13:46:19Z</time>
      </trkpt>
      <trkpt lat="46.10081" lon="6.44767">
        <ele>1389</ele>
        <time>2018-03-14T13:46:20Z</time>
      </trkpt>
      <trkpt lat="46.10081" lon="6.44769">
        <ele>1389</ele>
        <time>2018-03-14T13:46:21Z</time>
      </trkpt>
      <trkpt lat="46.1008" lon="6.44771">
        <ele>1389</ele>
        <time>2018-03-14T13:46:23Z</time>
      </trkpt>
      <trkpt lat="46.10079" lon="6.44781">
        <ele>1390</ele>
        <time>2018-03-14T13:46:29Z</time>
      </trkpt>
      <trkpt lat="46.10079" lon="6.44784">
        <ele>1391</ele>
        <time>2018-03-14T13:46:31Z</time>
      </trkpt>
      <trkpt lat="46.10078" lon="6.4481">
        <ele>1397</ele>
        <time>2018-03-14T13:46:49Z</time>
      </trkpt>
      <trkpt lat="46.10077" lon="6.44829">
        <ele>1404</ele>
        <time>2018-03-14T13:47:05Z</time>
      </trkpt>
      <trkpt lat="46.1008" lon="6.44852">
        <ele>1409</ele>
        <time>2018-03-14T13:47:23Z</time>
      </trkpt>
      <trkpt lat="46.10081" lon="6.44877">
        <ele>1411</ele>
        <time>2018-03-14T13:47:41Z</time>
      </trkpt>
      <trkpt lat="46.10082" lon="6.44903">
        <ele>1415</ele>
        <time>2018-03-14T13:48:00Z</time>
      </trkpt>
      <trkpt lat="46.10084" lon="6.44924">
        <ele>1425</ele>
        <time>2018-03-14T13:48:18Z</time>
      </trkpt>
      <trkpt lat="46.10088" lon="6.44942">
        <ele>1435</ele>
        <time>2018-03-14T13:48:34Z</time>
      </trkpt>
      <trkpt lat="46.1009" lon="6.44966">
        <ele>1439</ele>
        <time>2018-03-14T13:48:49Z</time>
      </trkpt>
      <trkpt lat="46.10085" lon="6.44992">
        <ele>1436</ele>
        <time>2018-03-14T13:49:18Z</time>
      </trkpt>
      <trkpt lat="46.10078" lon="6.4499">
        <ele>1429</ele>
        <time>2018-03-14T13:49:26Z</time>
      </trkpt>
      <trkpt lat="46.10064" lon="6.4499">
        <ele>1428</ele>
        <time>2018-03-14T13:49:35Z</time>
      </trkpt>
      <trkpt lat="46.10038" lon="6.44991">
        <ele>1428</ele>
        <time>2018-03-14T13:49:55Z</time>
      </trkpt>
      <trkpt lat="46.10021" lon="6.44986">
        <ele>1428</ele>
        <time>2018-03-14T13:50:13Z</time>
      </trkpt>
      <trkpt lat="46.10017" lon="6.44985">
        <ele>1428</ele>
        <time>2018-03-14T13:50:18Z</time>
      </trkpt>
      <trkpt lat="46.09993" lon="6.44974">
        <ele>1435</ele>
        <time>2018-03-14T13:50:41Z</time>
      </trkpt>
      <trkpt lat="46.09974" lon="6.44973">
        <ele>1437</ele>
        <time>2018-03-14T13:51:00Z</time>
      </trkpt>
      <trkpt lat="46.09967" lon="6.44978">
        <ele>1439</ele>
        <time>2018-03-14T13:51:10Z</time>
      </trkpt>
      <trkpt lat="46.09967" lon="6.44983">
        <ele>1439</ele>
        <time>2018-03-14T13:51:14Z</time>
      </trkpt>
      <trkpt lat="46.09967" lon="6.44984">
        <ele>1439</ele>
        <time>2018-03-14T13:51:15Z</time>
      </trkpt>
      <trkpt lat="46.09967" lon="6.44985">
        <ele>1439</ele>
        <time>2018-03-14T13:51:16Z</time>
      </trkpt>
      <trkpt lat="46.09969" lon="6.44994">
        <ele>1439</ele>
        <time>2018-03-14T13:51:24Z</time>
      </trkpt>
      <trkpt lat="46.09969" lon="6.44994">
        <ele>1439</ele>
        <time>2018-03-14T13:51:25Z</time>
      </trkpt>
      <trkpt lat="46.0998" lon="6.45002">
        <ele>1450</ele>
        <time>2018-03-14T13:51:36Z</time>
      </trkpt>
      <trkpt lat="46.0999" lon="6.45012">
        <ele>1447</ele>
        <time>2018-03-14T13:51:48Z</time>
      </trkpt>
      <trkpt lat="46.09999" lon="6.45026">
        <ele>1452</ele>
        <time>2018-03-14T13:52:03Z</time>
      </trkpt>
      <trkpt lat="46.10003" lon="6.45033">
        <ele>1444</ele>
        <time>2018-03-14T13:52:11Z</time>
      </trkpt>
      <trkpt lat="46.10011" lon="6.45048">
        <ele>1447</ele>
        <time>2018-03-14T13:52:26Z</time>
      </trkpt>
      <trkpt lat="46.10012" lon="6.45049">
        <ele>1447</ele>
        <time>2018-03-14T13:52:27Z</time>
      </trkpt>
      <trkpt lat="46.10013" lon="6.4505">
        <ele>1448</ele>
        <time>2018-03-14T13:52:28Z</time>
      </trkpt>
      <trkpt lat="46.10013" lon="6.45052">
        <ele>1448</ele>
        <time>2018-03-14T13:52:30Z</time>
      </trkpt>
      <trkpt lat="46.10014" lon="6.45053">
        <ele>1448</ele>
        <time>2018-03-14T13:52:31Z</time>
      </trkpt>
      <trkpt lat="46.10021" lon="6.45068">
        <ele>1451</ele>
        <time>2018-03-14T13:52:45Z</time>
      </trkpt>
      <trkpt lat="46.10027" lon="6.4508">
        <ele>1451</ele>
        <time>2018-03-14T13:52:59Z</time>
      </trkpt>
      <trkpt lat="46.10033" lon="6.45088">
        <ele>1466</ele>
        <time>2018-03-14T13:53:11Z</time>
      </trkpt>
      <trkpt lat="46.10043" lon="6.45107">
        <ele>1467</ele>
        <time>2018-03-14T13:53:28Z</time>
      </trkpt>
      <trkpt lat="46.10044" lon="6.45109">
        <ele>1467</ele>
        <time>2018-03-14T13:53:30Z</time>
      </trkpt>
      <trkpt lat="46.10047" lon="6.45113">
        <ele>1467</ele>
        <time>2018-03-14T13:53:33Z</time>
      </trkpt>
      <trkpt lat="46.10047" lon="6.45114">
        <ele>1468</ele>
        <time>2018-03-14T13:53:34Z</time>
      </trkpt>
      <trkpt lat="46.10056" lon="6.45124">
        <ele>1468</ele>
        <time>2018-03-14T13:53:49Z</time>
      </trkpt>
      <trkpt lat="46.10058" lon="6.45128">
        <ele>1469</ele>
        <time>2018-03-14T13:53:52Z</time>
      </trkpt>
      <trkpt lat="46.10059" lon="6.45129">
        <ele>1469</ele>
        <time>2018-03-14T13:53:53Z</time>
      </trkpt>
      <trkpt lat="46.1006" lon="6.4513">
        <ele>1469</ele>
        <time>2018-03-14T13:53:54Z</time>
      </trkpt>
      <trkpt lat="46.10067" lon="6.45145">
        <ele>1471</ele>
        <time>2018-03-14T13:54:08Z</time>
      </trkpt>
      <trkpt lat="46.10077" lon="6.45162">
        <ele>1472</ele>
        <time>2018-03-14T13:54:25Z</time>
      </trkpt>
      <trkpt lat="46.10085" lon="6.45177">
        <ele>1480</ele>
        <time>2018-03-14T13:54:38Z</time>
      </trkpt>
      <trkpt lat="46.10091" lon="6.45186">
        <ele>1486</ele>
        <time>2018-03-14T13:54:48Z</time>
      </trkpt>
      <trkpt lat="46.10096" lon="6.45198">
        <ele>1490</ele>
        <time>2018-03-14T13:55:01Z</time>
      </trkpt>
      <trkpt lat="46.10095" lon="6.45202">
        <ele>1491</ele>
        <time>2018-03-14T13:55:05Z</time>
      </trkpt>
      <trkpt lat="46.10095" lon="6.45203">
        <ele>1491</ele>
        <time>2018-03-14T13:55:06Z</time>
      </trkpt>
      <trkpt lat="46.10094" lon="6.45203">
        <ele>1491</ele>
        <time>2018-03-14T13:55:07Z</time>
      </trkpt>
      <trkpt lat="46.10093" lon="6.45203">
        <ele>1491</ele>
        <time>2018-03-14T13:55:08Z</time>
      </trkpt>
      <trkpt lat="46.10092" lon="6.45203">
        <ele>1491</ele>
        <time>2018-03-14T13:55:09Z</time>
      </trkpt>
      <trkpt lat="46.10091" lon="6.45202">
        <ele>1491</ele>
        <time>2018-03-14T13:55:10Z</time>
      </trkpt>
      <trkpt lat="46.1009" lon="6.45202">
        <ele>1490</ele>
        <time>2018-03-14T13:55:11Z</time>
      </trkpt>
      <trkpt lat="46.10079" lon="6.45197">
        <ele>1489</ele>
        <time>2018-03-14T13:55:25Z</time>
      </trkpt>
      <trkpt lat="46.10055" lon="6.45186">
        <ele>1490</ele>
        <time>2018-03-14T13:55:48Z</time>
      </trkpt>
      <trkpt lat="46.10041" lon="6.45179">
        <ele>1492</ele>
        <time>2018-03-14T13:56:04Z</time>
      </trkpt>
      <trkpt lat="46.10024" lon="6.45174">
        <ele>1493</ele>
        <time>2018-03-14T13:56:19Z</time>
      </trkpt>
      <trkpt lat="46.10023" lon="6.45173">
        <ele>1493</ele>
        <time>2018-03-14T13:56:20Z</time>
      </trkpt>
      <trkpt lat="46.10019" lon="6.45171">
        <ele>1494</ele>
        <time>2018-03-14T13:56:25Z</time>
      </trkpt>
      <trkpt lat="46.10017" lon="6.45172">
        <ele>1494</ele>
        <time>2018-03-14T13:56:27Z</time>
      </trkpt>
      <trkpt lat="46.10013" lon="6.4517">
        <ele>1494</ele>
        <time>2018-03-14T13:56:31Z</time>
      </trkpt>
      <trkpt lat="46.09999" lon="6.45164">
        <ele>1492</ele>
        <time>2018-03-14T13:56:46Z</time>
      </trkpt>
      <trkpt lat="46.09986" lon="6.4516">
        <ele>1490</ele>
        <time>2018-03-14T13:57:01Z</time>
      </trkpt>
      <trkpt lat="46.09969" lon="6.45155">
        <ele>1490</ele>
        <time>2018-03-14T13:57:18Z</time>
      </trkpt>
      <trkpt lat="46.09954" lon="6.45153">
        <ele>1491</ele>
        <time>2018-03-14T13:57:35Z</time>
      </trkpt>
      <trkpt lat="46.09947" lon="6.4515">
        <ele>1492</ele>
        <time>2018-03-14T13:57:44Z</time>
      </trkpt>
      <trkpt lat="46.0993" lon="6.45153">
        <ele>1496</ele>
        <time>2018-03-14T13:58:01Z</time>
      </trkpt>
      <trkpt lat="46.09927" lon="6.45155">
        <ele>1497</ele>
        <time>2018-03-14T13:58:04Z</time>
      </trkpt>
      <trkpt lat="46.09926" lon="6.45155">
        <ele>1497</ele>
        <time>2018-03-14T13:58:05Z</time>
      </trkpt>
      <trkpt lat="46.09916" lon="6.45153">
        <ele>1500</ele>
        <time>2018-03-14T13:58:14Z</time>
      </trkpt>
      <trkpt lat="46.09915" lon="6.45155">
        <ele>1501</ele>
        <time>2018-03-14T13:58:15Z</time>
      </trkpt>
      <trkpt lat="46.09914" lon="6.45156">
        <ele>1501</ele>
        <time>2018-03-14T13:58:16Z</time>
      </trkpt>
      <trkpt lat="46.09901" lon="6.45155">
        <ele>1499</ele>
        <time>2018-03-14T13:58:30Z</time>
      </trkpt>
      <trkpt lat="46.09896" lon="6.45154">
        <ele>1498</ele>
        <time>2018-03-14T13:58:34Z</time>
      </trkpt>
      <trkpt lat="46.09895" lon="6.45154">
        <ele>1498</ele>
        <time>2018-03-14T13:58:35Z</time>
      </trkpt>
      <trkpt lat="46.09885" lon="6.45152">
        <ele>1496</ele>
        <time>2018-03-14T13:58:45Z</time>
      </trkpt>
      <trkpt lat="46.09884" lon="6.45151">
        <ele>1496</ele>
        <time>2018-03-14T13:58:46Z</time>
      </trkpt>
      <trkpt lat="46.09874" lon="6.45156">
        <ele>1496</ele>
        <time>2018-03-14T13:58:58Z</time>
      </trkpt>
      <trkpt lat="46.09873" lon="6.45158">
        <ele>1496</ele>
        <time>2018-03-14T13:59:00Z</time>
      </trkpt>
      <trkpt lat="46.09875" lon="6.45165">
        <ele>1496</ele>
        <time>2018-03-14T13:59:06Z</time>
      </trkpt>
      <trkpt lat="46.09879" lon="6.45171">
        <ele>1499</ele>
        <time>2018-03-14T13:59:12Z</time>
      </trkpt>
      <trkpt lat="46.0988" lon="6.45171">
        <ele>1499</ele>
        <time>2018-03-14T13:59:13Z</time>
      </trkpt>
      <trkpt lat="46.0988" lon="6.45172">
        <ele>1499</ele>
        <time>2018-03-14T13:59:14Z</time>
      </trkpt>
      <trkpt lat="46.09896" lon="6.45194">
        <ele>1500</ele>
        <time>2018-03-14T13:59:34Z</time>
      </trkpt>
      <trkpt lat="46.09914" lon="6.45208">
        <ele>1502</ele>
        <time>2018-03-14T13:59:51Z</time>
      </trkpt>
      <trkpt lat="46.09949" lon="6.45238">
        <ele>1509</ele>
        <time>2018-03-14T14:00:22Z</time>
      </trkpt>
      <trkpt lat="46.09952" lon="6.45241">
        <ele>1509</ele>
        <time>2018-03-14T14:00:25Z</time>
      </trkpt>
      <trkpt lat="46.09953" lon="6.45242">
        <ele>1509</ele>
        <time>2018-03-14T14:00:26Z</time>
      </trkpt>
      <trkpt lat="46.09967" lon="6.4525">
        <ele>1512</ele>
        <time>2018-03-14T14:00:40Z</time>
      </trkpt>
      <trkpt lat="46.09967" lon="6.45251">
        <ele>1512</ele>
        <time>2018-03-14T14:00:41Z</time>
      </trkpt>
      <trkpt lat="46.10006" lon="6.45278">
        <ele>1515</ele>
        <time>2018-03-14T14:01:07Z</time>
      </trkpt>
      <trkpt lat="46.10008" lon="6.45279">
        <ele>1515</ele>
        <time>2018-03-14T14:01:09Z</time>
      </trkpt>
      <trkpt lat="46.10009" lon="6.45281">
        <ele>1515</ele>
        <time>2018-03-14T14:01:10Z</time>
      </trkpt>
      <trkpt lat="46.1001" lon="6.45283">
        <ele>1515</ele>
        <time>2018-03-14T14:01:11Z</time>
      </trkpt>
      <trkpt lat="46.10011" lon="6.45285">
        <ele>1515</ele>
        <time>2018-03-14T14:01:12Z</time>
      </trkpt>
      <trkpt lat="46.10012" lon="6.45286">
        <ele>1515</ele>
        <time>2018-03-14T14:01:13Z</time>
      </trkpt>
      <trkpt lat="46.10012" lon="6.4529">
        <ele>1515</ele>
        <time>2018-03-14T14:01:16Z</time>
      </trkpt>
      <trkpt lat="46.10012" lon="6.45293">
        <ele>1515</ele>
        <time>2018-03-14T14:01:18Z</time>
      </trkpt>
      <trkpt lat="46.10013" lon="6.45294">
        <ele>1515</ele>
        <time>2018-03-14T14:01:19Z</time>
      </trkpt>
      <trkpt lat="46.10013" lon="6.45296">
        <ele>1516</ele>
        <time>2018-03-14T14:01:20Z</time>
      </trkpt>
      <trkpt lat="46.10014" lon="6.45298">
        <ele>1516</ele>
        <time>2018-03-14T14:01:21Z</time>
      </trkpt>
      <trkpt lat="46.10015" lon="6.45299">
        <ele>1516</ele>
        <time>2018-03-14T14:01:22Z</time>
      </trkpt>
      <trkpt lat="46.10016" lon="6.45301">
        <ele>1516</ele>
        <time>2018-03-14T14:01:23Z</time>
      </trkpt>
      <trkpt lat="46.10017" lon="6.45303">
        <ele>1516</ele>
        <time>2018-03-14T14:01:24Z</time>
      </trkpt>
      <trkpt lat="46.10018" lon="6.45304">
        <ele>1516</ele>
        <time>2018-03-14T14:01:25Z</time>
      </trkpt>
      <trkpt lat="46.10031" lon="6.45327">
        <ele>1516</ele>
        <time>2018-03-14T14:01:38Z</time>
      </trkpt>
      <trkpt lat="46.1004" lon="6.45348">
        <ele>1521</ele>
        <time>2018-03-14T14:01:49Z</time>
      </trkpt>
      <trkpt lat="46.10041" lon="6.45349">
        <ele>1522</ele>
        <time>2018-03-14T14:01:50Z</time>
      </trkpt>
      <trkpt lat="46.10042" lon="6.4535">
        <ele>1522</ele>
        <time>2018-03-14T14:01:51Z</time>
      </trkpt>
      <trkpt lat="46.10042" lon="6.45351">
        <ele>1522</ele>
        <time>2018-03-14T14:01:52Z</time>
      </trkpt>
      <trkpt lat="46.10043" lon="6.45352">
        <ele>1522</ele>
        <time>2018-03-14T14:01:53Z</time>
      </trkpt>
      <trkpt lat="46.10044" lon="6.45354">
        <ele>1522</ele>
        <time>2018-03-14T14:01:54Z</time>
      </trkpt>
      <trkpt lat="46.10048" lon="6.45362">
        <ele>1522</ele>
        <time>2018-03-14T14:01:59Z</time>
      </trkpt>
      <trkpt lat="46.10049" lon="6.45363">
        <ele>1522</ele>
        <time>2018-03-14T14:02:00Z</time>
      </trkpt>
      <trkpt lat="46.1005" lon="6.45364">
        <ele>1523</ele>
        <time>2018-03-14T14:02:01Z</time>
      </trkpt>
      <trkpt lat="46.10051" lon="6.45366">
        <ele>1523</ele>
        <time>2018-03-14T14:02:02Z</time>
      </trkpt>
      <trkpt lat="46.10052" lon="6.45367">
        <ele>1523</ele>
        <time>2018-03-14T14:02:03Z</time>
      </trkpt>
      <trkpt lat="46.10052" lon="6.45368">
        <ele>1523</ele>
        <time>2018-03-14T14:02:04Z</time>
      </trkpt>
      <trkpt lat="46.10053" lon="6.45369">
        <ele>1523</ele>
        <time>2018-03-14T14:02:05Z</time>
      </trkpt>
      <trkpt lat="46.10054" lon="6.4537">
        <ele>1523</ele>
        <time>2018-03-14T14:02:06Z</time>
      </trkpt>
      <trkpt lat="46.10055" lon="6.45372">
        <ele>1523</ele>
        <time>2018-03-14T14:02:07Z</time>
      </trkpt>
      <trkpt lat="46.10057" lon="6.45373">
        <ele>1524</ele>
        <time>2018-03-14T14:02:08Z</time>
      </trkpt>
      <trkpt lat="46.10058" lon="6.45374">
        <ele>1524</ele>
        <time>2018-03-14T14:02:09Z</time>
      </trkpt>
      <trkpt lat="46.10073" lon="6.45388">
        <ele>1528</ele>
        <time>2018-03-14T14:02:23Z</time>
      </trkpt>
      <trkpt lat="46.10074" lon="6.45389">
        <ele>1528</ele>
        <time>2018-03-14T14:02:24Z</time>
      </trkpt>
      <trkpt lat="46.10077" lon="6.45393">
        <ele>1529</ele>
        <time>2018-03-14T14:02:28Z</time>
      </trkpt>
      <trkpt lat="46.10077" lon="6.45394">
        <ele>1530</ele>
        <time>2018-03-14T14:02:29Z</time>
      </trkpt>
      <trkpt lat="46.10089" lon="6.45407">
        <ele>1541</ele>
        <time>2018-03-14T14:02:43Z</time>
      </trkpt>
      <trkpt lat="46.1009" lon="6.45408">
        <ele>1541</ele>
        <time>2018-03-14T14:02:44Z</time>
      </trkpt>
      <trkpt lat="46.1009" lon="6.45409">
        <ele>1541</ele>
        <time>2018-03-14T14:02:45Z</time>
      </trkpt>
      <trkpt lat="46.10091" lon="6.45409">
        <ele>1541</ele>
        <time>2018-03-14T14:02:46Z</time>
      </trkpt>
      <trkpt lat="46.10095" lon="6.45414">
        <ele>1541</ele>
        <time>2018-03-14T14:02:51Z</time>
      </trkpt>
      <trkpt lat="46.10097" lon="6.45416">
        <ele>1541</ele>
        <time>2018-03-14T14:02:53Z</time>
      </trkpt>
      <trkpt lat="46.10103" lon="6.45428">
        <ele>1553</ele>
        <time>2018-03-14T14:03:07Z</time>
      </trkpt>
      <trkpt lat="46.10109" lon="6.45439">
        <ele>1556</ele>
        <time>2018-03-14T14:03:19Z</time>
      </trkpt>
      <trkpt lat="46.10112" lon="6.45444">
        <ele>1557</ele>
        <time>2018-03-14T14:03:25Z</time>
      </trkpt>
      <trkpt lat="46.10113" lon="6.45447">
        <ele>1557</ele>
        <time>2018-03-14T14:03:28Z</time>
      </trkpt>
      <trkpt lat="46.10111" lon="6.45452">
        <ele>1558</ele>
        <time>2018-03-14T14:03:33Z</time>
      </trkpt>
      <trkpt lat="46.10111" lon="6.45453">
        <ele>1558</ele>
        <time>2018-03-14T14:03:34Z</time>
      </trkpt>
      <trkpt lat="46.1011" lon="6.45454">
        <ele>1558</ele>
        <time>2018-03-14T14:03:35Z</time>
      </trkpt>
      <trkpt lat="46.10106" lon="6.45465">
        <ele>1558</ele>
        <time>2018-03-14T14:03:48Z</time>
      </trkpt>
      <trkpt lat="46.10104" lon="6.45474">
        <ele>1558</ele>
        <time>2018-03-14T14:03:56Z</time>
      </trkpt>
      <trkpt lat="46.10102" lon="6.45489">
        <ele>1558</ele>
        <time>2018-03-14T14:04:10Z</time>
      </trkpt>
      <trkpt lat="46.10105" lon="6.455">
        <ele>1565</ele>
        <time>2018-03-14T14:04:25Z</time>
      </trkpt>
      <trkpt lat="46.10108" lon="6.455">
        <ele>1559</ele>
        <time>2018-03-14T14:04:30Z</time>
      </trkpt>
      <trkpt lat="46.10123" lon="6.45497">
        <ele>1563</ele>
        <time>2018-03-14T14:04:47Z</time>
      </trkpt>
      <trkpt lat="46.1013" lon="6.45497">
        <ele>1566</ele>
        <time>2018-03-14T14:04:56Z</time>
      </trkpt>
      <trkpt lat="46.10133" lon="6.45495">
        <ele>1567</ele>
        <time>2018-03-14T14:05:01Z</time>
      </trkpt>
      <trkpt lat="46.10136" lon="6.45493">
        <ele>1567</ele>
        <time>2018-03-14T14:05:05Z</time>
      </trkpt>
      <trkpt lat="46.10143" lon="6.4549">
        <ele>1570</ele>
        <time>2018-03-14T14:05:14Z</time>
      </trkpt>
      <trkpt lat="46.10144" lon="6.4549">
        <ele>1570</ele>
        <time>2018-03-14T14:05:16Z</time>
      </trkpt>
      <trkpt lat="46.10145" lon="6.45489">
        <ele>1570</ele>
        <time>2018-03-14T14:05:17Z</time>
      </trkpt>
      <trkpt lat="46.10155" lon="6.45485">
        <ele>1573</ele>
        <time>2018-03-14T14:05:30Z</time>
      </trkpt>
      <trkpt lat="46.10155" lon="6.45484">
        <ele>1573</ele>
        <time>2018-03-14T14:05:31Z</time>
      </trkpt>
      <trkpt lat="46.10165" lon="6.4548">
        <ele>1573</ele>
        <time>2018-03-14T14:05:45Z</time>
      </trkpt>
      <trkpt lat="46.10172" lon="6.45477">
        <ele>1588</ele>
        <time>2018-03-14T14:05:53Z</time>
      </trkpt>
      <trkpt lat="46.10179" lon="6.45475">
        <ele>1589</ele>
        <time>2018-03-14T14:06:02Z</time>
      </trkpt>
      <trkpt lat="46.10179" lon="6.45477">
        <ele>1589</ele>
        <time>2018-03-14T14:06:03Z</time>
      </trkpt>
      <trkpt lat="46.10179" lon="6.45479">
        <ele>1589</ele>
        <time>2018-03-14T14:06:05Z</time>
      </trkpt>
      <trkpt lat="46.10176" lon="6.45493">
        <ele>1589</ele>
        <time>2018-03-14T14:06:20Z</time>
      </trkpt>
      <trkpt lat="46.10173" lon="6.45505">
        <ele>1597</ele>
        <time>2018-03-14T14:06:33Z</time>
      </trkpt>
      <trkpt lat="46.10172" lon="6.45519">
        <ele>1604</ele>
        <time>2018-03-14T14:06:47Z</time>
      </trkpt>
      <trkpt lat="46.1017" lon="6.45532">
        <ele>1609</ele>
        <time>2018-03-14T14:07:01Z</time>
      </trkpt>
      <trkpt lat="46.10169" lon="6.4554">
        <ele>1611</ele>
        <time>2018-03-14T14:07:09Z</time>
      </trkpt>
      <trkpt lat="46.10169" lon="6.4555">
        <ele>1613</ele>
        <time>2018-03-14T14:07:21Z</time>
      </trkpt>
      <trkpt lat="46.1017" lon="6.45559">
        <ele>1614</ele>
        <time>2018-03-14T14:07:33Z</time>
      </trkpt>
      <trkpt lat="46.10176" lon="6.45554">
        <ele>1614</ele>
        <time>2018-03-14T14:07:44Z</time>
      </trkpt>
      <trkpt lat="46.1018" lon="6.45551">
        <ele>1614</ele>
        <time>2018-03-14T14:07:51Z</time>
      </trkpt>
      <trkpt lat="46.1019" lon="6.45545">
        <ele>1615</ele>
        <time>2018-03-14T14:08:06Z</time>
      </trkpt>
      <trkpt lat="46.10198" lon="6.4554">
        <ele>1616</ele>
        <time>2018-03-14T14:08:19Z</time>
      </trkpt>
      <trkpt lat="46.10202" lon="6.45537">
        <ele>1617</ele>
        <time>2018-03-14T14:08:26Z</time>
      </trkpt>
      <trkpt lat="46.10204" lon="6.45536">
        <ele>1617</ele>
        <time>2018-03-14T14:08:28Z</time>
      </trkpt>
      <trkpt lat="46.1021" lon="6.45533">
        <ele>1618</ele>
        <time>2018-03-14T14:08:37Z</time>
      </trkpt>
      <trkpt lat="46.10214" lon="6.4553">
        <ele>1619</ele>
        <time>2018-03-14T14:08:43Z</time>
      </trkpt>
      <trkpt lat="46.10217" lon="6.45528">
        <ele>1619</ele>
        <time>2018-03-14T14:08:48Z</time>
      </trkpt>
      <trkpt lat="46.10225" lon="6.45524">
        <ele>1620</ele>
        <time>2018-03-14T14:08:58Z</time>
      </trkpt>
      <trkpt lat="46.10225" lon="6.45524">
        <ele>1620</ele>
        <time>2018-03-14T14:08:59Z</time>
      </trkpt>
      <trkpt lat="46.10227" lon="6.45525">
        <ele>1621</ele>
        <time>2018-03-14T14:09:00Z</time>
      </trkpt>
      <trkpt lat="46.10225" lon="6.4554">
        <ele>1623</ele>
        <time>2018-03-14T14:09:16Z</time>
      </trkpt>
      <trkpt lat="46.10223" lon="6.45552">
        <ele>1625</ele>
        <time>2018-03-14T14:09:31Z</time>
      </trkpt>
      <trkpt lat="46.10223" lon="6.45564">
        <ele>1627</ele>
        <time>2018-03-14T14:09:45Z</time>
      </trkpt>
      <trkpt lat="46.10221" lon="6.45578">
        <ele>1629</ele>
        <time>2018-03-14T14:10:00Z</time>
      </trkpt>
      <trkpt lat="46.10219" lon="6.45589">
        <ele>1643</ele>
        <time>2018-03-14T14:10:15Z</time>
      </trkpt>
      <trkpt lat="46.10217" lon="6.45601">
        <ele>1642</ele>
        <time>2018-03-14T14:10:29Z</time>
      </trkpt>
      <trkpt lat="46.10215" lon="6.45613">
        <ele>1643</ele>
        <time>2018-03-14T14:10:44Z</time>
      </trkpt>
      <trkpt lat="46.10215" lon="6.45617">
        <ele>1643</ele>
        <time>2018-03-14T14:10:50Z</time>
      </trkpt>
      <trkpt lat="46.10216" lon="6.45622">
        <ele>1644</ele>
        <time>2018-03-14T14:11:05Z</time>
      </trkpt>
      <trkpt lat="46.10224" lon="6.45614">
        <ele>1645</ele>
        <time>2018-03-14T14:11:19Z</time>
      </trkpt>
      <trkpt lat="46.10233" lon="6.4561">
        <ele>1647</ele>
        <time>2018-03-14T14:11:34Z</time>
      </trkpt>
      <trkpt lat="46.10243" lon="6.45603">
        <ele>1649</ele>
        <time>2018-03-14T14:11:51Z</time>
      </trkpt>
      <trkpt lat="46.10246" lon="6.45602">
        <ele>1649</ele>
        <time>2018-03-14T14:11:55Z</time>
      </trkpt>
      <trkpt lat="46.10251" lon="6.45598">
        <ele>1667</ele>
        <time>2018-03-14T14:12:05Z</time>
      </trkpt>
      <trkpt lat="46.10253" lon="6.45597">
        <ele>1666</ele>
        <time>2018-03-14T14:12:07Z</time>
      </trkpt>
      <trkpt lat="46.10256" lon="6.45594">
        <ele>1665</ele>
        <time>2018-03-14T14:12:13Z</time>
      </trkpt>
      <trkpt lat="46.10261" lon="6.45591">
        <ele>1666</ele>
        <time>2018-03-14T14:12:21Z</time>
      </trkpt>
      <trkpt lat="46.10263" lon="6.4559">
        <ele>1667</ele>
        <time>2018-03-14T14:12:25Z</time>
      </trkpt>
      <trkpt lat="46.10271" lon="6.45586">
        <ele>1671</ele>
        <time>2018-03-14T14:12:40Z</time>
      </trkpt>
      <trkpt lat="46.10272" lon="6.45586">
        <ele>1672</ele>
        <time>2018-03-14T14:12:41Z</time>
      </trkpt>
      <trkpt lat="46.10275" lon="6.45585">
        <ele>1673</ele>
        <time>2018-03-14T14:12:45Z</time>
      </trkpt>
      <trkpt lat="46.10277" lon="6.45584">
        <ele>1674</ele>
        <time>2018-03-14T14:12:47Z</time>
      </trkpt>
      <trkpt lat="46.10285" lon="6.45583">
        <ele>1659</ele>
        <time>2018-03-14T14:12:58Z</time>
      </trkpt>
      <trkpt lat="46.10285" lon="6.45594">
        <ele>1678</ele>
        <time>2018-03-14T14:13:15Z</time>
      </trkpt>
      <trkpt lat="46.10284" lon="6.45596">
        <ele>1678</ele>
        <time>2018-03-14T14:13:16Z</time>
      </trkpt>
      <trkpt lat="46.10284" lon="6.45606">
        <ele>1679</ele>
        <time>2018-03-14T14:13:28Z</time>
      </trkpt>
      <trkpt lat="46.10282" lon="6.45615">
        <ele>1681</ele>
        <time>2018-03-14T14:13:41Z</time>
      </trkpt>
      <trkpt lat="46.1028" lon="6.45626">
        <ele>1682</ele>
        <time>2018-03-14T14:13:55Z</time>
      </trkpt>
      <trkpt lat="46.10279" lon="6.45638">
        <ele>1684</ele>
        <time>2018-03-14T14:14:09Z</time>
      </trkpt>
      <trkpt lat="46.1028" lon="6.45639">
        <ele>1684</ele>
        <time>2018-03-14T14:14:10Z</time>
      </trkpt>
      <trkpt lat="46.10281" lon="6.45652">
        <ele>1686</ele>
        <time>2018-03-14T14:14:23Z</time>
      </trkpt>
      <trkpt lat="46.10279" lon="6.45663">
        <ele>1686</ele>
        <time>2018-03-14T14:14:37Z</time>
      </trkpt>
      <trkpt lat="46.10276" lon="6.45675">
        <ele>1700</ele>
        <time>2018-03-14T14:14:52Z</time>
      </trkpt>
      <trkpt lat="46.10276" lon="6.45675">
        <ele>1700</ele>
        <time>2018-03-14T14:15:09Z</time>
      </trkpt>
      <trkpt lat="46.10275" lon="6.45675">
        <ele>1700</ele>
        <time>2018-03-14T14:15:13Z</time>
      </trkpt>
      <trkpt lat="46.10275" lon="6.45675">
        <ele>1700</ele>
        <time>2018-03-14T14:15:16Z</time>
      </trkpt>
      <trkpt lat="46.10275" lon="6.45674">
        <ele>1700</ele>
        <time>2018-03-14T14:15:20Z</time>
      </trkpt>
      <trkpt lat="46.10276" lon="6.45674">
        <ele>1700</ele>
        <time>2018-03-14T14:15:22Z</time>
      </trkpt>
      <trkpt lat="46.10275" lon="6.45673">
        <ele>1700</ele>
        <time>2018-03-14T14:15:28Z</time>
      </trkpt>
      <trkpt lat="46.10275" lon="6.45673">
        <ele>1700</ele>
        <time>2018-03-14T14:15:32Z</time>
      </trkpt>
      <trkpt lat="46.10274" lon="6.45672">
        <ele>1699</ele>
        <time>2018-03-14T14:15:39Z</time>
      </trkpt>
      <trkpt lat="46.10274" lon="6.45673">
        <ele>1699</ele>
        <time>2018-03-14T14:15:42Z</time>
      </trkpt>
      <trkpt lat="46.10274" lon="6.45673">
        <ele>1699</ele>
        <time>2018-03-14T14:15:44Z</time>
      </trkpt>
      <trkpt lat="46.10277" lon="6.45673">
        <ele>1701</ele>
        <time>2018-03-14T14:16:09Z</time>
      </trkpt>
      <trkpt lat="46.10279" lon="6.45672">
        <ele>1701</ele>
        <time>2018-03-14T14:16:11Z</time>
      </trkpt>
      <trkpt lat="46.1028" lon="6.45671">
        <ele>1702</ele>
        <time>2018-03-14T14:16:13Z</time>
      </trkpt>
      <trkpt lat="46.10282" lon="6.45671">
        <ele>1702</ele>
        <time>2018-03-14T14:16:15Z</time>
      </trkpt>
      <trkpt lat="46.10287" lon="6.45668">
        <ele>1704</ele>
        <time>2018-03-14T14:16:23Z</time>
      </trkpt>
      <trkpt lat="46.1029" lon="6.45666">
        <ele>1689</ele>
        <time>2018-03-14T14:16:29Z</time>
      </trkpt>
      <trkpt lat="46.10293" lon="6.45665">
        <ele>1690</ele>
        <time>2018-03-14T14:16:34Z</time>
      </trkpt>
      <trkpt lat="46.10295" lon="6.45665">
        <ele>1691</ele>
        <time>2018-03-14T14:16:38Z</time>
      </trkpt>
      <trkpt lat="46.10297" lon="6.45664">
        <ele>1692</ele>
        <time>2018-03-14T14:16:41Z</time>
      </trkpt>
      <trkpt lat="46.103" lon="6.45663">
        <ele>1693</ele>
        <time>2018-03-14T14:16:45Z</time>
      </trkpt>
      <trkpt lat="46.10303" lon="6.45662">
        <ele>1694</ele>
        <time>2018-03-14T14:16:49Z</time>
      </trkpt>
      <trkpt lat="46.10314" lon="6.45657">
        <ele>1698</ele>
        <time>2018-03-14T14:17:14Z</time>
      </trkpt>
      <trkpt lat="46.10315" lon="6.45657">
        <ele>1699</ele>
        <time>2018-03-14T14:17:15Z</time>
      </trkpt>
      <trkpt lat="46.10322" lon="6.45655">
        <ele>1701</ele>
        <time>2018-03-14T14:17:25Z</time>
      </trkpt>
      <trkpt lat="46.10323" lon="6.45655">
        <ele>1702</ele>
        <time>2018-03-14T14:17:27Z</time>
      </trkpt>
      <trkpt lat="46.10332" lon="6.45651">
        <ele>1702</ele>
        <time>2018-03-14T14:17:41Z</time>
      </trkpt>
      <trkpt lat="46.10339" lon="6.45651">
        <ele>1718</ele>
        <time>2018-03-14T14:17:52Z</time>
      </trkpt>
      <trkpt lat="46.10337" lon="6.45658">
        <ele>1718</ele>
        <time>2018-03-14T14:18:03Z</time>
      </trkpt>
      <trkpt lat="46.10337" lon="6.45661">
        <ele>1718</ele>
        <time>2018-03-14T14:18:05Z</time>
      </trkpt>
      <trkpt lat="46.10335" lon="6.45666">
        <ele>1717</ele>
        <time>2018-03-14T14:18:11Z</time>
      </trkpt>
      <trkpt lat="46.10331" lon="6.45678">
        <ele>1715</ele>
        <time>2018-03-14T14:18:25Z</time>
      </trkpt>
      <trkpt lat="46.10331" lon="6.45683">
        <ele>1715</ele>
        <time>2018-03-14T14:18:33Z</time>
      </trkpt>
      <trkpt lat="46.10329" lon="6.45694">
        <ele>1715</ele>
        <time>2018-03-14T14:18:45Z</time>
      </trkpt>
      <trkpt lat="46.10328" lon="6.45706">
        <ele>1717</ele>
        <time>2018-03-14T14:19:00Z</time>
      </trkpt>
      <trkpt lat="46.10327" lon="6.45717">
        <ele>1720</ele>
        <time>2018-03-14T14:19:14Z</time>
      </trkpt>
      <trkpt lat="46.10326" lon="6.45728">
        <ele>1724</ele>
        <time>2018-03-14T14:19:27Z</time>
      </trkpt>
      <trkpt lat="46.10325" lon="6.45739">
        <ele>1730</ele>
        <time>2018-03-14T14:19:42Z</time>
      </trkpt>
      <trkpt lat="46.10324" lon="6.45749">
        <ele>1734</ele>
        <time>2018-03-14T14:19:56Z</time>
      </trkpt>
      <trkpt lat="46.10328" lon="6.45752">
        <ele>1742</ele>
        <time>2018-03-14T14:20:12Z</time>
      </trkpt>
      <trkpt lat="46.10331" lon="6.4575">
        <ele>1744</ele>
        <time>2018-03-14T14:20:16Z</time>
      </trkpt>
      <trkpt lat="46.10331" lon="6.4575">
        <ele>1743</ele>
        <time>2018-03-14T14:20:17Z</time>
      </trkpt>
      <trkpt lat="46.10334" lon="6.45748">
        <ele>1746</ele>
        <time>2018-03-14T14:20:21Z</time>
      </trkpt>
      <trkpt lat="46.10335" lon="6.45747">
        <ele>1747</ele>
        <time>2018-03-14T14:20:23Z</time>
      </trkpt>
      <trkpt lat="46.10338" lon="6.45745">
        <ele>1747</ele>
        <time>2018-03-14T14:20:27Z</time>
      </trkpt>
      <trkpt lat="46.10341" lon="6.45743">
        <ele>1748</ele>
        <time>2018-03-14T14:20:33Z</time>
      </trkpt>
      <trkpt lat="46.10342" lon="6.45742">
        <ele>1748</ele>
        <time>2018-03-14T14:20:35Z</time>
      </trkpt>
      <trkpt lat="46.10344" lon="6.45741">
        <ele>1748</ele>
        <time>2018-03-14T14:20:39Z</time>
      </trkpt>
      <trkpt lat="46.10345" lon="6.4574">
        <ele>1749</ele>
        <time>2018-03-14T14:20:41Z</time>
      </trkpt>
      <trkpt lat="46.10347" lon="6.4574">
        <ele>1749</ele>
        <time>2018-03-14T14:20:43Z</time>
      </trkpt>
      <trkpt lat="46.10348" lon="6.45739">
        <ele>1749</ele>
        <time>2018-03-14T14:20:45Z</time>
      </trkpt>
      <trkpt lat="46.10357" lon="6.45735">
        <ele>1751</ele>
        <time>2018-03-14T14:21:01Z</time>
      </trkpt>
      <trkpt lat="46.10361" lon="6.45733">
        <ele>1752</ele>
        <time>2018-03-14T14:21:07Z</time>
      </trkpt>
      <trkpt lat="46.1037" lon="6.45729">
        <ele>1754</ele>
        <time>2018-03-14T14:21:21Z</time>
      </trkpt>
      <trkpt lat="46.10374" lon="6.45727">
        <ele>1755</ele>
        <time>2018-03-14T14:21:27Z</time>
      </trkpt>
      <trkpt lat="46.10378" lon="6.45726">
        <ele>1755</ele>
        <time>2018-03-14T14:21:31Z</time>
      </trkpt>
      <trkpt lat="46.1038" lon="6.45726">
        <ele>1756</ele>
        <time>2018-03-14T14:21:33Z</time>
      </trkpt>
      <trkpt lat="46.10389" lon="6.45723">
        <ele>1758</ele>
        <time>2018-03-14T14:21:49Z</time>
      </trkpt>
      <trkpt lat="46.10397" lon="6.45721">
        <ele>1760</ele>
        <time>2018-03-14T14:22:01Z</time>
      </trkpt>
      <trkpt lat="46.10405" lon="6.45722">
        <ele>1762</ele>
        <time>2018-03-14T14:22:17Z</time>
      </trkpt>
      <trkpt lat="46.10401" lon="6.45734">
        <ele>1766</ele>
        <time>2018-03-14T14:22:31Z</time>
      </trkpt>
      <trkpt lat="46.10399" lon="6.45745">
        <ele>1768</ele>
        <time>2018-03-14T14:22:43Z</time>
      </trkpt>
      <trkpt lat="46.10397" lon="6.45755">
        <ele>1780</ele>
        <time>2018-03-14T14:22:56Z</time>
      </trkpt>
      <trkpt lat="46.10395" lon="6.45764">
        <ele>1779</ele>
        <time>2018-03-14T14:23:09Z</time>
      </trkpt>
      <trkpt lat="46.10393" lon="6.45775">
        <ele>1778</ele>
        <time>2018-03-14T14:23:23Z</time>
      </trkpt>
      <trkpt lat="46.10391" lon="6.45783">
        <ele>1778</ele>
        <time>2018-03-14T14:23:33Z</time>
      </trkpt>
      <trkpt lat="46.10388" lon="6.45793">
        <ele>1779</ele>
        <time>2018-03-14T14:23:46Z</time>
      </trkpt>
      <trkpt lat="46.1039" lon="6.45796">
        <ele>1780</ele>
        <time>2018-03-14T14:23:58Z</time>
      </trkpt>
      <trkpt lat="46.10394" lon="6.45793">
        <ele>1780</ele>
        <time>2018-03-14T14:24:04Z</time>
      </trkpt>
      <trkpt lat="46.10397" lon="6.45792">
        <ele>1781</ele>
        <time>2018-03-14T14:24:08Z</time>
      </trkpt>
      <trkpt lat="46.10398" lon="6.45791">
        <ele>1781</ele>
        <time>2018-03-14T14:24:10Z</time>
      </trkpt>
      <trkpt lat="46.10399" lon="6.4579">
        <ele>1781</ele>
        <time>2018-03-14T14:24:12Z</time>
      </trkpt>
      <trkpt lat="46.10408" lon="6.45787">
        <ele>1782</ele>
        <time>2018-03-14T14:24:26Z</time>
      </trkpt>
      <trkpt lat="46.1041" lon="6.45787">
        <ele>1782</ele>
        <time>2018-03-14T14:24:29Z</time>
      </trkpt>
      <trkpt lat="46.10419" lon="6.45784">
        <ele>1802</ele>
        <time>2018-03-14T14:24:43Z</time>
      </trkpt>
      <trkpt lat="46.10425" lon="6.45782">
        <ele>1803</ele>
        <time>2018-03-14T14:24:53Z</time>
      </trkpt>
      <trkpt lat="46.10429" lon="6.45781">
        <ele>1803</ele>
        <time>2018-03-14T14:24:59Z</time>
      </trkpt>
      <trkpt lat="46.10431" lon="6.45781">
        <ele>1803</ele>
        <time>2018-03-14T14:25:01Z</time>
      </trkpt>
      <trkpt lat="46.10432" lon="6.45781">
        <ele>1803</ele>
        <time>2018-03-14T14:25:03Z</time>
      </trkpt>
      <trkpt lat="46.10434" lon="6.45781">
        <ele>1803</ele>
        <time>2018-03-14T14:25:05Z</time>
      </trkpt>
      <trkpt lat="46.10435" lon="6.4578">
        <ele>1803</ele>
        <time>2018-03-14T14:25:07Z</time>
      </trkpt>
      <trkpt lat="46.10436" lon="6.45779">
        <ele>1804</ele>
        <time>2018-03-14T14:25:09Z</time>
      </trkpt>
      <trkpt lat="46.1044" lon="6.45778">
        <ele>1804</ele>
        <time>2018-03-14T14:25:17Z</time>
      </trkpt>
      <trkpt lat="46.1045" lon="6.45777">
        <ele>1806</ele>
        <time>2018-03-14T14:25:32Z</time>
      </trkpt>
      <trkpt lat="46.10455" lon="6.45775">
        <ele>1807</ele>
        <time>2018-03-14T14:25:39Z</time>
      </trkpt>
      <trkpt lat="46.10453" lon="6.45788">
        <ele>1807</ele>
        <time>2018-03-14T14:25:56Z</time>
      </trkpt>
      <trkpt lat="46.10452" lon="6.45791">
        <ele>1807</ele>
        <time>2018-03-14T14:26:00Z</time>
      </trkpt>
      <trkpt lat="46.10449" lon="6.45802">
        <ele>1808</ele>
        <time>2018-03-14T14:26:15Z</time>
      </trkpt>
      <trkpt lat="46.10447" lon="6.45811">
        <ele>1808</ele>
        <time>2018-03-14T14:26:29Z</time>
      </trkpt>
      <trkpt lat="46.1045" lon="6.45816">
        <ele>1808</ele>
        <time>2018-03-14T14:26:43Z</time>
      </trkpt>
      <trkpt lat="46.10457" lon="6.45815">
        <ele>1809</ele>
        <time>2018-03-14T14:26:54Z</time>
      </trkpt>
      <trkpt lat="46.10463" lon="6.45813">
        <ele>1810</ele>
        <time>2018-03-14T14:27:05Z</time>
      </trkpt>
      <trkpt lat="46.10468" lon="6.45812">
        <ele>1810</ele>
        <time>2018-03-14T14:27:12Z</time>
      </trkpt>
      <trkpt lat="46.1047" lon="6.45816">
        <ele>1811</ele>
        <time>2018-03-14T14:27:18Z</time>
      </trkpt>
      <trkpt lat="46.1047" lon="6.45827">
        <ele>1811</ele>
        <time>2018-03-14T14:27:32Z</time>
      </trkpt>
      <trkpt lat="46.10474" lon="6.45826">
        <ele>1812</ele>
        <time>2018-03-14T14:27:38Z</time>
      </trkpt>
      <trkpt lat="46.10474" lon="6.45825">
        <ele>1812</ele>
        <time>2018-03-14T14:27:39Z</time>
      </trkpt>
      <trkpt lat="46.10475" lon="6.45825">
        <ele>1812</ele>
        <time>2018-03-14T14:27:40Z</time>
      </trkpt>
      <trkpt lat="46.10481" lon="6.45821">
        <ele>1813</ele>
        <time>2018-03-14T14:27:47Z</time>
      </trkpt>
      <trkpt lat="46.10484" lon="6.45819">
        <ele>1813</ele>
        <time>2018-03-14T14:27:51Z</time>
      </trkpt>
      <trkpt lat="46.10485" lon="6.45818">
        <ele>1813</ele>
        <time>2018-03-14T14:27:53Z</time>
      </trkpt>
      <trkpt lat="46.10486" lon="6.45818">
        <ele>1813</ele>
        <time>2018-03-14T14:27:54Z</time>
      </trkpt>
      <trkpt lat="46.10487" lon="6.45817">
        <ele>1814</ele>
        <time>2018-03-14T14:27:55Z</time>
      </trkpt>
      <trkpt lat="46.10502" lon="6.45809">
        <ele>1819</ele>
        <time>2018-03-14T14:28:10Z</time>
      </trkpt>
      <trkpt lat="46.1052" lon="6.45798">
        <ele>1819</ele>
        <time>2018-03-14T14:28:29Z</time>
      </trkpt>
      <trkpt lat="46.10527" lon="6.45793">
        <ele>1820</ele>
        <time>2018-03-14T14:28:37Z</time>
      </trkpt>
      <trkpt lat="46.10528" lon="6.45791">
        <ele>1820</ele>
        <time>2018-03-14T14:28:39Z</time>
      </trkpt>
      <trkpt lat="46.10531" lon="6.45789">
        <ele>1820</ele>
        <time>2018-03-14T14:28:42Z</time>
      </trkpt>
      <trkpt lat="46.10531" lon="6.45789">
        <ele>1820</ele>
        <time>2018-03-14T14:28:43Z</time>
      </trkpt>
      <trkpt lat="46.10532" lon="6.45788">
        <ele>1820</ele>
        <time>2018-03-14T14:28:44Z</time>
      </trkpt>
      <trkpt lat="46.10533" lon="6.45788">
        <ele>1820</ele>
        <time>2018-03-14T14:28:45Z</time>
      </trkpt>
      <trkpt lat="46.10534" lon="6.45787">
        <ele>1820</ele>
        <time>2018-03-14T14:28:46Z</time>
      </trkpt>
      <trkpt lat="46.10545" lon="6.45778">
        <ele>1821</ele>
        <time>2018-03-14T14:29:00Z</time>
      </trkpt>
      <trkpt lat="46.10546" lon="6.45777">
        <ele>1821</ele>
        <time>2018-03-14T14:29:01Z</time>
      </trkpt>
      <trkpt lat="46.10548" lon="6.45775">
        <ele>1821</ele>
        <time>2018-03-14T14:29:05Z</time>
      </trkpt>
      <trkpt lat="46.1055" lon="6.45772">
        <ele>1822</ele>
        <time>2018-03-14T14:29:08Z</time>
      </trkpt>
      <trkpt lat="46.10559" lon="6.45759">
        <ele>1824</ele>
        <time>2018-03-14T14:29:23Z</time>
      </trkpt>
      <trkpt lat="46.10562" lon="6.45755">
        <ele>1825</ele>
        <time>2018-03-14T14:29:28Z</time>
      </trkpt>
      <trkpt lat="46.10563" lon="6.45754">
        <ele>1825</ele>
        <time>2018-03-14T14:29:30Z</time>
      </trkpt>
      <trkpt lat="46.10565" lon="6.45752">
        <ele>1826</ele>
        <time>2018-03-14T14:29:32Z</time>
      </trkpt>
      <trkpt lat="46.10566" lon="6.45751">
        <ele>1826</ele>
        <time>2018-03-14T14:29:33Z</time>
      </trkpt>
      <trkpt lat="46.10566" lon="6.4575">
        <ele>1826</ele>
        <time>2018-03-14T14:29:34Z</time>
      </trkpt>
      <trkpt lat="46.10567" lon="6.45749">
        <ele>1827</ele>
        <time>2018-03-14T14:29:35Z</time>
      </trkpt>
      <trkpt lat="46.10568" lon="6.45748">
        <ele>1828</ele>
        <time>2018-03-14T14:29:36Z</time>
      </trkpt>
      <trkpt lat="46.10568" lon="6.45747">
        <ele>1828</ele>
        <time>2018-03-14T14:29:37Z</time>
      </trkpt>
      <trkpt lat="46.10569" lon="6.45746">
        <ele>1828</ele>
        <time>2018-03-14T14:29:38Z</time>
      </trkpt>
      <trkpt lat="46.1057" lon="6.45745">
        <ele>1828</ele>
        <time>2018-03-14T14:29:39Z</time>
      </trkpt>
      <trkpt lat="46.10571" lon="6.45744">
        <ele>1828</ele>
        <time>2018-03-14T14:29:40Z</time>
      </trkpt>
      <trkpt lat="46.10572" lon="6.45743">
        <ele>1828</ele>
        <time>2018-03-14T14:29:41Z</time>
      </trkpt>
      <trkpt lat="46.10572" lon="6.45742">
        <ele>1828</ele>
        <time>2018-03-14T14:29:42Z</time>
      </trkpt>
      <trkpt lat="46.10573" lon="6.4574">
        <ele>1828</ele>
        <time>2018-03-14T14:29:44Z</time>
      </trkpt>
      <trkpt lat="46.10574" lon="6.45739">
        <ele>1828</ele>
        <time>2018-03-14T14:29:45Z</time>
      </trkpt>
      <trkpt lat="46.10587" lon="6.45717">
        <ele>1804</ele>
        <time>2018-03-14T14:30:03Z</time>
      </trkpt>
      <trkpt lat="46.10598" lon="6.45678">
        <ele>1809</ele>
        <time>2018-03-14T14:30:25Z</time>
      </trkpt>
      <trkpt lat="46.10601" lon="6.45665">
        <ele>1817</ele>
        <time>2018-03-14T14:30:33Z</time>
      </trkpt>
      <trkpt lat="46.10601" lon="6.45663">
        <ele>1817</ele>
        <time>2018-03-14T14:30:34Z</time>
      </trkpt>
      <trkpt lat="46.10601" lon="6.45661">
        <ele>1816</ele>
        <time>2018-03-14T14:30:35Z</time>
      </trkpt>
      <trkpt lat="46.10605" lon="6.4564">
        <ele>1811</ele>
        <time>2018-03-14T14:30:46Z</time>
      </trkpt>
      <trkpt lat="46.10606" lon="6.45631">
        <ele>1810</ele>
        <time>2018-03-14T14:30:50Z</time>
      </trkpt>
      <trkpt lat="46.10611" lon="6.45605">
        <ele>1811</ele>
        <time>2018-03-14T14:31:02Z</time>
      </trkpt>
      <trkpt lat="46.10611" lon="6.45603">
        <ele>1811</ele>
        <time>2018-03-14T14:31:03Z</time>
      </trkpt>
      <trkpt lat="46.10611" lon="6.45601">
        <ele>1811</ele>
        <time>2018-03-14T14:31:04Z</time>
      </trkpt>
      <trkpt lat="46.10612" lon="6.456">
        <ele>1811</ele>
        <time>2018-03-14T14:31:05Z</time>
      </trkpt>
      <trkpt lat="46.10613" lon="6.45593">
        <ele>1812</ele>
        <time>2018-03-14T14:31:10Z</time>
      </trkpt>
      <trkpt lat="46.10613" lon="6.45591">
        <ele>1812</ele>
        <time>2018-03-14T14:31:11Z</time>
      </trkpt>
      <trkpt lat="46.10613" lon="6.45589">
        <ele>1812</ele>
        <time>2018-03-14T14:31:12Z</time>
      </trkpt>
      <trkpt lat="46.10613" lon="6.45588">
        <ele>1812</ele>
        <time>2018-03-14T14:31:13Z</time>
      </trkpt>
      <trkpt lat="46.10615" lon="6.4558">
        <ele>1818</ele>
        <time>2018-03-14T14:31:29Z</time>
      </trkpt>
      <trkpt lat="46.1062" lon="6.4557">
        <ele>1817</ele>
        <time>2018-03-14T14:31:39Z</time>
      </trkpt>
      <trkpt lat="46.10621" lon="6.45568">
        <ele>1817</ele>
        <time>2018-03-14T14:31:41Z</time>
      </trkpt>
      <trkpt lat="46.10621" lon="6.45567">
        <ele>1817</ele>
        <time>2018-03-14T14:31:42Z</time>
      </trkpt>
      <trkpt lat="46.10625" lon="6.45559">
        <ele>1816</ele>
        <time>2018-03-14T14:31:49Z</time>
      </trkpt>
      <trkpt lat="46.10627" lon="6.45552">
        <ele>1816</ele>
        <time>2018-03-14T14:31:55Z</time>
      </trkpt>
      <trkpt lat="46.10631" lon="6.45543">
        <ele>1816</ele>
        <time>2018-03-14T14:32:03Z</time>
      </trkpt>
      <trkpt lat="46.10632" lon="6.45541">
        <ele>1816</ele>
        <time>2018-03-14T14:32:05Z</time>
      </trkpt>
      <trkpt lat="46.10632" lon="6.45539">
        <ele>1816</ele>
        <time>2018-03-14T14:32:06Z</time>
      </trkpt>
      <trkpt lat="46.10634" lon="6.45535">
        <ele>1816</ele>
        <time>2018-03-14T14:32:10Z</time>
      </trkpt>
      <trkpt lat="46.10634" lon="6.45534">
        <ele>1816</ele>
        <time>2018-03-14T14:32:11Z</time>
      </trkpt>
      <trkpt lat="46.10635" lon="6.45528">
        <ele>1817</ele>
        <time>2018-03-14T14:32:15Z</time>
      </trkpt>
      <trkpt lat="46.10639" lon="6.45521">
        <ele>1817</ele>
        <time>2018-03-14T14:32:22Z</time>
      </trkpt>
      <trkpt lat="46.10639" lon="6.4552">
        <ele>1817</ele>
        <time>2018-03-14T14:32:23Z</time>
      </trkpt>
      <trkpt lat="46.1064" lon="6.45519">
        <ele>1817</ele>
        <time>2018-03-14T14:32:24Z</time>
      </trkpt>
      <trkpt lat="46.1064" lon="6.45518">
        <ele>1817</ele>
        <time>2018-03-14T14:32:25Z</time>
      </trkpt>
      <trkpt lat="46.10641" lon="6.45516">
        <ele>1817</ele>
        <time>2018-03-14T14:32:27Z</time>
      </trkpt>
      <trkpt lat="46.10642" lon="6.45514">
        <ele>1817</ele>
        <time>2018-03-14T14:32:29Z</time>
      </trkpt>
      <trkpt lat="46.10649" lon="6.45502">
        <ele>1818</ele>
        <time>2018-03-14T14:32:43Z</time>
      </trkpt>
      <trkpt lat="46.1065" lon="6.455">
        <ele>1819</ele>
        <time>2018-03-14T14:32:45Z</time>
      </trkpt>
      <trkpt lat="46.10651" lon="6.45499">
        <ele>1819</ele>
        <time>2018-03-14T14:32:46Z</time>
      </trkpt>
      <trkpt lat="46.10651" lon="6.45497">
        <ele>1819</ele>
        <time>2018-03-14T14:32:47Z</time>
      </trkpt>
      <trkpt lat="46.10652" lon="6.45496">
        <ele>1819</ele>
        <time>2018-03-14T14:32:48Z</time>
      </trkpt>
      <trkpt lat="46.10653" lon="6.45495">
        <ele>1819</ele>
        <time>2018-03-14T14:32:57Z</time>
      </trkpt>
      <trkpt lat="46.10654" lon="6.45496">
        <ele>1819</ele>
        <time>2018-03-14T14:33:05Z</time>
      </trkpt>
      <trkpt lat="46.10654" lon="6.45496">
        <ele>1819</ele>
        <time>2018-03-14T14:33:07Z</time>
      </trkpt>
      <trkpt lat="46.10653" lon="6.45496">
        <ele>1819</ele>
        <time>2018-03-14T14:33:12Z</time>
      </trkpt>
      <trkpt lat="46.10653" lon="6.45496">
        <ele>1819</ele>
        <time>2018-03-14T14:33:15Z</time>
      </trkpt>
      <trkpt lat="46.10653" lon="6.45496">
        <ele>1819</ele>
        <time>2018-03-14T14:33:17Z</time>
      </trkpt>
      <trkpt lat="46.10653" lon="6.45496">
        <ele>1819</ele>
        <time>2018-03-14T14:33:20Z</time>
      </trkpt>
      <trkpt lat="46.10653" lon="6.45495">
        <ele>1819</ele>
        <time>2018-03-14T14:33:21Z</time>
      </trkpt>
      <trkpt lat="46.10653" lon="6.45495">
        <ele>1819</ele>
        <time>2018-03-14T14:33:23Z</time>
      </trkpt>
      <trkpt lat="46.10653" lon="6.45494">
        <ele>1819</ele>
        <time>2018-03-14T14:33:32Z</time>
      </trkpt>
      <trkpt lat="46.10653" lon="6.45494">
        <ele>1819</ele>
        <time>2018-03-14T14:33:35Z</time>
      </trkpt>
      <trkpt lat="46.10652" lon="6.45495">
        <ele>1819</ele>
        <time>2018-03-14T14:34:07Z</time>
      </trkpt>
      <trkpt lat="46.10653" lon="6.45496">
        <ele>1819</ele>
        <time>2018-03-14T14:34:26Z</time>
      </trkpt>
      <trkpt lat="46.10652" lon="6.45496">
        <ele>1819</ele>
        <time>2018-03-14T14:34:36Z</time>
      </trkpt>
      <trkpt lat="46.10652" lon="6.45495">
        <ele>1819</ele>
        <time>2018-03-14T14:34:41Z</time>
      </trkpt>
      <trkpt lat="46.10652" lon="6.45495">
        <ele>1819</ele>
        <time>2018-03-14T14:34:44Z</time>
      </trkpt>
      <trkpt lat="46.10651" lon="6.45497">
        <ele>1819</ele>
        <time>2018-03-14T14:35:06Z</time>
      </trkpt>
      <trkpt lat="46.10652" lon="6.45496">
        <ele>1819</ele>
        <time>2018-03-14T14:35:30Z</time>
      </trkpt>
      <trkpt lat="46.10652" lon="6.45494">
        <ele>1819</ele>
        <time>2018-03-14T14:35:43Z</time>
      </trkpt>
      <trkpt lat="46.10652" lon="6.45494">
        <ele>1819</ele>
        <time>2018-03-14T14:36:00Z</time>
      </trkpt>
      <trkpt lat="46.10652" lon="6.45495">
        <ele>1819</ele>
        <time>2018-03-14T14:36:31Z</time>
      </trkpt>
      <trkpt lat="46.10652" lon="6.45494">
        <ele>1819</ele>
        <time>2018-03-14T14:36:43Z</time>
      </trkpt>
      <trkpt lat="46.10651" lon="6.45495">
        <ele>1819</ele>
        <time>2018-03-14T14:36:51Z</time>
      </trkpt>
      <trkpt lat="46.10652" lon="6.45494">
        <ele>1819</ele>
        <time>2018-03-14T14:37:19Z</time>
      </trkpt>
      <trkpt lat="46.10651" lon="6.45495">
        <ele>1819</ele>
        <time>2018-03-14T14:37:24Z</time>
      </trkpt>
      <trkpt lat="46.10651" lon="6.45495">
        <ele>1819</ele>
        <time>2018-03-14T14:37:50Z</time>
      </trkpt>
      <trkpt lat="46.10651" lon="6.45495">
        <ele>1819</ele>
        <time>2018-03-14T14:37:55Z</time>
      </trkpt>
      <trkpt lat="46.10651" lon="6.45494">
        <ele>1819</ele>
        <time>2018-03-14T14:38:06Z</time>
      </trkpt>
      <trkpt lat="46.10651" lon="6.45494">
        <ele>1819</ele>
        <time>2018-03-14T14:38:09Z</time>
      </trkpt>
      <trkpt lat="46.10652" lon="6.45494">
        <ele>1819</ele>
        <time>2018-03-14T14:38:14Z</time>
      </trkpt>
      <trkpt lat="46.10652" lon="6.45494">
        <ele>1819</ele>
        <time>2018-03-14T14:38:18Z</time>
      </trkpt>
      <trkpt lat="46.10652" lon="6.45494">
        <ele>1819</ele>
        <time>2018-03-14T14:38:22Z</time>
      </trkpt>
      <trkpt lat="46.10652" lon="6.45494">
        <ele>1819</ele>
        <time>2018-03-14T14:38:24Z</time>
      </trkpt>
      <trkpt lat="46.10652" lon="6.45495">
        <ele>1819</ele>
        <time>2018-03-14T14:38:29Z</time>
      </trkpt>
      <trkpt lat="46.10652" lon="6.45494">
        <ele>1819</ele>
        <time>2018-03-14T14:38:40Z</time>
      </trkpt>
      <trkpt lat="46.10652" lon="6.45494">
        <ele>1819</ele>
        <time>2018-03-14T14:38:45Z</time>
      </trkpt>
      <trkpt lat="46.10653" lon="6.45493">
        <ele>1819</ele>
        <time>2018-03-14T14:38:56Z</time>
      </trkpt>
      <trkpt lat="46.10653" lon="6.45493">
        <ele>1819</ele>
        <time>2018-03-14T14:39:23Z</time>
      </trkpt>
      <trkpt lat="46.10653" lon="6.45493">
        <ele>1819</ele>
        <time>2018-03-14T14:39:24Z</time>
      </trkpt>
      <trkpt lat="46.10652" lon="6.45493">
        <ele>1819</ele>
        <time>2018-03-14T14:39:29Z</time>
      </trkpt>
      <trkpt lat="46.10652" lon="6.45493">
        <ele>1819</ele>
        <time>2018-03-14T14:39:35Z</time>
      </trkpt>
      <trkpt lat="46.10651" lon="6.45494">
        <ele>1819</ele>
        <time>2018-03-14T14:39:44Z</time>
      </trkpt>
      <trkpt lat="46.10649" lon="6.455">
        <ele>1819</ele>
        <time>2018-03-14T14:40:25Z</time>
      </trkpt>
      <trkpt lat="46.10648" lon="6.45501">
        <ele>1818</ele>
        <time>2018-03-14T14:40:26Z</time>
      </trkpt>
      <trkpt lat="46.10647" lon="6.45503">
        <ele>1818</ele>
        <time>2018-03-14T14:40:27Z</time>
      </trkpt>
      <trkpt lat="46.10646" lon="6.45505">
        <ele>1818</ele>
        <time>2018-03-14T14:40:28Z</time>
      </trkpt>
      <trkpt lat="46.10645" lon="6.45507">
        <ele>1818</ele>
        <time>2018-03-14T14:40:29Z</time>
      </trkpt>
      <trkpt lat="46.10644" lon="6.45508">
        <ele>1817</ele>
        <time>2018-03-14T14:40:30Z</time>
      </trkpt>
      <trkpt lat="46.10637" lon="6.45522">
        <ele>1817</ele>
        <time>2018-03-14T14:40:36Z</time>
      </trkpt>
      <trkpt lat="46.10631" lon="6.45537">
        <ele>1816</ele>
        <time>2018-03-14T14:40:44Z</time>
      </trkpt>
      <trkpt lat="46.10623" lon="6.45559">
        <ele>1816</ele>
        <time>2018-03-14T14:40:56Z</time>
      </trkpt>
      <trkpt lat="46.10614" lon="6.45583">
        <ele>1818</ele>
        <time>2018-03-14T14:41:04Z</time>
      </trkpt>
      <trkpt lat="46.10606" lon="6.45596">
        <ele>1813</ele>
        <time>2018-03-14T14:41:08Z</time>
      </trkpt>
      <trkpt lat="46.10602" lon="6.45596">
        <ele>1814</ele>
        <time>2018-03-14T14:41:09Z</time>
      </trkpt>
      <trkpt lat="46.10597" lon="6.45597">
        <ele>1815</ele>
        <time>2018-03-14T14:41:10Z</time>
      </trkpt>
      <trkpt lat="46.1059" lon="6.456">
        <ele>1816</ele>
        <time>2018-03-14T14:41:11Z</time>
      </trkpt>
      <trkpt lat="46.10583" lon="6.45599">
        <ele>1817</ele>
        <time>2018-03-14T14:41:12Z</time>
      </trkpt>
      <trkpt lat="46.10575" lon="6.45601">
        <ele>1815</ele>
        <time>2018-03-14T14:41:13Z</time>
      </trkpt>
      <trkpt lat="46.10568" lon="6.45602">
        <ele>1813</ele>
        <time>2018-03-14T14:41:14Z</time>
      </trkpt>
      <trkpt lat="46.1056" lon="6.45599">
        <ele>1811</ele>
        <time>2018-03-14T14:41:15Z</time>
      </trkpt>
      <trkpt lat="46.10554" lon="6.45597">
        <ele>1809</ele>
        <time>2018-03-14T14:41:16Z</time>
      </trkpt>
      <trkpt lat="46.10543" lon="6.45599">
        <ele>1805</ele>
        <time>2018-03-14T14:41:17Z</time>
      </trkpt>
      <trkpt lat="46.10536" lon="6.45601">
        <ele>1802</ele>
        <time>2018-03-14T14:41:18Z</time>
      </trkpt>
      <trkpt lat="46.10529" lon="6.45597">
        <ele>1799</ele>
        <time>2018-03-14T14:41:19Z</time>
      </trkpt>
      <trkpt lat="46.10523" lon="6.45592">
        <ele>1795</ele>
        <time>2018-03-14T14:41:20Z</time>
      </trkpt>
      <trkpt lat="46.10513" lon="6.45591">
        <ele>1790</ele>
        <time>2018-03-14T14:41:21Z</time>
      </trkpt>
      <trkpt lat="46.10506" lon="6.4559">
        <ele>1785</ele>
        <time>2018-03-14T14:41:22Z</time>
      </trkpt>
      <trkpt lat="46.105" lon="6.45587">
        <ele>1773</ele>
        <time>2018-03-14T14:41:23Z</time>
      </trkpt>
      <trkpt lat="46.10494" lon="6.45588">
        <ele>1772</ele>
        <time>2018-03-14T14:41:24Z</time>
      </trkpt>
      <trkpt lat="46.10486" lon="6.45591">
        <ele>1769</ele>
        <time>2018-03-14T14:41:25Z</time>
      </trkpt>
      <trkpt lat="46.1048" lon="6.45593">
        <ele>1766</ele>
        <time>2018-03-14T14:41:26Z</time>
      </trkpt>
      <trkpt lat="46.10473" lon="6.45595">
        <ele>1764</ele>
        <time>2018-03-14T14:41:27Z</time>
      </trkpt>
      <trkpt lat="46.10464" lon="6.45597">
        <ele>1761</ele>
        <time>2018-03-14T14:41:28Z</time>
      </trkpt>
      <trkpt lat="46.10457" lon="6.45595">
        <ele>1758</ele>
        <time>2018-03-14T14:41:29Z</time>
      </trkpt>
      <trkpt lat="46.1045" lon="6.45594">
        <ele>1755</ele>
        <time>2018-03-14T14:41:30Z</time>
      </trkpt>
      <trkpt lat="46.10443" lon="6.45596">
        <ele>1751</ele>
        <time>2018-03-14T14:41:31Z</time>
      </trkpt>
      <trkpt lat="46.10438" lon="6.45602">
        <ele>1751</ele>
        <time>2018-03-14T14:41:32Z</time>
      </trkpt>
      <trkpt lat="46.10435" lon="6.45607">
        <ele>1751</ele>
        <time>2018-03-14T14:41:33Z</time>
      </trkpt>
      <trkpt lat="46.10429" lon="6.45607">
        <ele>1749</ele>
        <time>2018-03-14T14:41:34Z</time>
      </trkpt>
      <trkpt lat="46.10423" lon="6.45607">
        <ele>1748</ele>
        <time>2018-03-14T14:41:35Z</time>
      </trkpt>
      <trkpt lat="46.10418" lon="6.45609">
        <ele>1748</ele>
        <time>2018-03-14T14:41:36Z</time>
      </trkpt>
      <trkpt lat="46.10412" lon="6.45607">
        <ele>1724</ele>
        <time>2018-03-14T14:41:37Z</time>
      </trkpt>
      <trkpt lat="46.10406" lon="6.45601">
        <ele>1723</ele>
        <time>2018-03-14T14:41:38Z</time>
      </trkpt>
      <trkpt lat="46.10399" lon="6.456">
        <ele>1722</ele>
        <time>2018-03-14T14:41:39Z</time>
      </trkpt>
      <trkpt lat="46.10391" lon="6.45597">
        <ele>1720</ele>
        <time>2018-03-14T14:41:40Z</time>
      </trkpt>
      <trkpt lat="46.10384" lon="6.45592">
        <ele>1718</ele>
        <time>2018-03-14T14:41:41Z</time>
      </trkpt>
      <trkpt lat="46.10377" lon="6.45588">
        <ele>1715</ele>
        <time>2018-03-14T14:41:42Z</time>
      </trkpt>
      <trkpt lat="46.10369" lon="6.45584">
        <ele>1712</ele>
        <time>2018-03-14T14:41:43Z</time>
      </trkpt>
      <trkpt lat="46.10364" lon="6.45578">
        <ele>1693</ele>
        <time>2018-03-14T14:41:44Z</time>
      </trkpt>
      <trkpt lat="46.10359" lon="6.4557">
        <ele>1691</ele>
        <time>2018-03-14T14:41:45Z</time>
      </trkpt>
      <trkpt lat="46.10353" lon="6.45566">
        <ele>1689</ele>
        <time>2018-03-14T14:41:46Z</time>
      </trkpt>
      <trkpt lat="46.10348" lon="6.45565">
        <ele>1688</ele>
        <time>2018-03-14T14:41:47Z</time>
      </trkpt>
      <trkpt lat="46.10344" lon="6.45562">
        <ele>1688</ele>
        <time>2018-03-14T14:41:48Z</time>
      </trkpt>
      <trkpt lat="46.10341" lon="6.45556">
        <ele>1687</ele>
        <time>2018-03-14T14:41:49Z</time>
      </trkpt>
      <trkpt lat="46.10338" lon="6.45552">
        <ele>1686</ele>
        <time>2018-03-14T14:41:50Z</time>
      </trkpt>
      <trkpt lat="46.10334" lon="6.45549">
        <ele>1685</ele>
        <time>2018-03-14T14:41:51Z</time>
      </trkpt>
      <trkpt lat="46.10332" lon="6.45542">
        <ele>1661</ele>
        <time>2018-03-14T14:41:52Z</time>
      </trkpt>
      <trkpt lat="46.1033" lon="6.45536">
        <ele>1659</ele>
        <time>2018-03-14T14:41:53Z</time>
      </trkpt>
      <trkpt lat="46.10327" lon="6.4553">
        <ele>1658</ele>
        <time>2018-03-14T14:41:54Z</time>
      </trkpt>
      <trkpt lat="46.10324" lon="6.45524">
        <ele>1657</ele>
        <time>2018-03-14T14:41:55Z</time>
      </trkpt>
      <trkpt lat="46.10321" lon="6.45519">
        <ele>1656</ele>
        <time>2018-03-14T14:41:56Z</time>
      </trkpt>
      <trkpt lat="46.10316" lon="6.45516">
        <ele>1655</ele>
        <time>2018-03-14T14:41:57Z</time>
      </trkpt>
      <trkpt lat="46.1031" lon="6.45509">
        <ele>1654</ele>
        <time>2018-03-14T14:41:58Z</time>
      </trkpt>
      <trkpt lat="46.10305" lon="6.45503">
        <ele>1652</ele>
        <time>2018-03-14T14:41:59Z</time>
      </trkpt>
      <trkpt lat="46.10297" lon="6.45499">
        <ele>1634</ele>
        <time>2018-03-14T14:42:00Z</time>
      </trkpt>
      <trkpt lat="46.10292" lon="6.45494">
        <ele>1632</ele>
        <time>2018-03-14T14:42:01Z</time>
      </trkpt>
      <trkpt lat="46.10288" lon="6.45487">
        <ele>1630</ele>
        <time>2018-03-14T14:42:02Z</time>
      </trkpt>
      <trkpt lat="46.10283" lon="6.45481">
        <ele>1628</ele>
        <time>2018-03-14T14:42:03Z</time>
      </trkpt>
      <trkpt lat="46.10277" lon="6.4548">
        <ele>1627</ele>
        <time>2018-03-14T14:42:04Z</time>
      </trkpt>
      <trkpt lat="46.10271" lon="6.45482">
        <ele>1626</ele>
        <time>2018-03-14T14:42:05Z</time>
      </trkpt>
      <trkpt lat="46.10261" lon="6.45485">
        <ele>1625</ele>
        <time>2018-03-14T14:42:07Z</time>
      </trkpt>
      <trkpt lat="46.10256" lon="6.45481">
        <ele>1625</ele>
        <time>2018-03-14T14:42:08Z</time>
      </trkpt>
      <trkpt lat="46.10249" lon="6.45478">
        <ele>1606</ele>
        <time>2018-03-14T14:42:09Z</time>
      </trkpt>
      <trkpt lat="46.10245" lon="6.45473">
        <ele>1603</ele>
        <time>2018-03-14T14:42:10Z</time>
      </trkpt>
      <trkpt lat="46.10244" lon="6.45467">
        <ele>1600</ele>
        <time>2018-03-14T14:42:11Z</time>
      </trkpt>
      <trkpt lat="46.10244" lon="6.45459">
        <ele>1598</ele>
        <time>2018-03-14T14:42:12Z</time>
      </trkpt>
      <trkpt lat="46.10241" lon="6.45456">
        <ele>1597</ele>
        <time>2018-03-14T14:42:13Z</time>
      </trkpt>
      <trkpt lat="46.10238" lon="6.45453">
        <ele>1596</ele>
        <time>2018-03-14T14:42:14Z</time>
      </trkpt>
      <trkpt lat="46.10233" lon="6.45448">
        <ele>1594</ele>
        <time>2018-03-14T14:42:15Z</time>
      </trkpt>
      <trkpt lat="46.10227" lon="6.45445">
        <ele>1593</ele>
        <time>2018-03-14T14:42:16Z</time>
      </trkpt>
      <trkpt lat="46.10219" lon="6.45439">
        <ele>1591</ele>
        <time>2018-03-14T14:42:17Z</time>
      </trkpt>
      <trkpt lat="46.10213" lon="6.45437">
        <ele>1589</ele>
        <time>2018-03-14T14:42:18Z</time>
      </trkpt>
      <trkpt lat="46.1021" lon="6.45445">
        <ele>1590</ele>
        <time>2018-03-14T14:42:19Z</time>
      </trkpt>
      <trkpt lat="46.1021" lon="6.45451">
        <ele>1590</ele>
        <time>2018-03-14T14:42:20Z</time>
      </trkpt>
      <trkpt lat="46.10208" lon="6.45449">
        <ele>1590</ele>
        <time>2018-03-14T14:42:21Z</time>
      </trkpt>
      <trkpt lat="46.10205" lon="6.45446">
        <ele>1589</ele>
        <time>2018-03-14T14:42:22Z</time>
      </trkpt>
      <trkpt lat="46.10199" lon="6.45444">
        <ele>1587</ele>
        <time>2018-03-14T14:42:23Z</time>
      </trkpt>
      <trkpt lat="46.10194" lon="6.45442">
        <ele>1585</ele>
        <time>2018-03-14T14:42:24Z</time>
      </trkpt>
      <trkpt lat="46.1019" lon="6.45442">
        <ele>1584</ele>
        <time>2018-03-14T14:42:25Z</time>
      </trkpt>
      <trkpt lat="46.10185" lon="6.45444">
        <ele>1583</ele>
        <time>2018-03-14T14:42:26Z</time>
      </trkpt>
      <trkpt lat="46.10182" lon="6.45445">
        <ele>1583</ele>
        <time>2018-03-14T14:42:27Z</time>
      </trkpt>
      <trkpt lat="46.10175" lon="6.45444">
        <ele>1581</ele>
        <time>2018-03-14T14:42:28Z</time>
      </trkpt>
      <trkpt lat="46.10174" lon="6.45445">
        <ele>1581</ele>
        <time>2018-03-14T14:42:29Z</time>
      </trkpt>
      <trkpt lat="46.1017" lon="6.45443">
        <ele>1580</ele>
        <time>2018-03-14T14:42:30Z</time>
      </trkpt>
      <trkpt lat="46.10167" lon="6.45439">
        <ele>1562</ele>
        <time>2018-03-14T14:42:31Z</time>
      </trkpt>
      <trkpt lat="46.10164" lon="6.45439">
        <ele>1562</ele>
        <time>2018-03-14T14:42:32Z</time>
      </trkpt>
      <trkpt lat="46.10161" lon="6.45443">
        <ele>1562</ele>
        <time>2018-03-14T14:42:33Z</time>
      </trkpt>
      <trkpt lat="46.10154" lon="6.45444">
        <ele>1562</ele>
        <time>2018-03-14T14:42:34Z</time>
      </trkpt>
      <trkpt lat="46.10148" lon="6.45445">
        <ele>1562</ele>
        <time>2018-03-14T14:42:35Z</time>
      </trkpt>
      <trkpt lat="46.10143" lon="6.45448">
        <ele>1562</ele>
        <time>2018-03-14T14:42:36Z</time>
      </trkpt>
      <trkpt lat="46.10139" lon="6.4545">
        <ele>1561</ele>
        <time>2018-03-14T14:42:37Z</time>
      </trkpt>
      <trkpt lat="46.10131" lon="6.45446">
        <ele>1560</ele>
        <time>2018-03-14T14:42:38Z</time>
      </trkpt>
      <trkpt lat="46.10125" lon="6.45446">
        <ele>1559</ele>
        <time>2018-03-14T14:42:39Z</time>
      </trkpt>
      <trkpt lat="46.10119" lon="6.45445">
        <ele>1558</ele>
        <time>2018-03-14T14:42:40Z</time>
      </trkpt>
      <trkpt lat="46.10113" lon="6.45442">
        <ele>1557</ele>
        <time>2018-03-14T14:42:41Z</time>
      </trkpt>
      <trkpt lat="46.10108" lon="6.45438">
        <ele>1555</ele>
        <time>2018-03-14T14:42:42Z</time>
      </trkpt>
      <trkpt lat="46.10106" lon="6.4543">
        <ele>1554</ele>
        <time>2018-03-14T14:42:43Z</time>
      </trkpt>
      <trkpt lat="46.10103" lon="6.45423">
        <ele>1552</ele>
        <time>2018-03-14T14:42:44Z</time>
      </trkpt>
      <trkpt lat="46.10095" lon="6.45419">
        <ele>1549</ele>
        <time>2018-03-14T14:42:45Z</time>
      </trkpt>
      <trkpt lat="46.10089" lon="6.45419">
        <ele>1546</ele>
        <time>2018-03-14T14:42:46Z</time>
      </trkpt>
      <trkpt lat="46.10086" lon="6.45418">
        <ele>1544</ele>
        <time>2018-03-14T14:42:47Z</time>
      </trkpt>
      <trkpt lat="46.10086" lon="6.4542">
        <ele>1544</ele>
        <time>2018-03-14T14:42:48Z</time>
      </trkpt>
      <trkpt lat="46.10093" lon="6.45423">
        <ele>1549</ele>
        <time>2018-03-14T14:42:58Z</time>
      </trkpt>
      <trkpt lat="46.10095" lon="6.45424">
        <ele>1549</ele>
        <time>2018-03-14T14:43:02Z</time>
      </trkpt>
      <trkpt lat="46.10095" lon="6.45424">
        <ele>1550</ele>
        <time>2018-03-14T14:43:03Z</time>
      </trkpt>
      <trkpt lat="46.10098" lon="6.45425">
        <ele>1551</ele>
        <time>2018-03-14T14:43:08Z</time>
      </trkpt>
      <trkpt lat="46.10099" lon="6.45425">
        <ele>1551</ele>
        <time>2018-03-14T14:43:14Z</time>
      </trkpt>
      <trkpt lat="46.10099" lon="6.45425">
        <ele>1551</ele>
        <time>2018-03-14T14:43:19Z</time>
      </trkpt>
      <trkpt lat="46.10099" lon="6.45424">
        <ele>1551</ele>
        <time>2018-03-14T14:43:23Z</time>
      </trkpt>
      <trkpt lat="46.101" lon="6.45422">
        <ele>1551</ele>
        <time>2018-03-14T14:43:31Z</time>
      </trkpt>
      <trkpt lat="46.101" lon="6.45423">
        <ele>1551</ele>
        <time>2018-03-14T14:43:38Z</time>
      </trkpt>
      <trkpt lat="46.101" lon="6.45422">
        <ele>1551</ele>
        <time>2018-03-14T14:43:46Z</time>
      </trkpt>
      <trkpt lat="46.101" lon="6.45423">
        <ele>1551</ele>
        <time>2018-03-14T14:43:49Z</time>
      </trkpt>
      <trkpt lat="46.10103" lon="6.45425">
        <ele>1552</ele>
        <time>2018-03-14T14:44:05Z</time>
      </trkpt>
      <trkpt lat="46.10104" lon="6.45425">
        <ele>1552</ele>
        <time>2018-03-14T14:44:14Z</time>
      </trkpt>
      <trkpt lat="46.10103" lon="6.45427">
        <ele>1552</ele>
        <time>2018-03-14T14:44:33Z</time>
      </trkpt>
      <trkpt lat="46.10102" lon="6.45426">
        <ele>1552</ele>
        <time>2018-03-14T14:44:37Z</time>
      </trkpt>
      <trkpt lat="46.10102" lon="6.45427">
        <ele>1552</ele>
        <time>2018-03-14T14:44:42Z</time>
      </trkpt>
      <trkpt lat="46.10102" lon="6.45427">
        <ele>1552</ele>
        <time>2018-03-14T14:44:55Z</time>
      </trkpt>
      <trkpt lat="46.10102" lon="6.45427">
        <ele>1552</ele>
        <time>2018-03-14T14:45:08Z</time>
      </trkpt>
      <trkpt lat="46.10102" lon="6.45427">
        <ele>1552</ele>
        <time>2018-03-14T14:45:32Z</time>
      </trkpt>
      <trkpt lat="46.10102" lon="6.45426">
        <ele>1552</ele>
        <time>2018-03-14T14:45:37Z</time>
      </trkpt>
      <trkpt lat="46.10103" lon="6.45426">
        <ele>1552</ele>
        <time>2018-03-14T14:46:01Z</time>
      </trkpt>
      <trkpt lat="46.10103" lon="6.45427">
        <ele>1553</ele>
        <time>2018-03-14T14:46:02Z</time>
      </trkpt>
      <trkpt lat="46.10103" lon="6.45428">
        <ele>1553</ele>
        <time>2018-03-14T14:46:06Z</time>
      </trkpt>
      <trkpt lat="46.10103" lon="6.45428">
        <ele>1553</ele>
        <time>2018-03-14T14:46:10Z</time>
      </trkpt>
      <trkpt lat="46.10105" lon="6.4543">
        <ele>1553</ele>
        <time>2018-03-14T14:46:25Z</time>
      </trkpt>
      <trkpt lat="46.10104" lon="6.4543">
        <ele>1553</ele>
        <time>2018-03-14T14:46:35Z</time>
      </trkpt>
      <trkpt lat="46.10104" lon="6.45429">
        <ele>1553</ele>
        <time>2018-03-14T14:46:46Z</time>
      </trkpt>
      <trkpt lat="46.10105" lon="6.45429">
        <ele>1553</ele>
        <time>2018-03-14T14:47:18Z</time>
      </trkpt>
      <trkpt lat="46.10104" lon="6.45427">
        <ele>1553</ele>
        <time>2018-03-14T14:47:30Z</time>
      </trkpt>
      <trkpt lat="46.10103" lon="6.45426">
        <ele>1553</ele>
        <time>2018-03-14T14:47:37Z</time>
      </trkpt>
      <trkpt lat="46.10104" lon="6.45428">
        <ele>1553</ele>
        <time>2018-03-14T14:47:47Z</time>
      </trkpt>
      <trkpt lat="46.10104" lon="6.45425">
        <ele>1552</ele>
        <time>2018-03-14T14:48:04Z</time>
      </trkpt>
      <trkpt lat="46.10103" lon="6.45426">
        <ele>1552</ele>
        <time>2018-03-14T14:48:14Z</time>
      </trkpt>
      <trkpt lat="46.10103" lon="6.45426">
        <ele>1552</ele>
        <time>2018-03-14T14:48:17Z</time>
      </trkpt>
      <trkpt lat="46.10104" lon="6.45427">
        <ele>1553</ele>
        <time>2018-03-14T14:48:26Z</time>
      </trkpt>
      <trkpt lat="46.10104" lon="6.45428">
        <ele>1553</ele>
        <time>2018-03-14T14:48:37Z</time>
      </trkpt>
      <trkpt lat="46.10105" lon="6.45432">
        <ele>1554</ele>
        <time>2018-03-14T14:49:00Z</time>
      </trkpt>
      <trkpt lat="46.10105" lon="6.45432">
        <ele>1554</ele>
        <time>2018-03-14T14:49:04Z</time>
      </trkpt>
      <trkpt lat="46.10109" lon="6.45437">
        <ele>1555</ele>
        <time>2018-03-14T14:49:15Z</time>
      </trkpt>
      <trkpt lat="46.10111" lon="6.45439">
        <ele>1556</ele>
        <time>2018-03-14T14:49:17Z</time>
      </trkpt>
      <trkpt lat="46.10113" lon="6.45443">
        <ele>1557</ele>
        <time>2018-03-14T14:49:22Z</time>
      </trkpt>
      <trkpt lat="46.10115" lon="6.45446">
        <ele>1558</ele>
        <time>2018-03-14T14:49:26Z</time>
      </trkpt>
      <trkpt lat="46.10116" lon="6.4545">
        <ele>1558</ele>
        <time>2018-03-14T14:49:31Z</time>
      </trkpt>
      <trkpt lat="46.10117" lon="6.45454">
        <ele>1559</ele>
        <time>2018-03-14T14:49:35Z</time>
      </trkpt>
      <trkpt lat="46.10116" lon="6.45458">
        <ele>1559</ele>
        <time>2018-03-14T14:49:39Z</time>
      </trkpt>
      <trkpt lat="46.10114" lon="6.45461">
        <ele>1559</ele>
        <time>2018-03-14T14:49:43Z</time>
      </trkpt>
      <trkpt lat="46.10113" lon="6.45462">
        <ele>1559</ele>
        <time>2018-03-14T14:49:45Z</time>
      </trkpt>
      <trkpt lat="46.10112" lon="6.45464">
        <ele>1559</ele>
        <time>2018-03-14T14:49:48Z</time>
      </trkpt>
      <trkpt lat="46.1011" lon="6.45474">
        <ele>1559</ele>
        <time>2018-03-14T14:50:01Z</time>
      </trkpt>
      <trkpt lat="46.10108" lon="6.45479">
        <ele>1559</ele>
        <time>2018-03-14T14:50:07Z</time>
      </trkpt>
      <trkpt lat="46.10106" lon="6.45493">
        <ele>1559</ele>
        <time>2018-03-14T14:50:22Z</time>
      </trkpt>
      <trkpt lat="46.10108" lon="6.45503">
        <ele>1567</ele>
        <time>2018-03-14T14:50:39Z</time>
      </trkpt>
      <trkpt lat="46.10114" lon="6.45501">
        <ele>1569</ele>
        <time>2018-03-14T14:50:49Z</time>
      </trkpt>
      <trkpt lat="46.10118" lon="6.45501">
        <ele>1571</ele>
        <time>2018-03-14T14:50:53Z</time>
      </trkpt>
      <trkpt lat="46.10133" lon="6.45499">
        <ele>1567</ele>
        <time>2018-03-14T14:51:12Z</time>
      </trkpt>
      <trkpt lat="46.10134" lon="6.45499">
        <ele>1567</ele>
        <time>2018-03-14T14:51:14Z</time>
      </trkpt>
      <trkpt lat="46.10136" lon="6.45499">
        <ele>1568</ele>
        <time>2018-03-14T14:51:16Z</time>
      </trkpt>
      <trkpt lat="46.10137" lon="6.45498">
        <ele>1568</ele>
        <time>2018-03-14T14:51:18Z</time>
      </trkpt>
      <trkpt lat="46.10138" lon="6.45498">
        <ele>1569</ele>
        <time>2018-03-14T14:51:20Z</time>
      </trkpt>
      <trkpt lat="46.10146" lon="6.45493">
        <ele>1572</ele>
        <time>2018-03-14T14:51:34Z</time>
      </trkpt>
      <trkpt lat="46.10148" lon="6.45493">
        <ele>1572</ele>
        <time>2018-03-14T14:51:36Z</time>
      </trkpt>
      <trkpt lat="46.10149" lon="6.45491">
        <ele>1573</ele>
        <time>2018-03-14T14:51:38Z</time>
      </trkpt>
      <trkpt lat="46.10155" lon="6.45489">
        <ele>1575</ele>
        <time>2018-03-14T14:51:47Z</time>
      </trkpt>
      <trkpt lat="46.10159" lon="6.45488">
        <ele>1576</ele>
        <time>2018-03-14T14:51:53Z</time>
      </trkpt>
      <trkpt lat="46.10163" lon="6.45486">
        <ele>1576</ele>
        <time>2018-03-14T14:51:59Z</time>
      </trkpt>
      <trkpt lat="46.10164" lon="6.45486">
        <ele>1576</ele>
        <time>2018-03-14T14:52:01Z</time>
      </trkpt>
      <trkpt lat="46.10172" lon="6.45481">
        <ele>1589</ele>
        <time>2018-03-14T14:52:12Z</time>
      </trkpt>
      <trkpt lat="46.10177" lon="6.45478">
        <ele>1589</ele>
        <time>2018-03-14T14:52:20Z</time>
      </trkpt>
      <trkpt lat="46.10181" lon="6.45478">
        <ele>1589</ele>
        <time>2018-03-14T14:52:26Z</time>
      </trkpt>
      <trkpt lat="46.1018" lon="6.45484">
        <ele>1590</ele>
        <time>2018-03-14T14:52:33Z</time>
      </trkpt>
      <trkpt lat="46.10179" lon="6.45485">
        <ele>1590</ele>
        <time>2018-03-14T14:52:35Z</time>
      </trkpt>
      <trkpt lat="46.10179" lon="6.45487">
        <ele>1590</ele>
        <time>2018-03-14T14:52:37Z</time>
      </trkpt>
      <trkpt lat="46.10177" lon="6.45498">
        <ele>1590</ele>
        <time>2018-03-14T14:52:52Z</time>
      </trkpt>
      <trkpt lat="46.10175" lon="6.4551">
        <ele>1600</ele>
        <time>2018-03-14T14:53:09Z</time>
      </trkpt>
      <trkpt lat="46.10174" lon="6.45521">
        <ele>1606</ele>
        <time>2018-03-14T14:53:23Z</time>
      </trkpt>
      <trkpt lat="46.10174" lon="6.45536">
        <ele>1611</ele>
        <time>2018-03-14T14:53:40Z</time>
      </trkpt>
      <trkpt lat="46.10173" lon="6.4555">
        <ele>1613</ele>
        <time>2018-03-14T14:53:55Z</time>
      </trkpt>
      <trkpt lat="46.10172" lon="6.4556">
        <ele>1614</ele>
        <time>2018-03-14T14:54:09Z</time>
      </trkpt>
      <trkpt lat="46.10179" lon="6.45552">
        <ele>1614</ele>
        <time>2018-03-14T14:54:25Z</time>
      </trkpt>
      <trkpt lat="46.10186" lon="6.45548">
        <ele>1615</ele>
        <time>2018-03-14T14:54:38Z</time>
      </trkpt>
      <trkpt lat="46.10187" lon="6.45547">
        <ele>1615</ele>
        <time>2018-03-14T14:54:40Z</time>
      </trkpt>
      <trkpt lat="46.1019" lon="6.45545">
        <ele>1615</ele>
        <time>2018-03-14T14:54:44Z</time>
      </trkpt>
      <trkpt lat="46.10196" lon="6.45542">
        <ele>1616</ele>
        <time>2018-03-14T14:54:54Z</time>
      </trkpt>
      <trkpt lat="46.10198" lon="6.4554">
        <ele>1616</ele>
        <time>2018-03-14T14:54:58Z</time>
      </trkpt>
      <trkpt lat="46.102" lon="6.4554">
        <ele>1617</ele>
        <time>2018-03-14T14:55:00Z</time>
      </trkpt>
      <trkpt lat="46.10202" lon="6.45538">
        <ele>1617</ele>
        <time>2018-03-14T14:55:04Z</time>
      </trkpt>
      <trkpt lat="46.10203" lon="6.45537">
        <ele>1617</ele>
        <time>2018-03-14T14:55:06Z</time>
      </trkpt>
      <trkpt lat="46.10211" lon="6.45531">
        <ele>1618</ele>
        <time>2018-03-14T14:55:20Z</time>
      </trkpt>
      <trkpt lat="46.1022" lon="6.45524">
        <ele>1619</ele>
        <time>2018-03-14T14:55:35Z</time>
      </trkpt>
      <trkpt lat="46.10221" lon="6.45524">
        <ele>1619</ele>
        <time>2018-03-14T14:55:37Z</time>
      </trkpt>
      <trkpt lat="46.10224" lon="6.45522">
        <ele>1620</ele>
        <time>2018-03-14T14:55:41Z</time>
      </trkpt>
      <trkpt lat="46.10226" lon="6.45531">
        <ele>1621</ele>
        <time>2018-03-14T14:55:59Z</time>
      </trkpt>
      <trkpt lat="46.10227" lon="6.45546">
        <ele>1624</ele>
        <time>2018-03-14T14:56:16Z</time>
      </trkpt>
      <trkpt lat="46.10227" lon="6.45557">
        <ele>1627</ele>
        <time>2018-03-14T14:56:28Z</time>
      </trkpt>
      <trkpt lat="46.10226" lon="6.45568">
        <ele>1630</ele>
        <time>2018-03-14T14:56:42Z</time>
      </trkpt>
      <trkpt lat="46.10226" lon="6.4557">
        <ele>1630</ele>
        <time>2018-03-14T14:56:43Z</time>
      </trkpt>
      <trkpt lat="46.10224" lon="6.45583">
        <ele>1631</ele>
        <time>2018-03-14T14:57:01Z</time>
      </trkpt>
      <trkpt lat="46.10222" lon="6.45592">
        <ele>1644</ele>
        <time>2018-03-14T14:57:16Z</time>
      </trkpt>
      <trkpt lat="46.10221" lon="6.45607">
        <ele>1644</ele>
        <time>2018-03-14T14:57:33Z</time>
      </trkpt>
      <trkpt lat="46.10221" lon="6.45619">
        <ele>1645</ele>
        <time>2018-03-14T14:57:49Z</time>
      </trkpt>
      <trkpt lat="46.10223" lon="6.45622">
        <ele>1646</ele>
        <time>2018-03-14T14:58:05Z</time>
      </trkpt>
      <trkpt lat="46.1023" lon="6.45618">
        <ele>1647</ele>
        <time>2018-03-14T14:58:22Z</time>
      </trkpt>
      <trkpt lat="46.10237" lon="6.45613">
        <ele>1648</ele>
        <time>2018-03-14T14:58:38Z</time>
      </trkpt>
      <trkpt lat="46.10238" lon="6.45613">
        <ele>1648</ele>
        <time>2018-03-14T14:58:39Z</time>
      </trkpt>
      <trkpt lat="46.10248" lon="6.45607">
        <ele>1649</ele>
        <time>2018-03-14T14:58:56Z</time>
      </trkpt>
      <trkpt lat="46.10258" lon="6.45599">
        <ele>1669</ele>
        <time>2018-03-14T14:59:15Z</time>
      </trkpt>
      <trkpt lat="46.10262" lon="6.45596">
        <ele>1669</ele>
        <time>2018-03-14T14:59:22Z</time>
      </trkpt>
      <trkpt lat="46.10271" lon="6.45593">
        <ele>1672</ele>
        <time>2018-03-14T14:59:38Z</time>
      </trkpt>
      <trkpt lat="46.1028" lon="6.45588">
        <ele>1675</ele>
        <time>2018-03-14T14:59:55Z</time>
      </trkpt>
      <trkpt lat="46.10284" lon="6.45586">
        <ele>1676</ele>
        <time>2018-03-14T15:00:01Z</time>
      </trkpt>
      <trkpt lat="46.1029" lon="6.45591">
        <ele>1679</ele>
        <time>2018-03-14T15:00:23Z</time>
      </trkpt>
      <trkpt lat="46.10289" lon="6.45602">
        <ele>1680</ele>
        <time>2018-03-14T15:00:37Z</time>
      </trkpt>
      <trkpt lat="46.10288" lon="6.45613">
        <ele>1681</ele>
        <time>2018-03-14T15:00:53Z</time>
      </trkpt>
      <trkpt lat="46.10286" lon="6.45623">
        <ele>1683</ele>
        <time>2018-03-14T15:01:08Z</time>
      </trkpt>
      <trkpt lat="46.10285" lon="6.45634">
        <ele>1685</ele>
        <time>2018-03-14T15:01:24Z</time>
      </trkpt>
      <trkpt lat="46.10285" lon="6.45648">
        <ele>1686</ele>
        <time>2018-03-14T15:01:42Z</time>
      </trkpt>
      <trkpt lat="46.10284" lon="6.4566">
        <ele>1687</ele>
        <time>2018-03-14T15:01:58Z</time>
      </trkpt>
      <trkpt lat="46.10283" lon="6.45665">
        <ele>1687</ele>
        <time>2018-03-14T15:02:05Z</time>
      </trkpt>
      <trkpt lat="46.10281" lon="6.45678">
        <ele>1703</ele>
        <time>2018-03-14T15:02:22Z</time>
      </trkpt>
      <trkpt lat="46.10286" lon="6.45673">
        <ele>1704</ele>
        <time>2018-03-14T15:02:39Z</time>
      </trkpt>
      <trkpt lat="46.10295" lon="6.45667">
        <ele>1707</ele>
        <time>2018-03-14T15:02:57Z</time>
      </trkpt>
      <trkpt lat="46.10303" lon="6.45663">
        <ele>1694</ele>
        <time>2018-03-14T15:03:13Z</time>
      </trkpt>
      <trkpt lat="46.10312" lon="6.4566">
        <ele>1698</ele>
        <time>2018-03-14T15:03:30Z</time>
      </trkpt>
      <trkpt lat="46.10317" lon="6.45659">
        <ele>1700</ele>
        <time>2018-03-14T15:03:39Z</time>
      </trkpt>
      <trkpt lat="46.10326" lon="6.45656">
        <ele>1704</ele>
        <time>2018-03-14T15:03:56Z</time>
      </trkpt>
      <trkpt lat="46.10334" lon="6.45654">
        <ele>1718</ele>
        <time>2018-03-14T15:04:14Z</time>
      </trkpt>
      <trkpt lat="46.1034" lon="6.45658">
        <ele>1718</ele>
        <time>2018-03-14T15:04:37Z</time>
      </trkpt>
      <trkpt lat="46.10338" lon="6.45668">
        <ele>1723</ele>
        <time>2018-03-14T15:04:50Z</time>
      </trkpt>
      <trkpt lat="46.10335" lon="6.45679">
        <ele>1730</ele>
        <time>2018-03-14T15:05:06Z</time>
      </trkpt>
      <trkpt lat="46.10334" lon="6.45688">
        <ele>1736</ele>
        <time>2018-03-14T15:05:21Z</time>
      </trkpt>
      <trkpt lat="46.10332" lon="6.45697">
        <ele>1716</ele>
        <time>2018-03-14T15:05:36Z</time>
      </trkpt>
      <trkpt lat="46.10332" lon="6.45711">
        <ele>1719</ele>
        <time>2018-03-14T15:05:54Z</time>
      </trkpt>
      <trkpt lat="46.1033" lon="6.45722">
        <ele>1722</ele>
        <time>2018-03-14T15:06:10Z</time>
      </trkpt>
      <trkpt lat="46.10329" lon="6.45734">
        <ele>1728</ele>
        <time>2018-03-14T15:06:28Z</time>
      </trkpt>
      <trkpt lat="46.10329" lon="6.45746">
        <ele>1738</ele>
        <time>2018-03-14T15:06:46Z</time>
      </trkpt>
      <trkpt lat="46.10329" lon="6.45755">
        <ele>1742</ele>
        <time>2018-03-14T15:06:59Z</time>
      </trkpt>
      <trkpt lat="46.10334" lon="6.4575">
        <ele>1746</ele>
        <time>2018-03-14T15:07:19Z</time>
      </trkpt>
      <trkpt lat="46.10336" lon="6.45745">
        <ele>1747</ele>
        <time>2018-03-14T15:07:32Z</time>
      </trkpt>
      <trkpt lat="46.10337" lon="6.45746">
        <ele>1747</ele>
        <time>2018-03-14T15:07:34Z</time>
      </trkpt>
      <trkpt lat="46.10338" lon="6.45745">
        <ele>1747</ele>
        <time>2018-03-14T15:07:36Z</time>
      </trkpt>
      <trkpt lat="46.10344" lon="6.45742">
        <ele>1748</ele>
        <time>2018-03-14T15:07:49Z</time>
      </trkpt>
      <trkpt lat="46.10352" lon="6.45738">
        <ele>1750</ele>
        <time>2018-03-14T15:08:05Z</time>
      </trkpt>
      <trkpt lat="46.10356" lon="6.45736">
        <ele>1751</ele>
        <time>2018-03-14T15:08:13Z</time>
      </trkpt>
      <trkpt lat="46.10359" lon="6.45734">
        <ele>1751</ele>
        <time>2018-03-14T15:08:19Z</time>
      </trkpt>
      <trkpt lat="46.10363" lon="6.45734">
        <ele>1752</ele>
        <time>2018-03-14T15:08:25Z</time>
      </trkpt>
      <trkpt lat="46.1037" lon="6.45733">
        <ele>1754</ele>
        <time>2018-03-14T15:08:44Z</time>
      </trkpt>
      <trkpt lat="46.1037" lon="6.45733">
        <ele>1754</ele>
        <time>2018-03-14T15:08:49Z</time>
      </trkpt>
      <trkpt lat="46.10369" lon="6.45732">
        <ele>1754</ele>
        <time>2018-03-14T15:08:52Z</time>
      </trkpt>
      <trkpt lat="46.10369" lon="6.45732">
        <ele>1754</ele>
        <time>2018-03-14T15:08:57Z</time>
      </trkpt>
      <trkpt lat="46.1037" lon="6.45732">
        <ele>1754</ele>
        <time>2018-03-14T15:09:04Z</time>
      </trkpt>
      <trkpt lat="46.1037" lon="6.45732">
        <ele>1754</ele>
        <time>2018-03-14T15:09:05Z</time>
      </trkpt>
      <trkpt lat="46.1037" lon="6.45733">
        <ele>1754</ele>
        <time>2018-03-14T15:09:09Z</time>
      </trkpt>
      <trkpt lat="46.1037" lon="6.45733">
        <ele>1754</ele>
        <time>2018-03-14T15:09:14Z</time>
      </trkpt>
      <trkpt lat="46.1037" lon="6.45733">
        <ele>1754</ele>
        <time>2018-03-14T15:09:17Z</time>
      </trkpt>
      <trkpt lat="46.1037" lon="6.45733">
        <ele>1754</ele>
        <time>2018-03-14T15:09:28Z</time>
      </trkpt>
      <trkpt lat="46.10373" lon="6.45731">
        <ele>1755</ele>
        <time>2018-03-14T15:09:35Z</time>
      </trkpt>
      <trkpt lat="46.10374" lon="6.4573">
        <ele>1755</ele>
        <time>2018-03-14T15:09:38Z</time>
      </trkpt>
      <trkpt lat="46.10376" lon="6.45728">
        <ele>1755</ele>
        <time>2018-03-14T15:09:42Z</time>
      </trkpt>
      <trkpt lat="46.10382" lon="6.45726">
        <ele>1757</ele>
        <time>2018-03-14T15:09:52Z</time>
      </trkpt>
      <trkpt lat="46.10385" lon="6.45725">
        <ele>1757</ele>
        <time>2018-03-14T15:09:56Z</time>
      </trkpt>
      <trkpt lat="46.10387" lon="6.45723">
        <ele>1758</ele>
        <time>2018-03-14T15:10:01Z</time>
      </trkpt>
      <trkpt lat="46.1039" lon="6.45722">
        <ele>1758</ele>
        <time>2018-03-14T15:10:06Z</time>
      </trkpt>
      <trkpt lat="46.10396" lon="6.45721">
        <ele>1759</ele>
        <time>2018-03-14T15:10:17Z</time>
      </trkpt>
      <trkpt lat="46.10397" lon="6.45721">
        <ele>1760</ele>
        <time>2018-03-14T15:10:20Z</time>
      </trkpt>
      <trkpt lat="46.10405" lon="6.45718">
        <ele>1760</ele>
        <time>2018-03-14T15:10:35Z</time>
      </trkpt>
      <trkpt lat="46.10403" lon="6.45728">
        <ele>1764</ele>
        <time>2018-03-14T15:10:50Z</time>
      </trkpt>
      <trkpt lat="46.10401" lon="6.45735">
        <ele>1766</ele>
        <time>2018-03-14T15:11:01Z</time>
      </trkpt>
      <trkpt lat="46.104" lon="6.45747">
        <ele>1769</ele>
        <time>2018-03-14T15:11:18Z</time>
      </trkpt>
      <trkpt lat="46.104" lon="6.45758">
        <ele>1780</ele>
        <time>2018-03-14T15:11:33Z</time>
      </trkpt>
      <trkpt lat="46.10398" lon="6.45769">
        <ele>1780</ele>
        <time>2018-03-14T15:11:51Z</time>
      </trkpt>
      <trkpt lat="46.10397" lon="6.45782">
        <ele>1780</ele>
        <time>2018-03-14T15:12:08Z</time>
      </trkpt>
      <trkpt lat="46.10397" lon="6.45792">
        <ele>1780</ele>
        <time>2018-03-14T15:12:24Z</time>
      </trkpt>
      <trkpt lat="46.10398" lon="6.45793">
        <ele>1781</ele>
        <time>2018-03-14T15:12:41Z</time>
      </trkpt>
      <trkpt lat="46.10407" lon="6.45787">
        <ele>1782</ele>
        <time>2018-03-14T15:13:00Z</time>
      </trkpt>
      <trkpt lat="46.10415" lon="6.45783">
        <ele>1782</ele>
        <time>2018-03-14T15:13:17Z</time>
      </trkpt>
      <trkpt lat="46.10423" lon="6.45781">
        <ele>1802</ele>
        <time>2018-03-14T15:13:32Z</time>
      </trkpt>
      <trkpt lat="46.10429" lon="6.4578">
        <ele>1803</ele>
        <time>2018-03-14T15:13:42Z</time>
      </trkpt>
      <trkpt lat="46.10439" lon="6.45777">
        <ele>1804</ele>
        <time>2018-03-14T15:14:00Z</time>
      </trkpt>
      <trkpt lat="46.10448" lon="6.45778">
        <ele>1805</ele>
        <time>2018-03-14T15:14:16Z</time>
      </trkpt>
      <trkpt lat="46.10459" lon="6.45778">
        <ele>1808</ele>
        <time>2018-03-14T15:14:35Z</time>
      </trkpt>
      <trkpt lat="46.10455" lon="6.45787">
        <ele>1808</ele>
        <time>2018-03-14T15:14:50Z</time>
      </trkpt>
      <trkpt lat="46.10453" lon="6.45798">
        <ele>1808</ele>
        <time>2018-03-14T15:15:08Z</time>
      </trkpt>
      <trkpt lat="46.10452" lon="6.45809">
        <ele>1808</ele>
        <time>2018-03-14T15:15:24Z</time>
      </trkpt>
      <trkpt lat="46.1045" lon="6.45815">
        <ele>1808</ele>
        <time>2018-03-14T15:15:36Z</time>
      </trkpt>
      <trkpt lat="46.10454" lon="6.45816">
        <ele>1809</ele>
        <time>2018-03-14T15:15:50Z</time>
      </trkpt>
      <trkpt lat="46.10454" lon="6.45816">
        <ele>1809</ele>
        <time>2018-03-14T15:16:02Z</time>
      </trkpt>
      <trkpt lat="46.10454" lon="6.45816">
        <ele>1809</ele>
        <time>2018-03-14T15:16:05Z</time>
      </trkpt>
      <trkpt lat="46.10456" lon="6.45816">
        <ele>1809</ele>
        <time>2018-03-14T15:16:08Z</time>
      </trkpt>
      <trkpt lat="46.1046" lon="6.45814">
        <ele>1809</ele>
        <time>2018-03-14T15:16:15Z</time>
      </trkpt>
      <trkpt lat="46.10468" lon="6.45812">
        <ele>1810</ele>
        <time>2018-03-14T15:16:28Z</time>
      </trkpt>
      <trkpt lat="46.10471" lon="6.45821">
        <ele>1811</ele>
        <time>2018-03-14T15:16:47Z</time>
      </trkpt>
      <trkpt lat="46.10476" lon="6.45822">
        <ele>1812</ele>
        <time>2018-03-14T15:16:59Z</time>
      </trkpt>
      <trkpt lat="46.10479" lon="6.45821">
        <ele>1813</ele>
        <time>2018-03-14T15:17:04Z</time>
      </trkpt>
      <trkpt lat="46.10483" lon="6.45818">
        <ele>1813</ele>
        <time>2018-03-14T15:17:10Z</time>
      </trkpt>
      <trkpt lat="46.10488" lon="6.45814">
        <ele>1813</ele>
        <time>2018-03-14T15:17:18Z</time>
      </trkpt>
      <trkpt lat="46.10488" lon="6.45814">
        <ele>1813</ele>
        <time>2018-03-14T15:17:19Z</time>
      </trkpt>
      <trkpt lat="46.10489" lon="6.45813">
        <ele>1813</ele>
        <time>2018-03-14T15:17:20Z</time>
      </trkpt>
      <trkpt lat="46.10499" lon="6.45808">
        <ele>1814</ele>
        <time>2018-03-14T15:17:33Z</time>
      </trkpt>
      <trkpt lat="46.10502" lon="6.45807">
        <ele>1819</ele>
        <time>2018-03-14T15:17:37Z</time>
      </trkpt>
      <trkpt lat="46.10504" lon="6.45806">
        <ele>1819</ele>
        <time>2018-03-14T15:17:39Z</time>
      </trkpt>
      <trkpt lat="46.10513" lon="6.45801">
        <ele>1819</ele>
        <time>2018-03-14T15:17:51Z</time>
      </trkpt>
      <trkpt lat="46.10522" lon="6.45795">
        <ele>1820</ele>
        <time>2018-03-14T15:18:02Z</time>
      </trkpt>
      <trkpt lat="46.10523" lon="6.45794">
        <ele>1820</ele>
        <time>2018-03-14T15:18:03Z</time>
      </trkpt>
      <trkpt lat="46.10535" lon="6.45787">
        <ele>1820</ele>
        <time>2018-03-14T15:18:20Z</time>
      </trkpt>
      <trkpt lat="46.10542" lon="6.45783">
        <ele>1820</ele>
        <time>2018-03-14T15:18:29Z</time>
      </trkpt>
      <trkpt lat="46.10552" lon="6.45778">
        <ele>1821</ele>
        <time>2018-03-14T15:18:47Z</time>
      </trkpt>
      <trkpt lat="46.10559" lon="6.45773">
        <ele>1822</ele>
        <time>2018-03-14T15:19:02Z</time>
      </trkpt>
      <trkpt lat="46.10567" lon="6.45767">
        <ele>1824</ele>
        <time>2018-03-14T15:19:18Z</time>
      </trkpt>
      <trkpt lat="46.10574" lon="6.45762">
        <ele>1826</ele>
        <time>2018-03-14T15:19:32Z</time>
      </trkpt>
      <trkpt lat="46.10578" lon="6.45763">
        <ele>1827</ele>
        <time>2018-03-14T15:19:43Z</time>
      </trkpt>
      <trkpt lat="46.10578" lon="6.45761">
        <ele>1827</ele>
        <time>2018-03-14T15:19:59Z</time>
      </trkpt>
      <trkpt lat="46.10578" lon="6.45761">
        <ele>1827</ele>
        <time>2018-03-14T15:20:04Z</time>
      </trkpt>
      <trkpt lat="46.10578" lon="6.45762">
        <ele>1827</ele>
        <time>2018-03-14T15:20:08Z</time>
      </trkpt>
      <trkpt lat="46.10578" lon="6.45762">
        <ele>1827</ele>
        <time>2018-03-14T15:20:13Z</time>
      </trkpt>
      <trkpt lat="46.10577" lon="6.45762">
        <ele>1827</ele>
        <time>2018-03-14T15:20:17Z</time>
      </trkpt>
      <trkpt lat="46.10577" lon="6.45762">
        <ele>1827</ele>
        <time>2018-03-14T15:20:19Z</time>
      </trkpt>
      <trkpt lat="46.10576" lon="6.45762">
        <ele>1827</ele>
        <time>2018-03-14T15:20:21Z</time>
      </trkpt>
      <trkpt lat="46.10577" lon="6.45761">
        <ele>1827</ele>
        <time>2018-03-14T15:20:26Z</time>
      </trkpt>
      <trkpt lat="46.10577" lon="6.45761">
        <ele>1827</ele>
        <time>2018-03-14T15:20:30Z</time>
      </trkpt>
      <trkpt lat="46.10578" lon="6.45761">
        <ele>1827</ele>
        <time>2018-03-14T15:20:53Z</time>
      </trkpt>
      <trkpt lat="46.10579" lon="6.45761">
        <ele>1827</ele>
        <time>2018-03-14T15:21:03Z</time>
      </trkpt>
      <trkpt lat="46.10579" lon="6.45761">
        <ele>1827</ele>
        <time>2018-03-14T15:21:16Z</time>
      </trkpt>
      <trkpt lat="46.10579" lon="6.45761">
        <ele>1827</ele>
        <time>2018-03-14T15:21:20Z</time>
      </trkpt>
      <trkpt lat="46.10579" lon="6.45762">
        <ele>1827</ele>
        <time>2018-03-14T15:21:31Z</time>
      </trkpt>
      <trkpt lat="46.10579" lon="6.45763">
        <ele>1827</ele>
        <time>2018-03-14T15:21:43Z</time>
      </trkpt>
      <trkpt lat="46.10579" lon="6.4576">
        <ele>1828</ele>
        <time>2018-03-14T15:21:56Z</time>
      </trkpt>
      <trkpt lat="46.10579" lon="6.4576">
        <ele>1828</ele>
        <time>2018-03-14T15:22:01Z</time>
      </trkpt>
      <trkpt lat="46.10579" lon="6.4576">
        <ele>1828</ele>
        <time>2018-03-14T15:22:05Z</time>
      </trkpt>
      <trkpt lat="46.10579" lon="6.45761">
        <ele>1828</ele>
        <time>2018-03-14T15:22:15Z</time>
      </trkpt>
      <trkpt lat="46.10579" lon="6.45761">
        <ele>1827</ele>
        <time>2018-03-14T15:22:18Z</time>
      </trkpt>
      <trkpt lat="46.10581" lon="6.45762">
        <ele>1827</ele>
        <time>2018-03-14T15:22:38Z</time>
      </trkpt>
      <trkpt lat="46.10581" lon="6.45762">
        <ele>1827</ele>
        <time>2018-03-14T15:22:41Z</time>
      </trkpt>
      <trkpt lat="46.10581" lon="6.45762">
        <ele>1827</ele>
        <time>2018-03-14T15:22:45Z</time>
      </trkpt>
      <trkpt lat="46.1058" lon="6.45762">
        <ele>1827</ele>
        <time>2018-03-14T15:23:00Z</time>
      </trkpt>
      <trkpt lat="46.10579" lon="6.45761">
        <ele>1828</ele>
        <time>2018-03-14T15:23:52Z</time>
      </trkpt>
      <trkpt lat="46.10579" lon="6.4576">
        <ele>1828</ele>
        <time>2018-03-14T15:23:55Z</time>
      </trkpt>
      <trkpt lat="46.1058" lon="6.45761">
        <ele>1828</ele>
        <time>2018-03-14T15:24:09Z</time>
      </trkpt>
      <trkpt lat="46.1058" lon="6.45761">
        <ele>1828</ele>
        <time>2018-03-14T15:24:12Z</time>
      </trkpt>
      <trkpt lat="46.10579" lon="6.45761">
        <ele>1828</ele>
        <time>2018-03-14T15:24:30Z</time>
      </trkpt>
      <trkpt lat="46.10579" lon="6.45761">
        <ele>1828</ele>
        <time>2018-03-14T15:24:39Z</time>
      </trkpt>
      <trkpt lat="46.10578" lon="6.4576">
        <ele>1828</ele>
        <time>2018-03-14T15:24:44Z</time>
      </trkpt>
      <trkpt lat="46.10578" lon="6.4576">
        <ele>1828</ele>
        <time>2018-03-14T15:24:59Z</time>
      </trkpt>
      <trkpt lat="46.10578" lon="6.45759">
        <ele>1828</ele>
        <time>2018-03-14T15:25:14Z</time>
      </trkpt>
      <trkpt lat="46.10577" lon="6.45757">
        <ele>1828</ele>
        <time>2018-03-14T15:25:18Z</time>
      </trkpt>
      <trkpt lat="46.10575" lon="6.45757">
        <ele>1828</ele>
        <time>2018-03-14T15:25:19Z</time>
      </trkpt>
      <trkpt lat="46.10573" lon="6.45758">
        <ele>1827</ele>
        <time>2018-03-14T15:25:20Z</time>
      </trkpt>
      <trkpt lat="46.10567" lon="6.45763">
        <ele>1825</ele>
        <time>2018-03-14T15:25:23Z</time>
      </trkpt>
      <trkpt lat="46.10565" lon="6.45762">
        <ele>1825</ele>
        <time>2018-03-14T15:25:24Z</time>
      </trkpt>
      <trkpt lat="46.10562" lon="6.45762">
        <ele>1824</ele>
        <time>2018-03-14T15:25:25Z</time>
      </trkpt>
      <trkpt lat="46.10559" lon="6.45763">
        <ele>1824</ele>
        <time>2018-03-14T15:25:26Z</time>
      </trkpt>
      <trkpt lat="46.10556" lon="6.45765">
        <ele>1823</ele>
        <time>2018-03-14T15:25:27Z</time>
      </trkpt>
      <trkpt lat="46.10553" lon="6.45768">
        <ele>1822</ele>
        <time>2018-03-14T15:25:28Z</time>
      </trkpt>
      <trkpt lat="46.1055" lon="6.45769">
        <ele>1822</ele>
        <time>2018-03-14T15:25:29Z</time>
      </trkpt>
      <trkpt lat="46.10546" lon="6.45769">
        <ele>1822</ele>
        <time>2018-03-14T15:25:30Z</time>
      </trkpt>
      <trkpt lat="46.10543" lon="6.45771">
        <ele>1821</ele>
        <time>2018-03-14T15:25:31Z</time>
      </trkpt>
      <trkpt lat="46.1054" lon="6.45773">
        <ele>1821</ele>
        <time>2018-03-14T15:25:32Z</time>
      </trkpt>
      <trkpt lat="46.10537" lon="6.45772">
        <ele>1821</ele>
        <time>2018-03-14T15:25:33Z</time>
      </trkpt>
      <trkpt lat="46.10535" lon="6.45768">
        <ele>1821</ele>
        <time>2018-03-14T15:25:34Z</time>
      </trkpt>
      <trkpt lat="46.10532" lon="6.45764">
        <ele>1821</ele>
        <time>2018-03-14T15:25:35Z</time>
      </trkpt>
      <trkpt lat="46.10531" lon="6.45759">
        <ele>1822</ele>
        <time>2018-03-14T15:25:36Z</time>
      </trkpt>
      <trkpt lat="46.10532" lon="6.45754">
        <ele>1822</ele>
        <time>2018-03-14T15:25:37Z</time>
      </trkpt>
      <trkpt lat="46.10534" lon="6.4575">
        <ele>1822</ele>
        <time>2018-03-14T15:25:38Z</time>
      </trkpt>
      <trkpt lat="46.10537" lon="6.45748">
        <ele>1823</ele>
        <time>2018-03-14T15:25:51Z</time>
      </trkpt>
      <trkpt lat="46.10537" lon="6.45745">
        <ele>1823</ele>
        <time>2018-03-14T15:25:52Z</time>
      </trkpt>
      <trkpt lat="46.10538" lon="6.45743">
        <ele>1823</ele>
        <time>2018-03-14T15:25:53Z</time>
      </trkpt>
      <trkpt lat="46.10539" lon="6.4574">
        <ele>1822</ele>
        <time>2018-03-14T15:25:54Z</time>
      </trkpt>
      <trkpt lat="46.10539" lon="6.45738">
        <ele>1822</ele>
        <time>2018-03-14T15:25:55Z</time>
      </trkpt>
      <trkpt lat="46.1054" lon="6.45736">
        <ele>1822</ele>
        <time>2018-03-14T15:25:56Z</time>
      </trkpt>
      <trkpt lat="46.1054" lon="6.45734">
        <ele>1822</ele>
        <time>2018-03-14T15:26:03Z</time>
      </trkpt>
      <trkpt lat="46.1054" lon="6.45731">
        <ele>1822</ele>
        <time>2018-03-14T15:26:08Z</time>
      </trkpt>
      <trkpt lat="46.10539" lon="6.45726">
        <ele>1822</ele>
        <time>2018-03-14T15:26:09Z</time>
      </trkpt>
      <trkpt lat="46.10535" lon="6.45725">
        <ele>1821</ele>
        <time>2018-03-14T15:26:10Z</time>
      </trkpt>
      <trkpt lat="46.10532" lon="6.45721">
        <ele>1820</ele>
        <time>2018-03-14T15:26:11Z</time>
      </trkpt>
      <trkpt lat="46.10528" lon="6.45715">
        <ele>1819</ele>
        <time>2018-03-14T15:26:12Z</time>
      </trkpt>
      <trkpt lat="46.10524" lon="6.45712">
        <ele>1819</ele>
        <time>2018-03-14T15:26:13Z</time>
      </trkpt>
      <trkpt lat="46.10519" lon="6.45711">
        <ele>1818</ele>
        <time>2018-03-14T15:26:14Z</time>
      </trkpt>
      <trkpt lat="46.10515" lon="6.45707">
        <ele>1817</ele>
        <time>2018-03-14T15:26:15Z</time>
      </trkpt>
      <trkpt lat="46.1051" lon="6.45701">
        <ele>1815</ele>
        <time>2018-03-14T15:26:16Z</time>
      </trkpt>
      <trkpt lat="46.10504" lon="6.45699">
        <ele>1814</ele>
        <time>2018-03-14T15:26:17Z</time>
      </trkpt>
      <trkpt lat="46.10499" lon="6.45699">
        <ele>1795</ele>
        <time>2018-03-14T15:26:18Z</time>
      </trkpt>
      <trkpt lat="46.10495" lon="6.45697">
        <ele>1794</ele>
        <time>2018-03-14T15:26:19Z</time>
      </trkpt>
      <trkpt lat="46.1049" lon="6.45693">
        <ele>1793</ele>
        <time>2018-03-14T15:26:20Z</time>
      </trkpt>
      <trkpt lat="46.10484" lon="6.4569">
        <ele>1792</ele>
        <time>2018-03-14T15:26:21Z</time>
      </trkpt>
      <trkpt lat="46.10478" lon="6.45688">
        <ele>1791</ele>
        <time>2018-03-14T15:26:22Z</time>
      </trkpt>
      <trkpt lat="46.10472" lon="6.45686">
        <ele>1790</ele>
        <time>2018-03-14T15:26:23Z</time>
      </trkpt>
      <trkpt lat="46.10465" lon="6.45683">
        <ele>1788</ele>
        <time>2018-03-14T15:26:24Z</time>
      </trkpt>
      <trkpt lat="46.1046" lon="6.4568">
        <ele>1786</ele>
        <time>2018-03-14T15:26:25Z</time>
      </trkpt>
      <trkpt lat="46.10455" lon="6.45675">
        <ele>1784</ele>
        <time>2018-03-14T15:26:26Z</time>
      </trkpt>
      <trkpt lat="46.1045" lon="6.45672">
        <ele>1782</ele>
        <time>2018-03-14T15:26:27Z</time>
      </trkpt>
      <trkpt lat="46.10444" lon="6.45667">
        <ele>1779</ele>
        <time>2018-03-14T15:26:28Z</time>
      </trkpt>
      <trkpt lat="46.10439" lon="6.45661">
        <ele>1761</ele>
        <time>2018-03-14T15:26:29Z</time>
      </trkpt>
      <trkpt lat="46.10432" lon="6.45656">
        <ele>1760</ele>
        <time>2018-03-14T15:26:30Z</time>
      </trkpt>
      <trkpt lat="46.10425" lon="6.45655">
        <ele>1758</ele>
        <time>2018-03-14T15:26:31Z</time>
      </trkpt>
      <trkpt lat="46.1042" lon="6.45652">
        <ele>1758</ele>
        <time>2018-03-14T15:26:32Z</time>
      </trkpt>
      <trkpt lat="46.10417" lon="6.45646">
        <ele>1737</ele>
        <time>2018-03-14T15:26:33Z</time>
      </trkpt>
      <trkpt lat="46.10413" lon="6.45642">
        <ele>1734</ele>
        <time>2018-03-14T15:26:34Z</time>
      </trkpt>
      <trkpt lat="46.10408" lon="6.45638">
        <ele>1731</ele>
        <time>2018-03-14T15:26:35Z</time>
      </trkpt>
      <trkpt lat="46.10405" lon="6.45631">
        <ele>1728</ele>
        <time>2018-03-14T15:26:36Z</time>
      </trkpt>
      <trkpt lat="46.10401" lon="6.45622">
        <ele>1725</ele>
        <time>2018-03-14T15:26:37Z</time>
      </trkpt>
      <trkpt lat="46.10396" lon="6.45619">
        <ele>1724</ele>
        <time>2018-03-14T15:26:38Z</time>
      </trkpt>
      <trkpt lat="46.10391" lon="6.45615">
        <ele>1722</ele>
        <time>2018-03-14T15:26:39Z</time>
      </trkpt>
      <trkpt lat="46.10387" lon="6.45608">
        <ele>1720</ele>
        <time>2018-03-14T15:26:40Z</time>
      </trkpt>
      <trkpt lat="46.10381" lon="6.45603">
        <ele>1718</ele>
        <time>2018-03-14T15:26:41Z</time>
      </trkpt>
      <trkpt lat="46.10374" lon="6.45602">
        <ele>1716</ele>
        <time>2018-03-14T15:26:42Z</time>
      </trkpt>
      <trkpt lat="46.10369" lon="6.45601">
        <ele>1714</ele>
        <time>2018-03-14T15:26:43Z</time>
      </trkpt>
      <trkpt lat="46.10365" lon="6.45595">
        <ele>1712</ele>
        <time>2018-03-14T15:26:44Z</time>
      </trkpt>
      <trkpt lat="46.1036" lon="6.45587">
        <ele>1708</ele>
        <time>2018-03-14T15:26:45Z</time>
      </trkpt>
      <trkpt lat="46.10354" lon="6.45581">
        <ele>1690</ele>
        <time>2018-03-14T15:26:46Z</time>
      </trkpt>
      <trkpt lat="46.10347" lon="6.45583">
        <ele>1688</ele>
        <time>2018-03-14T15:26:47Z</time>
      </trkpt>
      <trkpt lat="46.10341" lon="6.45581">
        <ele>1687</ele>
        <time>2018-03-14T15:26:48Z</time>
      </trkpt>
      <trkpt lat="46.10338" lon="6.45575">
        <ele>1687</ele>
        <time>2018-03-14T15:26:49Z</time>
      </trkpt>
      <trkpt lat="46.10337" lon="6.45567">
        <ele>1687</ele>
        <time>2018-03-14T15:26:50Z</time>
      </trkpt>
      <trkpt lat="46.10334" lon="6.4556">
        <ele>1687</ele>
        <time>2018-03-14T15:26:51Z</time>
      </trkpt>
      <trkpt lat="46.10328" lon="6.45558">
        <ele>1666</ele>
        <time>2018-03-14T15:26:52Z</time>
      </trkpt>
      <trkpt lat="46.10323" lon="6.45556">
        <ele>1664</ele>
        <time>2018-03-14T15:26:53Z</time>
      </trkpt>
      <trkpt lat="46.10318" lon="6.45549">
        <ele>1661</ele>
        <time>2018-03-14T15:26:54Z</time>
      </trkpt>
      <trkpt lat="46.10313" lon="6.45542">
        <ele>1658</ele>
        <time>2018-03-14T15:26:55Z</time>
      </trkpt>
      <trkpt lat="46.10307" lon="6.45539">
        <ele>1657</ele>
        <time>2018-03-14T15:26:56Z</time>
      </trkpt>
      <trkpt lat="46.10302" lon="6.45537">
        <ele>1656</ele>
        <time>2018-03-14T15:26:57Z</time>
      </trkpt>
      <trkpt lat="46.10298" lon="6.45533">
        <ele>1654</ele>
        <time>2018-03-14T15:26:58Z</time>
      </trkpt>
      <trkpt lat="46.10289" lon="6.45519">
        <ele>1650</ele>
        <time>2018-03-14T15:27:00Z</time>
      </trkpt>
      <trkpt lat="46.10283" lon="6.45517">
        <ele>1648</ele>
        <time>2018-03-14T15:27:01Z</time>
      </trkpt>
      <trkpt lat="46.10279" lon="6.45512">
        <ele>1646</ele>
        <time>2018-03-14T15:27:02Z</time>
      </trkpt>
      <trkpt lat="46.10278" lon="6.45506">
        <ele>1645</ele>
        <time>2018-03-14T15:27:03Z</time>
      </trkpt>
      <trkpt lat="46.10274" lon="6.455">
        <ele>1643</ele>
        <time>2018-03-14T15:27:04Z</time>
      </trkpt>
      <trkpt lat="46.10269" lon="6.45499">
        <ele>1627</ele>
        <time>2018-03-14T15:27:05Z</time>
      </trkpt>
      <trkpt lat="46.10264" lon="6.45498">
        <ele>1626</ele>
        <time>2018-03-14T15:27:06Z</time>
      </trkpt>
      <trkpt lat="46.10259" lon="6.45494">
        <ele>1625</ele>
        <time>2018-03-14T15:27:07Z</time>
      </trkpt>
      <trkpt lat="46.10254" lon="6.4549">
        <ele>1625</ele>
        <time>2018-03-14T15:27:08Z</time>
      </trkpt>
      <trkpt lat="46.1025" lon="6.4549">
        <ele>1614</ele>
        <time>2018-03-14T15:27:09Z</time>
      </trkpt>
      <trkpt lat="46.10247" lon="6.45492">
        <ele>1615</ele>
        <time>2018-03-14T15:27:10Z</time>
      </trkpt>
      <trkpt lat="46.10244" lon="6.45495">
        <ele>1615</ele>
        <time>2018-03-14T15:27:11Z</time>
      </trkpt>
      <trkpt lat="46.10236" lon="6.45506">
        <ele>1621</ele>
        <time>2018-03-14T15:27:17Z</time>
      </trkpt>
      <trkpt lat="46.10237" lon="6.45506">
        <ele>1622</ele>
        <time>2018-03-14T15:27:23Z</time>
      </trkpt>
      <trkpt lat="46.10238" lon="6.45506">
        <ele>1622</ele>
        <time>2018-03-14T15:27:27Z</time>
      </trkpt>
      <trkpt lat="46.10237" lon="6.45508">
        <ele>1622</ele>
        <time>2018-03-14T15:27:31Z</time>
      </trkpt>
      <trkpt lat="46.10234" lon="6.45508">
        <ele>1621</ele>
        <time>2018-03-14T15:27:33Z</time>
      </trkpt>
      <trkpt lat="46.10231" lon="6.45508">
        <ele>1620</ele>
        <time>2018-03-14T15:27:34Z</time>
      </trkpt>
      <trkpt lat="46.10228" lon="6.45504">
        <ele>1620</ele>
        <time>2018-03-14T15:27:35Z</time>
      </trkpt>
      <trkpt lat="46.10225" lon="6.455">
        <ele>1604</ele>
        <time>2018-03-14T15:27:36Z</time>
      </trkpt>
      <trkpt lat="46.10221" lon="6.45499">
        <ele>1602</ele>
        <time>2018-03-14T15:27:37Z</time>
      </trkpt>
      <trkpt lat="46.10217" lon="6.45496">
        <ele>1600</ele>
        <time>2018-03-14T15:27:38Z</time>
      </trkpt>
      <trkpt lat="46.10214" lon="6.4549">
        <ele>1598</ele>
        <time>2018-03-14T15:27:39Z</time>
      </trkpt>
      <trkpt lat="46.1021" lon="6.45486">
        <ele>1596</ele>
        <time>2018-03-14T15:27:40Z</time>
      </trkpt>
      <trkpt lat="46.10205" lon="6.45482">
        <ele>1594</ele>
        <time>2018-03-14T15:27:41Z</time>
      </trkpt>
      <trkpt lat="46.102" lon="6.4548">
        <ele>1593</ele>
        <time>2018-03-14T15:27:42Z</time>
      </trkpt>
      <trkpt lat="46.10196" lon="6.45479">
        <ele>1592</ele>
        <time>2018-03-14T15:27:43Z</time>
      </trkpt>
      <trkpt lat="46.10192" lon="6.45475">
        <ele>1591</ele>
        <time>2018-03-14T15:27:44Z</time>
      </trkpt>
      <trkpt lat="46.10187" lon="6.45472">
        <ele>1590</ele>
        <time>2018-03-14T15:27:45Z</time>
      </trkpt>
      <trkpt lat="46.10182" lon="6.45468">
        <ele>1588</ele>
        <time>2018-03-14T15:27:46Z</time>
      </trkpt>
      <trkpt lat="46.10178" lon="6.45462">
        <ele>1587</ele>
        <time>2018-03-14T15:27:47Z</time>
      </trkpt>
      <trkpt lat="46.10173" lon="6.45458">
        <ele>1585</ele>
        <time>2018-03-14T15:27:48Z</time>
      </trkpt>
      <trkpt lat="46.10168" lon="6.45454">
        <ele>1584</ele>
        <time>2018-03-14T15:27:49Z</time>
      </trkpt>
      <trkpt lat="46.10166" lon="6.45447">
        <ele>1563</ele>
        <time>2018-03-14T15:27:50Z</time>
      </trkpt>
      <trkpt lat="46.10164" lon="6.4544">
        <ele>1562</ele>
        <time>2018-03-14T15:27:51Z</time>
      </trkpt>
      <trkpt lat="46.10161" lon="6.45435">
        <ele>1561</ele>
        <time>2018-03-14T15:27:52Z</time>
      </trkpt>
      <trkpt lat="46.10157" lon="6.4543">
        <ele>1561</ele>
        <time>2018-03-14T15:27:53Z</time>
      </trkpt>
      <trkpt lat="46.10154" lon="6.45423">
        <ele>1560</ele>
        <time>2018-03-14T15:27:54Z</time>
      </trkpt>
      <trkpt lat="46.1015" lon="6.4542">
        <ele>1560</ele>
        <time>2018-03-14T15:27:55Z</time>
      </trkpt>
      <trkpt lat="46.10146" lon="6.45416">
        <ele>1549</ele>
        <time>2018-03-14T15:27:56Z</time>
      </trkpt>
      <trkpt lat="46.10145" lon="6.4541">
        <ele>1548</ele>
        <time>2018-03-14T15:27:57Z</time>
      </trkpt>
      <trkpt lat="46.10141" lon="6.45404">
        <ele>1546</ele>
        <time>2018-03-14T15:27:58Z</time>
      </trkpt>
      <trkpt lat="46.10135" lon="6.45402">
        <ele>1544</ele>
        <time>2018-03-14T15:27:59Z</time>
      </trkpt>
      <trkpt lat="46.1013" lon="6.454">
        <ele>1543</ele>
        <time>2018-03-14T15:28:00Z</time>
      </trkpt>
      <trkpt lat="46.10126" lon="6.45393">
        <ele>1542</ele>
        <time>2018-03-14T15:28:01Z</time>
      </trkpt>
      <trkpt lat="46.10121" lon="6.45387">
        <ele>1541</ele>
        <time>2018-03-14T15:28:02Z</time>
      </trkpt>
      <trkpt lat="46.10117" lon="6.4538">
        <ele>1539</ele>
        <time>2018-03-14T15:28:03Z</time>
      </trkpt>
      <trkpt lat="46.10114" lon="6.45371">
        <ele>1538</ele>
        <time>2018-03-14T15:28:04Z</time>
      </trkpt>
      <trkpt lat="46.1011" lon="6.45363">
        <ele>1536</ele>
        <time>2018-03-14T15:28:05Z</time>
      </trkpt>
      <trkpt lat="46.10105" lon="6.45356">
        <ele>1534</ele>
        <time>2018-03-14T15:28:06Z</time>
      </trkpt>
      <trkpt lat="46.10101" lon="6.45349">
        <ele>1532</ele>
        <time>2018-03-14T15:28:07Z</time>
      </trkpt>
      <trkpt lat="46.101" lon="6.45342">
        <ele>1530</ele>
        <time>2018-03-14T15:28:08Z</time>
      </trkpt>
      <trkpt lat="46.101" lon="6.45334">
        <ele>1529</ele>
        <time>2018-03-14T15:28:09Z</time>
      </trkpt>
      <trkpt lat="46.10097" lon="6.45327">
        <ele>1519</ele>
        <time>2018-03-14T15:28:10Z</time>
      </trkpt>
      <trkpt lat="46.10095" lon="6.45319">
        <ele>1519</ele>
        <time>2018-03-14T15:28:11Z</time>
      </trkpt>
      <trkpt lat="46.10094" lon="6.45312">
        <ele>1518</ele>
        <time>2018-03-14T15:28:12Z</time>
      </trkpt>
      <trkpt lat="46.10093" lon="6.45303">
        <ele>1516</ele>
        <time>2018-03-14T15:28:13Z</time>
      </trkpt>
      <trkpt lat="46.10093" lon="6.45296">
        <ele>1515</ele>
        <time>2018-03-14T15:28:14Z</time>
      </trkpt>
      <trkpt lat="46.10093" lon="6.45288">
        <ele>1514</ele>
        <time>2018-03-14T15:28:15Z</time>
      </trkpt>
      <trkpt lat="46.10091" lon="6.45282">
        <ele>1512</ele>
        <time>2018-03-14T15:28:16Z</time>
      </trkpt>
      <trkpt lat="46.10089" lon="6.45278">
        <ele>1511</ele>
        <time>2018-03-14T15:28:17Z</time>
      </trkpt>
      <trkpt lat="46.10087" lon="6.45273">
        <ele>1509</ele>
        <time>2018-03-14T15:28:18Z</time>
      </trkpt>
      <trkpt lat="46.10088" lon="6.45269">
        <ele>1508</ele>
        <time>2018-03-14T15:28:19Z</time>
      </trkpt>
      <trkpt lat="46.10089" lon="6.45264">
        <ele>1506</ele>
        <time>2018-03-14T15:28:20Z</time>
      </trkpt>
      <trkpt lat="46.10088" lon="6.45261">
        <ele>1505</ele>
        <time>2018-03-14T15:28:21Z</time>
      </trkpt>
      <trkpt lat="46.10087" lon="6.4526">
        <ele>1504</ele>
        <time>2018-03-14T15:28:22Z</time>
      </trkpt>
      <trkpt lat="46.10086" lon="6.45259">
        <ele>1504</ele>
        <time>2018-03-14T15:28:25Z</time>
      </trkpt>
      <trkpt lat="46.10086" lon="6.4526">
        <ele>1504</ele>
        <time>2018-03-14T15:28:31Z</time>
      </trkpt>
      <trkpt lat="46.10086" lon="6.45261">
        <ele>1505</ele>
        <time>2018-03-14T15:28:37Z</time>
      </trkpt>
      <trkpt lat="46.10086" lon="6.45258">
        <ele>1503</ele>
        <time>2018-03-14T15:28:40Z</time>
      </trkpt>
      <trkpt lat="46.10086" lon="6.45254">
        <ele>1501</ele>
        <time>2018-03-14T15:28:41Z</time>
      </trkpt>
      <trkpt lat="46.10088" lon="6.45251">
        <ele>1501</ele>
        <time>2018-03-14T15:28:42Z</time>
      </trkpt>
      <trkpt lat="46.10089" lon="6.45247">
        <ele>1497</ele>
        <time>2018-03-14T15:28:43Z</time>
      </trkpt>
      <trkpt lat="46.10087" lon="6.45244">
        <ele>1497</ele>
        <time>2018-03-14T15:28:44Z</time>
      </trkpt>
      <trkpt lat="46.10085" lon="6.4524">
        <ele>1497</ele>
        <time>2018-03-14T15:28:45Z</time>
      </trkpt>
      <trkpt lat="46.10084" lon="6.45236">
        <ele>1496</ele>
        <time>2018-03-14T15:28:46Z</time>
      </trkpt>
      <trkpt lat="46.10085" lon="6.45233">
        <ele>1496</ele>
        <time>2018-03-14T15:28:47Z</time>
      </trkpt>
      <trkpt lat="46.10085" lon="6.45229">
        <ele>1495</ele>
        <time>2018-03-14T15:28:48Z</time>
      </trkpt>
      <trkpt lat="46.10082" lon="6.45225">
        <ele>1495</ele>
        <time>2018-03-14T15:28:49Z</time>
      </trkpt>
      <trkpt lat="46.1008" lon="6.4522">
        <ele>1494</ele>
        <time>2018-03-14T15:28:50Z</time>
      </trkpt>
      <trkpt lat="46.1008" lon="6.45216">
        <ele>1493</ele>
        <time>2018-03-14T15:28:51Z</time>
      </trkpt>
      <trkpt lat="46.1008" lon="6.45212">
        <ele>1493</ele>
        <time>2018-03-14T15:28:52Z</time>
      </trkpt>
      <trkpt lat="46.1008" lon="6.45208">
        <ele>1492</ele>
        <time>2018-03-14T15:28:53Z</time>
      </trkpt>
      <trkpt lat="46.10079" lon="6.45204">
        <ele>1491</ele>
        <time>2018-03-14T15:28:54Z</time>
      </trkpt>
      <trkpt lat="46.10078" lon="6.45201">
        <ele>1490</ele>
        <time>2018-03-14T15:28:55Z</time>
      </trkpt>
      <trkpt lat="46.10078" lon="6.45198">
        <ele>1489</ele>
        <time>2018-03-14T15:28:56Z</time>
      </trkpt>
      <trkpt lat="46.10081" lon="6.45197">
        <ele>1489</ele>
        <time>2018-03-14T15:28:57Z</time>
      </trkpt>
      <trkpt lat="46.10084" lon="6.45197">
        <ele>1489</ele>
        <time>2018-03-14T15:28:58Z</time>
      </trkpt>
      <trkpt lat="46.10087" lon="6.45199">
        <ele>1489</ele>
        <time>2018-03-14T15:28:59Z</time>
      </trkpt>
      <trkpt lat="46.10093" lon="6.45202">
        <ele>1491</ele>
        <time>2018-03-14T15:29:01Z</time>
      </trkpt>
      <trkpt lat="46.10096" lon="6.45204">
        <ele>1491</ele>
        <time>2018-03-14T15:29:02Z</time>
      </trkpt>
      <trkpt lat="46.10099" lon="6.45204">
        <ele>1492</ele>
        <time>2018-03-14T15:29:03Z</time>
      </trkpt>
      <trkpt lat="46.10102" lon="6.45203">
        <ele>1492</ele>
        <time>2018-03-14T15:29:04Z</time>
      </trkpt>
      <trkpt lat="46.10102" lon="6.45201">
        <ele>1491</ele>
        <time>2018-03-14T15:29:07Z</time>
      </trkpt>
      <trkpt lat="46.10102" lon="6.45199">
        <ele>1491</ele>
        <time>2018-03-14T15:29:08Z</time>
      </trkpt>
      <trkpt lat="46.101" lon="6.45197">
        <ele>1490</ele>
        <time>2018-03-14T15:29:09Z</time>
      </trkpt>
      <trkpt lat="46.101" lon="6.45194">
        <ele>1490</ele>
        <time>2018-03-14T15:29:11Z</time>
      </trkpt>
      <trkpt lat="46.10099" lon="6.45193">
        <ele>1489</ele>
        <time>2018-03-14T15:29:12Z</time>
      </trkpt>
      <trkpt lat="46.10096" lon="6.4519">
        <ele>1488</ele>
        <time>2018-03-14T15:29:13Z</time>
      </trkpt>
      <trkpt lat="46.10086" lon="6.45168">
        <ele>1476</ele>
        <time>2018-03-14T15:29:18Z</time>
      </trkpt>
      <trkpt lat="46.10084" lon="6.45163">
        <ele>1473</ele>
        <time>2018-03-14T15:29:19Z</time>
      </trkpt>
      <trkpt lat="46.10082" lon="6.45158">
        <ele>1472</ele>
        <time>2018-03-14T15:29:20Z</time>
      </trkpt>
      <trkpt lat="46.1008" lon="6.45155">
        <ele>1472</ele>
        <time>2018-03-14T15:29:21Z</time>
      </trkpt>
      <trkpt lat="46.10078" lon="6.45152">
        <ele>1471</ele>
        <time>2018-03-14T15:29:22Z</time>
      </trkpt>
      <trkpt lat="46.10077" lon="6.45149">
        <ele>1471</ele>
        <time>2018-03-14T15:29:23Z</time>
      </trkpt>
      <trkpt lat="46.10075" lon="6.45146">
        <ele>1471</ele>
        <time>2018-03-14T15:29:24Z</time>
      </trkpt>
      <trkpt lat="46.10074" lon="6.45143">
        <ele>1470</ele>
        <time>2018-03-14T15:29:25Z</time>
      </trkpt>
      <trkpt lat="46.10073" lon="6.45141">
        <ele>1470</ele>
        <time>2018-03-14T15:29:26Z</time>
      </trkpt>
      <trkpt lat="46.10072" lon="6.45139">
        <ele>1470</ele>
        <time>2018-03-14T15:29:27Z</time>
      </trkpt>
      <trkpt lat="46.10071" lon="6.45137">
        <ele>1469</ele>
        <time>2018-03-14T15:29:34Z</time>
      </trkpt>
      <trkpt lat="46.1007" lon="6.45137">
        <ele>1469</ele>
        <time>2018-03-14T15:29:40Z</time>
      </trkpt>
      <trkpt lat="46.10067" lon="6.45134">
        <ele>1469</ele>
        <time>2018-03-14T15:29:45Z</time>
      </trkpt>
      <trkpt lat="46.10067" lon="6.45133">
        <ele>1469</ele>
        <time>2018-03-14T15:29:46Z</time>
      </trkpt>
      <trkpt lat="46.10066" lon="6.45132">
        <ele>1469</ele>
        <time>2018-03-14T15:29:47Z</time>
      </trkpt>
      <trkpt lat="46.10066" lon="6.45133">
        <ele>1469</ele>
        <time>2018-03-14T15:29:48Z</time>
      </trkpt>
      <trkpt lat="46.10066" lon="6.45128">
        <ele>1468</ele>
        <time>2018-03-14T15:29:56Z</time>
      </trkpt>
      <trkpt lat="46.10067" lon="6.45125">
        <ele>1468</ele>
        <time>2018-03-14T15:29:57Z</time>
      </trkpt>
      <trkpt lat="46.10068" lon="6.45123">
        <ele>1467</ele>
        <time>2018-03-14T15:29:58Z</time>
      </trkpt>
      <trkpt lat="46.1007" lon="6.4512">
        <ele>1467</ele>
        <time>2018-03-14T15:29:59Z</time>
      </trkpt>
      <trkpt lat="46.1007" lon="6.45116">
        <ele>1466</ele>
        <time>2018-03-14T15:30:00Z</time>
      </trkpt>
      <trkpt lat="46.10068" lon="6.45109">
        <ele>1464</ele>
        <time>2018-03-14T15:30:01Z</time>
      </trkpt>
      <trkpt lat="46.10066" lon="6.45102">
        <ele>1463</ele>
        <time>2018-03-14T15:30:02Z</time>
      </trkpt>
      <trkpt lat="46.10064" lon="6.45095">
        <ele>1462</ele>
        <time>2018-03-14T15:30:03Z</time>
      </trkpt>
      <trkpt lat="46.10062" lon="6.45082">
        <ele>1448</ele>
        <time>2018-03-14T15:30:05Z</time>
      </trkpt>
      <trkpt lat="46.10065" lon="6.45077">
        <ele>1448</ele>
        <time>2018-03-14T15:30:06Z</time>
      </trkpt>
      <trkpt lat="46.10067" lon="6.45074">
        <ele>1448</ele>
        <time>2018-03-14T15:30:07Z</time>
      </trkpt>
      <trkpt lat="46.10068" lon="6.45071">
        <ele>1448</ele>
        <time>2018-03-14T15:30:08Z</time>
      </trkpt>
      <trkpt lat="46.10067" lon="6.45068">
        <ele>1448</ele>
        <time>2018-03-14T15:30:09Z</time>
      </trkpt>
      <trkpt lat="46.10066" lon="6.45065">
        <ele>1447</ele>
        <time>2018-03-14T15:30:10Z</time>
      </trkpt>
      <trkpt lat="46.10066" lon="6.45063">
        <ele>1447</ele>
        <time>2018-03-14T15:30:11Z</time>
      </trkpt>
      <trkpt lat="46.10068" lon="6.45055">
        <ele>1446</ele>
        <time>2018-03-14T15:30:16Z</time>
      </trkpt>
      <trkpt lat="46.10069" lon="6.45052">
        <ele>1445</ele>
        <time>2018-03-14T15:30:18Z</time>
      </trkpt>
      <trkpt lat="46.1007" lon="6.4505">
        <ele>1445</ele>
        <time>2018-03-14T15:30:19Z</time>
      </trkpt>
      <trkpt lat="46.10072" lon="6.45049">
        <ele>1445</ele>
        <time>2018-03-14T15:30:20Z</time>
      </trkpt>
      <trkpt lat="46.10073" lon="6.45048">
        <ele>1445</ele>
        <time>2018-03-14T15:30:21Z</time>
      </trkpt>
      <trkpt lat="46.10074" lon="6.45046">
        <ele>1444</ele>
        <time>2018-03-14T15:30:22Z</time>
      </trkpt>
      <trkpt lat="46.10074" lon="6.45045">
        <ele>1444</ele>
        <time>2018-03-14T15:30:23Z</time>
      </trkpt>
      <trkpt lat="46.10073" lon="6.45043">
        <ele>1444</ele>
        <time>2018-03-14T15:30:24Z</time>
      </trkpt>
      <trkpt lat="46.10073" lon="6.45042">
        <ele>1444</ele>
        <time>2018-03-14T15:30:25Z</time>
      </trkpt>
      <trkpt lat="46.10074" lon="6.4504">
        <ele>1443</ele>
        <time>2018-03-14T15:30:26Z</time>
      </trkpt>
      <trkpt lat="46.10074" lon="6.45039">
        <ele>1443</ele>
        <time>2018-03-14T15:30:27Z</time>
      </trkpt>
      <trkpt lat="46.10075" lon="6.45038">
        <ele>1443</ele>
        <time>2018-03-14T15:30:31Z</time>
      </trkpt>
      <trkpt lat="46.10073" lon="6.45035">
        <ele>1443</ele>
        <time>2018-03-14T15:30:39Z</time>
      </trkpt>
      <trkpt lat="46.10073" lon="6.45033">
        <ele>1442</ele>
        <time>2018-03-14T15:30:40Z</time>
      </trkpt>
      <trkpt lat="46.10072" lon="6.4503">
        <ele>1442</ele>
        <time>2018-03-14T15:30:41Z</time>
      </trkpt>
      <trkpt lat="46.10071" lon="6.45028">
        <ele>1441</ele>
        <time>2018-03-14T15:30:42Z</time>
      </trkpt>
      <trkpt lat="46.10071" lon="6.45025">
        <ele>1441</ele>
        <time>2018-03-14T15:30:43Z</time>
      </trkpt>
      <trkpt lat="46.1007" lon="6.45022">
        <ele>1440</ele>
        <time>2018-03-14T15:30:44Z</time>
      </trkpt>
      <trkpt lat="46.10069" lon="6.45019">
        <ele>1440</ele>
        <time>2018-03-14T15:30:45Z</time>
      </trkpt>
      <trkpt lat="46.10068" lon="6.45017">
        <ele>1439</ele>
        <time>2018-03-14T15:30:47Z</time>
      </trkpt>
      <trkpt lat="46.10067" lon="6.45015">
        <ele>1439</ele>
        <time>2018-03-14T15:30:48Z</time>
      </trkpt>
      <trkpt lat="46.10066" lon="6.45014">
        <ele>1439</ele>
        <time>2018-03-14T15:30:50Z</time>
      </trkpt>
      <trkpt lat="46.10064" lon="6.45007">
        <ele>1439</ele>
        <time>2018-03-14T15:30:55Z</time>
      </trkpt>
      <trkpt lat="46.10069" lon="6.45001">
        <ele>1437</ele>
        <time>2018-03-14T15:30:58Z</time>
      </trkpt>
      <trkpt lat="46.10072" lon="6.45003">
        <ele>1436</ele>
        <time>2018-03-14T15:30:59Z</time>
      </trkpt>
      <trkpt lat="46.10081" lon="6.45004">
        <ele>1434</ele>
        <time>2018-03-14T15:31:01Z</time>
      </trkpt>
      <trkpt lat="46.10085" lon="6.45002">
        <ele>1435</ele>
        <time>2018-03-14T15:31:02Z</time>
      </trkpt>
      <trkpt lat="46.10088" lon="6.44999">
        <ele>1434</ele>
        <time>2018-03-14T15:31:03Z</time>
      </trkpt>
      <trkpt lat="46.1009" lon="6.44997">
        <ele>1435</ele>
        <time>2018-03-14T15:31:04Z</time>
      </trkpt>
      <trkpt lat="46.1009" lon="6.44994">
        <ele>1436</ele>
        <time>2018-03-14T15:31:05Z</time>
      </trkpt>
      <trkpt lat="46.10084" lon="6.44959">
        <ele>1438</ele>
        <time>2018-03-14T15:31:19Z</time>
      </trkpt>
      <trkpt lat="46.10084" lon="6.44955">
        <ele>1438</ele>
        <time>2018-03-14T15:31:20Z</time>
      </trkpt>
      <trkpt lat="46.10084" lon="6.4495">
        <ele>1437</ele>
        <time>2018-03-14T15:31:21Z</time>
      </trkpt>
      <trkpt lat="46.10084" lon="6.44946">
        <ele>1436</ele>
        <time>2018-03-14T15:31:22Z</time>
      </trkpt>
      <trkpt lat="46.10084" lon="6.44943">
        <ele>1435</ele>
        <time>2018-03-14T15:31:23Z</time>
      </trkpt>
      <trkpt lat="46.10084" lon="6.44941">
        <ele>1435</ele>
        <time>2018-03-14T15:31:24Z</time>
      </trkpt>
      <trkpt lat="46.10084" lon="6.44938">
        <ele>1434</ele>
        <time>2018-03-14T15:31:25Z</time>
      </trkpt>
      <trkpt lat="46.10082" lon="6.44912">
        <ele>1417</ele>
        <time>2018-03-14T15:31:31Z</time>
      </trkpt>
      <trkpt lat="46.10081" lon="6.44882">
        <ele>1412</ele>
        <time>2018-03-14T15:31:36Z</time>
      </trkpt>
      <trkpt lat="46.10081" lon="6.44864">
        <ele>1410</ele>
        <time>2018-03-14T15:31:39Z</time>
      </trkpt>
      <trkpt lat="46.10078" lon="6.44835">
        <ele>1409</ele>
        <time>2018-03-14T15:31:43Z</time>
      </trkpt>
      <trkpt lat="46.10077" lon="6.44829">
        <ele>1404</ele>
        <time>2018-03-14T15:31:44Z</time>
      </trkpt>
      <trkpt lat="46.10076" lon="6.44822">
        <ele>1401</ele>
        <time>2018-03-14T15:31:45Z</time>
      </trkpt>
      <trkpt lat="46.10076" lon="6.44815">
        <ele>1398</ele>
        <time>2018-03-14T15:31:46Z</time>
      </trkpt>
      <trkpt lat="46.10076" lon="6.4481">
        <ele>1396</ele>
        <time>2018-03-14T15:31:47Z</time>
      </trkpt>
      <trkpt lat="46.10076" lon="6.44804">
        <ele>1395</ele>
        <time>2018-03-14T15:31:48Z</time>
      </trkpt>
      <trkpt lat="46.10077" lon="6.44798">
        <ele>1393</ele>
        <time>2018-03-14T15:31:49Z</time>
      </trkpt>
      <trkpt lat="46.10077" lon="6.44775">
        <ele>1389</ele>
        <time>2018-03-14T15:31:53Z</time>
      </trkpt>
      <trkpt lat="46.10077" lon="6.44768">
        <ele>1389</ele>
        <time>2018-03-14T15:31:54Z</time>
      </trkpt>
      <trkpt lat="46.10077" lon="6.44762">
        <ele>1388</ele>
        <time>2018-03-14T15:31:55Z</time>
      </trkpt>
      <trkpt lat="46.10078" lon="6.44756">
        <ele>1388</ele>
        <time>2018-03-14T15:31:56Z</time>
      </trkpt>
      <trkpt lat="46.1008" lon="6.44752">
        <ele>1388</ele>
        <time>2018-03-14T15:31:57Z</time>
      </trkpt>
      <trkpt lat="46.10081" lon="6.4475">
        <ele>1388</ele>
        <time>2018-03-14T15:31:58Z</time>
      </trkpt>
      <trkpt lat="46.10083" lon="6.44748">
        <ele>1386</ele>
        <time>2018-03-14T15:32:00Z</time>
      </trkpt>
      <trkpt lat="46.10084" lon="6.44746">
        <ele>1392</ele>
        <time>2018-03-14T15:32:01Z</time>
      </trkpt>
      <trkpt lat="46.10084" lon="6.44744">
        <ele>1394</ele>
        <time>2018-03-14T15:32:02Z</time>
      </trkpt>
      <trkpt lat="46.10086" lon="6.44741">
        <ele>1396</ele>
        <time>2018-03-14T15:32:03Z</time>
      </trkpt>
      <trkpt lat="46.10087" lon="6.44739">
        <ele>1397</ele>
        <time>2018-03-14T15:32:04Z</time>
      </trkpt>
      <trkpt lat="46.10088" lon="6.44737">
        <ele>1398</ele>
        <time>2018-03-14T15:32:05Z</time>
      </trkpt>
      <trkpt lat="46.10089" lon="6.44735">
        <ele>1400</ele>
        <time>2018-03-14T15:32:06Z</time>
      </trkpt>
      <trkpt lat="46.1009" lon="6.44731">
        <ele>1401</ele>
        <time>2018-03-14T15:32:07Z</time>
      </trkpt>
      <trkpt lat="46.10091" lon="6.44727">
        <ele>1403</ele>
        <time>2018-03-14T15:32:08Z</time>
      </trkpt>
      <trkpt lat="46.10092" lon="6.44723">
        <ele>1404</ele>
        <time>2018-03-14T15:32:09Z</time>
      </trkpt>
      <trkpt lat="46.10091" lon="6.44719">
        <ele>1404</ele>
        <time>2018-03-14T15:32:10Z</time>
      </trkpt>
      <trkpt lat="46.10091" lon="6.44716">
        <ele>1404</ele>
        <time>2018-03-14T15:32:11Z</time>
      </trkpt>
      <trkpt lat="46.10089" lon="6.44702">
        <ele>1403</ele>
        <time>2018-03-14T15:32:16Z</time>
      </trkpt>
      <trkpt lat="46.10088" lon="6.447">
        <ele>1402</ele>
        <time>2018-03-14T15:32:17Z</time>
      </trkpt>
      <trkpt lat="46.10088" lon="6.44698">
        <ele>1402</ele>
        <time>2018-03-14T15:32:18Z</time>
      </trkpt>
      <trkpt lat="46.10087" lon="6.44697">
        <ele>1401</ele>
        <time>2018-03-14T15:32:19Z</time>
      </trkpt>
      <trkpt lat="46.10087" lon="6.44695">
        <ele>1401</ele>
        <time>2018-03-14T15:32:20Z</time>
      </trkpt>
      <trkpt lat="46.10087" lon="6.44693">
        <ele>1400</ele>
        <time>2018-03-14T15:32:21Z</time>
      </trkpt>
      <trkpt lat="46.10087" lon="6.4469">
        <ele>1399</ele>
        <time>2018-03-14T15:32:22Z</time>
      </trkpt>
      <trkpt lat="46.10087" lon="6.44687">
        <ele>1398</ele>
        <time>2018-03-14T15:32:23Z</time>
      </trkpt>
      <trkpt lat="46.10087" lon="6.44685">
        <ele>1396</ele>
        <time>2018-03-14T15:32:24Z</time>
      </trkpt>
      <trkpt lat="46.10088" lon="6.4468">
        <ele>1393</ele>
        <time>2018-03-14T15:32:28Z</time>
      </trkpt>
      <trkpt lat="46.10087" lon="6.44676">
        <ele>1391</ele>
        <time>2018-03-14T15:32:29Z</time>
      </trkpt>
      <trkpt lat="46.10088" lon="6.44673">
        <ele>1388</ele>
        <time>2018-03-14T15:32:30Z</time>
      </trkpt>
      <trkpt lat="46.10087" lon="6.44669">
        <ele>1385</ele>
        <time>2018-03-14T15:32:31Z</time>
      </trkpt>
      <trkpt lat="46.10087" lon="6.44665">
        <ele>1383</ele>
        <time>2018-03-14T15:32:32Z</time>
      </trkpt>
      <trkpt lat="46.10087" lon="6.44661">
        <ele>1386</ele>
        <time>2018-03-14T15:32:33Z</time>
      </trkpt>
      <trkpt lat="46.10087" lon="6.44656">
        <ele>1389</ele>
        <time>2018-03-14T15:32:34Z</time>
      </trkpt>
      <trkpt lat="46.10087" lon="6.44652">
        <ele>1391</ele>
        <time>2018-03-14T15:32:35Z</time>
      </trkpt>
      <trkpt lat="46.10087" lon="6.44647">
        <ele>1393</ele>
        <time>2018-03-14T15:32:36Z</time>
      </trkpt>
      <trkpt lat="46.10086" lon="6.44628">
        <ele>1395</ele>
        <time>2018-03-14T15:32:41Z</time>
      </trkpt>
      <trkpt lat="46.10086" lon="6.44624">
        <ele>1395</ele>
        <time>2018-03-14T15:32:42Z</time>
      </trkpt>
      <trkpt lat="46.10082" lon="6.44601">
        <ele>1362</ele>
        <time>2018-03-14T15:32:47Z</time>
      </trkpt>
      <trkpt lat="46.10077" lon="6.4457">
        <ele>1358</ele>
        <time>2018-03-14T15:32:53Z</time>
      </trkpt>
      <trkpt lat="46.10073" lon="6.44545">
        <ele>1348</ele>
        <time>2018-03-14T15:32:58Z</time>
      </trkpt>
      <trkpt lat="46.10069" lon="6.44515">
        <ele>1350</ele>
        <time>2018-03-14T15:33:04Z</time>
      </trkpt>
      <trkpt lat="46.10066" lon="6.44488">
        <ele>1345</ele>
        <time>2018-03-14T15:33:09Z</time>
      </trkpt>
      <trkpt lat="46.10063" lon="6.44453">
        <ele>1337</ele>
        <time>2018-03-14T15:33:17Z</time>
      </trkpt>
      <trkpt lat="46.10062" lon="6.44432">
        <ele>1339</ele>
        <time>2018-03-14T15:33:21Z</time>
      </trkpt>
      <trkpt lat="46.10064" lon="6.44398">
        <ele>1335</ele>
        <time>2018-03-14T15:33:28Z</time>
      </trkpt>
      <trkpt lat="46.10065" lon="6.44372">
        <ele>1332</ele>
        <time>2018-03-14T15:33:33Z</time>
      </trkpt>
      <trkpt lat="46.10063" lon="6.44352">
        <ele>1333</ele>
        <time>2018-03-14T15:33:41Z</time>
      </trkpt>
      <trkpt lat="46.10063" lon="6.44348">
        <ele>1333</ele>
        <time>2018-03-14T15:33:52Z</time>
      </trkpt>
      <trkpt lat="46.10063" lon="6.44346">
        <ele>1334</ele>
        <time>2018-03-14T15:33:53Z</time>
      </trkpt>
      <trkpt lat="46.10063" lon="6.44344">
        <ele>1334</ele>
        <time>2018-03-14T15:33:54Z</time>
      </trkpt>
      <trkpt lat="46.10063" lon="6.4433">
        <ele>1332</ele>
        <time>2018-03-14T15:34:01Z</time>
      </trkpt>
      <trkpt lat="46.10062" lon="6.44326">
        <ele>1332</ele>
        <time>2018-03-14T15:34:04Z</time>
      </trkpt>
      <trkpt lat="46.10064" lon="6.44321">
        <ele>1331</ele>
        <time>2018-03-14T15:34:16Z</time>
      </trkpt>
      <trkpt lat="46.10064" lon="6.44318">
        <ele>1331</ele>
        <time>2018-03-14T15:34:17Z</time>
      </trkpt>
      <trkpt lat="46.10064" lon="6.44315">
        <ele>1330</ele>
        <time>2018-03-14T15:34:18Z</time>
      </trkpt>
      <trkpt lat="46.10065" lon="6.4428">
        <ele>1327</ele>
        <time>2018-03-14T15:34:26Z</time>
      </trkpt>
      <trkpt lat="46.10065" lon="6.44261">
        <ele>1329</ele>
        <time>2018-03-14T15:34:31Z</time>
      </trkpt>
      <trkpt lat="46.10061" lon="6.44226">
        <ele>1318</ele>
        <time>2018-03-14T15:34:40Z</time>
      </trkpt>
      <trkpt lat="46.1006" lon="6.44187">
        <ele>1314</ele>
        <time>2018-03-14T15:34:52Z</time>
      </trkpt>
      <trkpt lat="46.10064" lon="6.44153">
        <ele>1304</ele>
        <time>2018-03-14T15:35:02Z</time>
      </trkpt>
      <trkpt lat="46.10065" lon="6.44151">
        <ele>1303</ele>
        <time>2018-03-14T15:35:03Z</time>
      </trkpt>
      <trkpt lat="46.10068" lon="6.44149">
        <ele>1304</ele>
        <time>2018-03-14T15:35:17Z</time>
      </trkpt>
      <trkpt lat="46.1007" lon="6.44142">
        <ele>1302</ele>
        <time>2018-03-14T15:35:24Z</time>
      </trkpt>
      <trkpt lat="46.1007" lon="6.44141">
        <ele>1302</ele>
        <time>2018-03-14T15:35:25Z</time>
      </trkpt>
      <trkpt lat="46.10072" lon="6.44136">
        <ele>1300</ele>
        <time>2018-03-14T15:35:28Z</time>
      </trkpt>
      <trkpt lat="46.10075" lon="6.44129">
        <ele>1298</ele>
        <time>2018-03-14T15:35:32Z</time>
      </trkpt>
      <trkpt lat="46.10086" lon="6.44115">
        <ele>1308</ele>
        <time>2018-03-14T15:35:43Z</time>
      </trkpt>
      <trkpt lat="46.10087" lon="6.44115">
        <ele>1308</ele>
        <time>2018-03-14T15:35:44Z</time>
      </trkpt>
      <trkpt lat="46.10088" lon="6.44114">
        <ele>1308</ele>
        <time>2018-03-14T15:35:45Z</time>
      </trkpt>
      <trkpt lat="46.10088" lon="6.44114">
        <ele>1307</ele>
        <time>2018-03-14T15:35:54Z</time>
      </trkpt>
      <trkpt lat="46.10091" lon="6.44111">
        <ele>1307</ele>
        <time>2018-03-14T15:35:57Z</time>
      </trkpt>
      <trkpt lat="46.10092" lon="6.4411">
        <ele>1306</ele>
        <time>2018-03-14T15:35:58Z</time>
      </trkpt>
      <trkpt lat="46.10093" lon="6.44109">
        <ele>1306</ele>
        <time>2018-03-14T15:35:59Z</time>
      </trkpt>
      <trkpt lat="46.10095" lon="6.44107">
        <ele>1306</ele>
        <time>2018-03-14T15:36:00Z</time>
      </trkpt>
      <trkpt lat="46.10098" lon="6.44105">
        <ele>1305</ele>
        <time>2018-03-14T15:36:01Z</time>
      </trkpt>
      <trkpt lat="46.10101" lon="6.44101">
        <ele>1305</ele>
        <time>2018-03-14T15:36:02Z</time>
      </trkpt>
      <trkpt lat="46.10109" lon="6.44095">
        <ele>1305</ele>
        <time>2018-03-14T15:36:04Z</time>
      </trkpt>
      <trkpt lat="46.10111" lon="6.44092">
        <ele>1305</ele>
        <time>2018-03-14T15:36:05Z</time>
      </trkpt>
      <trkpt lat="46.10115" lon="6.44089">
        <ele>1305</ele>
        <time>2018-03-14T15:36:06Z</time>
      </trkpt>
      <trkpt lat="46.10119" lon="6.44087">
        <ele>1305</ele>
        <time>2018-03-14T15:36:07Z</time>
      </trkpt>
      <trkpt lat="46.10122" lon="6.44085">
        <ele>1305</ele>
        <time>2018-03-14T15:36:08Z</time>
      </trkpt>
      <trkpt lat="46.10125" lon="6.44084">
        <ele>1305</ele>
        <time>2018-03-14T15:36:09Z</time>
      </trkpt>
      <trkpt lat="46.10129" lon="6.44083">
        <ele>1285</ele>
        <time>2018-03-14T15:36:10Z</time>
      </trkpt>
      <trkpt lat="46.10133" lon="6.44082">
        <ele>1285</ele>
        <time>2018-03-14T15:36:11Z</time>
      </trkpt>
      <trkpt lat="46.10137" lon="6.4408">
        <ele>1285</ele>
        <time>2018-03-14T15:36:12Z</time>
      </trkpt>
      <trkpt lat="46.1014" lon="6.44079">
        <ele>1285</ele>
        <time>2018-03-14T15:36:13Z</time>
      </trkpt>
      <trkpt lat="46.10143" lon="6.44079">
        <ele>1286</ele>
        <time>2018-03-14T15:36:14Z</time>
      </trkpt>
      <trkpt lat="46.10146" lon="6.44079">
        <ele>1286</ele>
        <time>2018-03-14T15:36:15Z</time>
      </trkpt>
      <trkpt lat="46.1015" lon="6.44079">
        <ele>1287</ele>
        <time>2018-03-14T15:36:16Z</time>
      </trkpt>
      <trkpt lat="46.10153" lon="6.44079">
        <ele>1288</ele>
        <time>2018-03-14T15:36:17Z</time>
      </trkpt>
      <trkpt lat="46.10156" lon="6.44079">
        <ele>1289</ele>
        <time>2018-03-14T15:36:18Z</time>
      </trkpt>
      <trkpt lat="46.10174" lon="6.44084">
        <ele>1298</ele>
        <time>2018-03-14T15:36:24Z</time>
      </trkpt>
      <trkpt lat="46.10184" lon="6.44089">
        <ele>1300</ele>
        <time>2018-03-14T15:36:29Z</time>
      </trkpt>
      <trkpt lat="46.10186" lon="6.44089">
        <ele>1300</ele>
        <time>2018-03-14T15:36:30Z</time>
      </trkpt>
      <trkpt lat="46.10187" lon="6.4409">
        <ele>1300</ele>
        <time>2018-03-14T15:36:32Z</time>
      </trkpt>
      <trkpt lat="46.10191" lon="6.4409">
        <ele>1301</ele>
        <time>2018-03-14T15:36:40Z</time>
      </trkpt>
      <trkpt lat="46.10205" lon="6.44097">
        <ele>1301</ele>
        <time>2018-03-14T15:36:46Z</time>
      </trkpt>
      <trkpt lat="46.10209" lon="6.44099">
        <ele>1301</ele>
        <time>2018-03-14T15:36:47Z</time>
      </trkpt>
      <trkpt lat="46.10213" lon="6.44102">
        <ele>1301</ele>
        <time>2018-03-14T15:36:48Z</time>
      </trkpt>
      <trkpt lat="46.10233" lon="6.44103">
        <ele>1299</ele>
        <time>2018-03-14T15:36:53Z</time>
      </trkpt>
      <trkpt lat="46.10238" lon="6.44103">
        <ele>1298</ele>
        <time>2018-03-14T15:36:54Z</time>
      </trkpt>
      <trkpt lat="46.10243" lon="6.44102">
        <ele>1297</ele>
        <time>2018-03-14T15:36:55Z</time>
      </trkpt>
      <trkpt lat="46.10251" lon="6.441">
        <ele>1293</ele>
        <time>2018-03-14T15:36:57Z</time>
      </trkpt>
      <trkpt lat="46.10255" lon="6.44099">
        <ele>1293</ele>
        <time>2018-03-14T15:36:58Z</time>
      </trkpt>
      <trkpt lat="46.10259" lon="6.44097">
        <ele>1293</ele>
        <time>2018-03-14T15:36:59Z</time>
      </trkpt>
      <trkpt lat="46.10263" lon="6.44095">
        <ele>1293</ele>
        <time>2018-03-14T15:37:00Z</time>
      </trkpt>
      <trkpt lat="46.10267" lon="6.44095">
        <ele>1294</ele>
        <time>2018-03-14T15:37:01Z</time>
      </trkpt>
      <trkpt lat="46.10271" lon="6.44094">
        <ele>1294</ele>
        <time>2018-03-14T15:37:02Z</time>
      </trkpt>
      <trkpt lat="46.10274" lon="6.44094">
        <ele>1295</ele>
        <time>2018-03-14T15:37:03Z</time>
      </trkpt>
      <trkpt lat="46.10288" lon="6.44091">
        <ele>1296</ele>
        <time>2018-03-14T15:37:06Z</time>
      </trkpt>
      <trkpt lat="46.10302" lon="6.44091">
        <ele>1295</ele>
        <time>2018-03-14T15:37:10Z</time>
      </trkpt>
      <trkpt lat="46.10306" lon="6.44086">
        <ele>1294</ele>
        <time>2018-03-14T15:37:17Z</time>
      </trkpt>
      <trkpt lat="46.10306" lon="6.44085">
        <ele>1294</ele>
        <time>2018-03-14T15:37:18Z</time>
      </trkpt>
      <trkpt lat="46.10311" lon="6.44079">
        <ele>1278</ele>
        <time>2018-03-14T15:37:23Z</time>
      </trkpt>
      <trkpt lat="46.10312" lon="6.44079">
        <ele>1278</ele>
        <time>2018-03-14T15:37:24Z</time>
      </trkpt>
      <trkpt lat="46.1033" lon="6.44068">
        <ele>1279</ele>
        <time>2018-03-14T15:37:37Z</time>
      </trkpt>
      <trkpt lat="46.10343" lon="6.44054">
        <ele>1278</ele>
        <time>2018-03-14T15:37:47Z</time>
      </trkpt>
      <trkpt lat="46.10352" lon="6.44039">
        <ele>1275</ele>
        <time>2018-03-14T15:38:01Z</time>
      </trkpt>
      <trkpt lat="46.10353" lon="6.44037">
        <ele>1275</ele>
        <time>2018-03-14T15:38:02Z</time>
      </trkpt>
      <trkpt lat="46.10355" lon="6.44036">
        <ele>1275</ele>
        <time>2018-03-14T15:38:03Z</time>
      </trkpt>
      <trkpt lat="46.10357" lon="6.44034">
        <ele>1274</ele>
        <time>2018-03-14T15:38:04Z</time>
      </trkpt>
      <trkpt lat="46.1036" lon="6.44033">
        <ele>1274</ele>
        <time>2018-03-14T15:38:05Z</time>
      </trkpt>
      <trkpt lat="46.10363" lon="6.44032">
        <ele>1274</ele>
        <time>2018-03-14T15:38:06Z</time>
      </trkpt>
      <trkpt lat="46.10366" lon="6.44031">
        <ele>1274</ele>
        <time>2018-03-14T15:38:07Z</time>
      </trkpt>
      <trkpt lat="46.1037" lon="6.4403">
        <ele>1274</ele>
        <time>2018-03-14T15:38:08Z</time>
      </trkpt>
      <trkpt lat="46.10374" lon="6.44031">
        <ele>1275</ele>
        <time>2018-03-14T15:38:09Z</time>
      </trkpt>
      <trkpt lat="46.10377" lon="6.4403">
        <ele>1275</ele>
        <time>2018-03-14T15:38:10Z</time>
      </trkpt>
      <trkpt lat="46.10378" lon="6.44027">
        <ele>1274</ele>
        <time>2018-03-14T15:38:11Z</time>
      </trkpt>
      <trkpt lat="46.10378" lon="6.44025">
        <ele>1274</ele>
        <time>2018-03-14T15:38:12Z</time>
      </trkpt>
      <trkpt lat="46.10377" lon="6.44025">
        <ele>1274</ele>
        <time>2018-03-14T15:38:13Z</time>
      </trkpt>
      <trkpt lat="46.10377" lon="6.44023">
        <ele>1273</ele>
        <time>2018-03-14T15:38:18Z</time>
      </trkpt>
      <trkpt lat="46.10378" lon="6.44023">
        <ele>1273</ele>
        <time>2018-03-14T15:38:22Z</time>
      </trkpt>
      <trkpt lat="46.10375" lon="6.44019">
        <ele>1273</ele>
        <time>2018-03-14T15:38:25Z</time>
      </trkpt>
      <trkpt lat="46.10356" lon="6.44004">
        <ele>1269</ele>
        <time>2018-03-14T15:38:38Z</time>
      </trkpt>
      <trkpt lat="46.10351" lon="6.44003">
        <ele>1268</ele>
        <time>2018-03-14T15:38:43Z</time>
      </trkpt>
      <trkpt lat="46.1035" lon="6.44001">
        <ele>1267</ele>
        <time>2018-03-14T15:38:53Z</time>
      </trkpt>
      <trkpt lat="46.10328" lon="6.44013">
        <ele>1265</ele>
        <time>2018-03-14T15:39:02Z</time>
      </trkpt>
      <trkpt lat="46.1032" lon="6.44014">
        <ele>1266</ele>
        <time>2018-03-14T15:39:04Z</time>
      </trkpt>
      <trkpt lat="46.10307" lon="6.44012">
        <ele>1267</ele>
        <time>2018-03-14T15:39:07Z</time>
      </trkpt>
      <trkpt lat="46.10289" lon="6.44006">
        <ele>1267</ele>
        <time>2018-03-14T15:39:11Z</time>
      </trkpt>
      <trkpt lat="46.10284" lon="6.44004">
        <ele>1266</ele>
        <time>2018-03-14T15:39:12Z</time>
      </trkpt>
      <trkpt lat="46.10251" lon="6.43982">
        <ele>1250</ele>
        <time>2018-03-14T15:39:21Z</time>
      </trkpt>
      <trkpt lat="46.10247" lon="6.43979">
        <ele>1248</ele>
        <time>2018-03-14T15:39:22Z</time>
      </trkpt>
      <trkpt lat="46.10244" lon="6.43976">
        <ele>1248</ele>
        <time>2018-03-14T15:39:23Z</time>
      </trkpt>
      <trkpt lat="46.10241" lon="6.43974">
        <ele>1247</ele>
        <time>2018-03-14T15:39:24Z</time>
      </trkpt>
      <trkpt lat="46.10232" lon="6.43976">
        <ele>1247</ele>
        <time>2018-03-14T15:39:39Z</time>
      </trkpt>
      <trkpt lat="46.10231" lon="6.43975">
        <ele>1247</ele>
        <time>2018-03-14T15:39:40Z</time>
      </trkpt>
      <trkpt lat="46.10228" lon="6.43973">
        <ele>1246</ele>
        <time>2018-03-14T15:39:43Z</time>
      </trkpt>
      <trkpt lat="46.1022" lon="6.43971">
        <ele>1246</ele>
        <time>2018-03-14T15:39:50Z</time>
      </trkpt>
      <trkpt lat="46.10216" lon="6.43971">
        <ele>1246</ele>
        <time>2018-03-14T15:40:02Z</time>
      </trkpt>
      <trkpt lat="46.10211" lon="6.43968">
        <ele>1246</ele>
        <time>2018-03-14T15:40:04Z</time>
      </trkpt>
      <trkpt lat="46.10201" lon="6.43961">
        <ele>1245</ele>
        <time>2018-03-14T15:40:08Z</time>
      </trkpt>
      <trkpt lat="46.10188" lon="6.43951">
        <ele>1243</ele>
        <time>2018-03-14T15:40:14Z</time>
      </trkpt>
      <trkpt lat="46.10182" lon="6.43945">
        <ele>1242</ele>
        <time>2018-03-14T15:40:17Z</time>
      </trkpt>
      <trkpt lat="46.10182" lon="6.43939">
        <ele>1240</ele>
        <time>2018-03-14T15:40:37Z</time>
      </trkpt>
      <trkpt lat="46.10183" lon="6.43937">
        <ele>1240</ele>
        <time>2018-03-14T15:40:43Z</time>
      </trkpt>
      <trkpt lat="46.10184" lon="6.43935">
        <ele>1239</ele>
        <time>2018-03-14T15:40:46Z</time>
      </trkpt>
      <trkpt lat="46.10181" lon="6.43932">
        <ele>1238</ele>
        <time>2018-03-14T15:40:57Z</time>
      </trkpt>
      <trkpt lat="46.10179" lon="6.4393">
        <ele>1238</ele>
        <time>2018-03-14T15:40:58Z</time>
      </trkpt>
      <trkpt lat="46.10178" lon="6.43929">
        <ele>1237</ele>
        <time>2018-03-14T15:40:59Z</time>
      </trkpt>
      <trkpt lat="46.10177" lon="6.43927">
        <ele>1237</ele>
        <time>2018-03-14T15:41:00Z</time>
      </trkpt>
      <trkpt lat="46.10172" lon="6.43924">
        <ele>1235</ele>
        <time>2018-03-14T15:41:03Z</time>
      </trkpt>
      <trkpt lat="46.10155" lon="6.43916">
        <ele>1225</ele>
        <time>2018-03-14T15:41:17Z</time>
      </trkpt>
      <trkpt lat="46.10153" lon="6.43917">
        <ele>1236</ele>
        <time>2018-03-14T15:41:19Z</time>
      </trkpt>
      <trkpt lat="46.10151" lon="6.43918">
        <ele>1237</ele>
        <time>2018-03-14T15:41:20Z</time>
      </trkpt>
      <trkpt lat="46.10127" lon="6.43912">
        <ele>1219</ele>
        <time>2018-03-14T15:41:37Z</time>
      </trkpt>
      <trkpt lat="46.10124" lon="6.4391">
        <ele>1219</ele>
        <time>2018-03-14T15:41:40Z</time>
      </trkpt>
      <trkpt lat="46.10122" lon="6.4391">
        <ele>1219</ele>
        <time>2018-03-14T15:41:41Z</time>
      </trkpt>
      <trkpt lat="46.1012" lon="6.43909">
        <ele>1219</ele>
        <time>2018-03-14T15:41:42Z</time>
      </trkpt>
      <trkpt lat="46.10119" lon="6.4391">
        <ele>1219</ele>
        <time>2018-03-14T15:41:43Z</time>
      </trkpt>
      <trkpt lat="46.10117" lon="6.43909">
        <ele>1219</ele>
        <time>2018-03-14T15:41:44Z</time>
      </trkpt>
      <trkpt lat="46.10115" lon="6.43909">
        <ele>1219</ele>
        <time>2018-03-14T15:41:45Z</time>
      </trkpt>
      <trkpt lat="46.10114" lon="6.43908">
        <ele>1219</ele>
        <time>2018-03-14T15:41:46Z</time>
      </trkpt>
      <trkpt lat="46.10113" lon="6.43908">
        <ele>1219</ele>
        <time>2018-03-14T15:41:47Z</time>
      </trkpt>
      <trkpt lat="46.10111" lon="6.43907">
        <ele>1219</ele>
        <time>2018-03-14T15:41:48Z</time>
      </trkpt>
      <trkpt lat="46.1011" lon="6.43907">
        <ele>1219</ele>
        <time>2018-03-14T15:41:49Z</time>
      </trkpt>
      <trkpt lat="46.10109" lon="6.43907">
        <ele>1219</ele>
        <time>2018-03-14T15:41:50Z</time>
      </trkpt>
      <trkpt lat="46.10108" lon="6.43907">
        <ele>1219</ele>
        <time>2018-03-14T15:41:51Z</time>
      </trkpt>
      <trkpt lat="46.10106" lon="6.43907">
        <ele>1219</ele>
        <time>2018-03-14T15:41:52Z</time>
      </trkpt>
      <trkpt lat="46.10105" lon="6.43907">
        <ele>1220</ele>
        <time>2018-03-14T15:41:53Z</time>
      </trkpt>
      <trkpt lat="46.10103" lon="6.43907">
        <ele>1220</ele>
        <time>2018-03-14T15:41:54Z</time>
      </trkpt>
      <trkpt lat="46.10102" lon="6.43907">
        <ele>1220</ele>
        <time>2018-03-14T15:41:55Z</time>
      </trkpt>
      <trkpt lat="46.101" lon="6.43906">
        <ele>1220</ele>
        <time>2018-03-14T15:41:56Z</time>
      </trkpt>
      <trkpt lat="46.10099" lon="6.43906">
        <ele>1220</ele>
        <time>2018-03-14T15:41:57Z</time>
      </trkpt>
      <trkpt lat="46.10097" lon="6.43906">
        <ele>1220</ele>
        <time>2018-03-14T15:41:58Z</time>
      </trkpt>
      <trkpt lat="46.10078" lon="6.43904">
        <ele>1217</ele>
        <time>2018-03-14T15:42:10Z</time>
      </trkpt>
      <trkpt lat="46.10058" lon="6.43901">
        <ele>1210</ele>
        <time>2018-03-14T15:42:23Z</time>
      </trkpt>
      <trkpt lat="46.10057" lon="6.43901">
        <ele>1210</ele>
        <time>2018-03-14T15:42:24Z</time>
      </trkpt>
      <trkpt lat="46.10051" lon="6.439">
        <ele>1209</ele>
        <time>2018-03-14T15:42:28Z</time>
      </trkpt>
      <trkpt lat="46.1005" lon="6.43901">
        <ele>1208</ele>
        <time>2018-03-14T15:42:29Z</time>
      </trkpt>
      <trkpt lat="46.10048" lon="6.43901">
        <ele>1208</ele>
        <time>2018-03-14T15:42:30Z</time>
      </trkpt>
      <trkpt lat="46.10047" lon="6.439">
        <ele>1208</ele>
        <time>2018-03-14T15:42:31Z</time>
      </trkpt>
      <trkpt lat="46.10045" lon="6.43901">
        <ele>1207</ele>
        <time>2018-03-14T15:42:32Z</time>
      </trkpt>
      <trkpt lat="46.10044" lon="6.43901">
        <ele>1207</ele>
        <time>2018-03-14T15:42:33Z</time>
      </trkpt>
      <trkpt lat="46.10042" lon="6.43901">
        <ele>1207</ele>
        <time>2018-03-14T15:42:34Z</time>
      </trkpt>
      <trkpt lat="46.10017" lon="6.43908">
        <ele>1205</ele>
        <time>2018-03-14T15:42:51Z</time>
      </trkpt>
      <trkpt lat="46.10004" lon="6.43911">
        <ele>1206</ele>
        <time>2018-03-14T15:43:02Z</time>
      </trkpt>
      <trkpt lat="46.10003" lon="6.43911">
        <ele>1206</ele>
        <time>2018-03-14T15:43:03Z</time>
      </trkpt>
      <trkpt lat="46.09999" lon="6.43911">
        <ele>1202</ele>
        <time>2018-03-14T15:43:07Z</time>
      </trkpt>
      <trkpt lat="46.09998" lon="6.43912">
        <ele>1202</ele>
        <time>2018-03-14T15:43:08Z</time>
      </trkpt>
      <trkpt lat="46.09996" lon="6.43912">
        <ele>1202</ele>
        <time>2018-03-14T15:43:09Z</time>
      </trkpt>
      <trkpt lat="46.09994" lon="6.43911">
        <ele>1200</ele>
        <time>2018-03-14T15:43:11Z</time>
      </trkpt>
      <trkpt lat="46.09993" lon="6.4391">
        <ele>1199</ele>
        <time>2018-03-14T15:43:12Z</time>
      </trkpt>
      <trkpt lat="46.09985" lon="6.43907">
        <ele>1194</ele>
        <time>2018-03-14T15:43:21Z</time>
      </trkpt>
      <trkpt lat="46.09977" lon="6.43906">
        <ele>1191</ele>
        <time>2018-03-14T15:43:29Z</time>
      </trkpt>
      <trkpt lat="46.09967" lon="6.43907">
        <ele>1188</ele>
        <time>2018-03-14T15:43:39Z</time>
      </trkpt>
      <trkpt lat="46.09958" lon="6.43911">
        <ele>1186</ele>
        <time>2018-03-14T15:43:49Z</time>
      </trkpt>
      <trkpt lat="46.09949" lon="6.43911">
        <ele>1184</ele>
        <time>2018-03-14T15:43:59Z</time>
      </trkpt>
      <trkpt lat="46.09942" lon="6.43916">
        <ele>1183</ele>
        <time>2018-03-14T15:44:08Z</time>
      </trkpt>
      <trkpt lat="46.09931" lon="6.43923">
        <ele>1191</ele>
        <time>2018-03-14T15:44:19Z</time>
      </trkpt>
      <trkpt lat="46.09927" lon="6.43926">
        <ele>1190</ele>
        <time>2018-03-14T15:44:22Z</time>
      </trkpt>
      <trkpt lat="46.09925" lon="6.43927">
        <ele>1190</ele>
        <time>2018-03-14T15:44:23Z</time>
      </trkpt>
      <trkpt lat="46.09923" lon="6.43927">
        <ele>1189</ele>
        <time>2018-03-14T15:44:24Z</time>
      </trkpt>
      <trkpt lat="46.09922" lon="6.43927">
        <ele>1188</ele>
        <time>2018-03-14T15:44:25Z</time>
      </trkpt>
      <trkpt lat="46.0992" lon="6.43925">
        <ele>1186</ele>
        <time>2018-03-14T15:44:26Z</time>
      </trkpt>
      <trkpt lat="46.0992" lon="6.43922">
        <ele>1185</ele>
        <time>2018-03-14T15:44:27Z</time>
      </trkpt>
      <trkpt lat="46.0992" lon="6.4392">
        <ele>1183</ele>
        <time>2018-03-14T15:44:28Z</time>
      </trkpt>
      <trkpt lat="46.09921" lon="6.43909">
        <ele>1179</ele>
        <time>2018-03-14T15:44:34Z</time>
      </trkpt>
      <trkpt lat="46.09921" lon="6.43906">
        <ele>1180</ele>
        <time>2018-03-14T15:44:35Z</time>
      </trkpt>
      <trkpt lat="46.09921" lon="6.43904">
        <ele>1180</ele>
        <time>2018-03-14T15:44:36Z</time>
      </trkpt>
      <trkpt lat="46.09921" lon="6.43903">
        <ele>1180</ele>
        <time>2018-03-14T15:44:37Z</time>
      </trkpt>
      <trkpt lat="46.09921" lon="6.43901">
        <ele>1180</ele>
        <time>2018-03-14T15:44:38Z</time>
      </trkpt>
      <trkpt lat="46.09921" lon="6.439">
        <ele>1180</ele>
        <time>2018-03-14T15:44:39Z</time>
      </trkpt>
      <trkpt lat="46.09921" lon="6.43898">
        <ele>1180</ele>
        <time>2018-03-14T15:44:40Z</time>
      </trkpt>
      <trkpt lat="46.09921" lon="6.43897">
        <ele>1180</ele>
        <time>2018-03-14T15:44:41Z</time>
      </trkpt>
      <trkpt lat="46.0992" lon="6.43896">
        <ele>1180</ele>
        <time>2018-03-14T15:44:42Z</time>
      </trkpt>
      <trkpt lat="46.0992" lon="6.43895">
        <ele>1180</ele>
        <time>2018-03-14T15:44:43Z</time>
      </trkpt>
      <trkpt lat="46.09918" lon="6.43886">
        <ele>1179</ele>
        <time>2018-03-14T15:44:48Z</time>
      </trkpt>
      <trkpt lat="46.09917" lon="6.43885">
        <ele>1179</ele>
        <time>2018-03-14T15:44:49Z</time>
      </trkpt>
      <trkpt lat="46.09917" lon="6.43883">
        <ele>1164</ele>
        <time>2018-03-14T15:44:50Z</time>
      </trkpt>
      <trkpt lat="46.09912" lon="6.43874">
        <ele>1163</ele>
        <time>2018-03-14T15:44:58Z</time>
      </trkpt>
      <trkpt lat="46.09911" lon="6.43874">
        <ele>1163</ele>
        <time>2018-03-14T15:44:59Z</time>
      </trkpt>
      <trkpt lat="46.0991" lon="6.43876">
        <ele>1163</ele>
        <time>2018-03-14T15:45:00Z</time>
      </trkpt>
      <trkpt lat="46.0991" lon="6.43878">
        <ele>1163</ele>
        <time>2018-03-14T15:45:01Z</time>
      </trkpt>
      <trkpt lat="46.09909" lon="6.43879">
        <ele>1163</ele>
        <time>2018-03-14T15:45:02Z</time>
      </trkpt>
      <trkpt lat="46.09908" lon="6.43881">
        <ele>1163</ele>
        <time>2018-03-14T15:45:03Z</time>
      </trkpt>
      <trkpt lat="46.09908" lon="6.43882">
        <ele>1163</ele>
        <time>2018-03-14T15:45:04Z</time>
      </trkpt>
      <trkpt lat="46.09908" lon="6.43884">
        <ele>1164</ele>
        <time>2018-03-14T15:45:05Z</time>
      </trkpt>
      <trkpt lat="46.09908" lon="6.43886">
        <ele>1164</ele>
        <time>2018-03-14T15:45:06Z</time>
      </trkpt>
      <trkpt lat="46.09908" lon="6.43887">
        <ele>1164</ele>
        <time>2018-03-14T15:45:07Z</time>
      </trkpt>
      <trkpt lat="46.09907" lon="6.43889">
        <ele>1164</ele>
        <time>2018-03-14T15:45:08Z</time>
      </trkpt>
      <trkpt lat="46.09907" lon="6.43891">
        <ele>1165</ele>
        <time>2018-03-14T15:45:09Z</time>
      </trkpt>
      <trkpt lat="46.09907" lon="6.43892">
        <ele>1165</ele>
        <time>2018-03-14T15:45:10Z</time>
      </trkpt>
      <trkpt lat="46.0991" lon="6.43894">
        <ele>1166</ele>
        <time>2018-03-14T15:45:14Z</time>
      </trkpt>
      <trkpt lat="46.0991" lon="6.43897">
        <ele>1167</ele>
        <time>2018-03-14T15:45:26Z</time>
      </trkpt>
      <trkpt lat="46.09909" lon="6.43897">
        <ele>1166</ele>
        <time>2018-03-14T15:45:34Z</time>
      </trkpt>
    </trkseg>
  </trk>
</gpx>